<?xml version="1.0" encoding="UTF-8" standalone="no" ?>
<gpx xmlns="http://www.topografix.com/GPX/1/1" xmlns:xsi="http://www.w3.org/2001/XMLSchema-instance" xsi:schemaLocation="http://www.topografix.com/GPX/1/1 http://www.topografix.com/GPX/1/1/gpx.xsd" version="1.1" creator="VisuGPX - https://www.visugpx.com">
  <metadata>
    <name>Combovin</name>
    <desc><![CDATA[Parcours sans difficulté, dans un sens ou dans l\'autre selon le vent]]></desc>
  </metadata>
  <trk>
    <name><![CDATA[Combovin]]></name>
    <cmt><![CDATA[Claude, Philippe,Jacques, Edmond, JeanPierre, Bruno, Thierry]]></cmt>
    <trkseg>
      <trkpt lat="45.12008" lon="4.98393">
        <ele>204.52940368652</ele>
        <time>2009-04-25T11:46:26Z</time>
      </trkpt>
      <trkpt lat="45.12009" lon="4.98391">
        <ele>204.49278259277</ele>
        <time>2009-04-25T11:46:26Z</time>
      </trkpt>
      <trkpt lat="45.11981" lon="4.98378">
        <ele>203.59492492676</ele>
        <time>2009-04-25T11:46:31Z</time>
      </trkpt>
      <trkpt lat="45.11944" lon="4.98346">
        <ele>202.4248046875</ele>
        <time>2009-04-25T11:46:37Z</time>
      </trkpt>
      <trkpt lat="45.11937" lon="4.98333">
        <ele>202.251953125</ele>
        <time>2009-04-25T11:46:39Z</time>
      </trkpt>
      <trkpt lat="45.11921" lon="4.98267">
        <ele>203.6435546875</ele>
        <time>2009-04-25T11:46:46Z</time>
      </trkpt>
      <trkpt lat="45.11676" lon="4.98341">
        <ele>205.58093261719</ele>
        <time>2009-04-25T11:47:22Z</time>
      </trkpt>
      <trkpt lat="45.11656" lon="4.9834">
        <ele>208.44294738769</ele>
        <time>2009-04-25T11:47:25Z</time>
      </trkpt>
      <trkpt lat="45.11649" lon="4.98327">
        <ele>209.31427001953</ele>
        <time>2009-04-25T11:47:26Z</time>
      </trkpt>
      <trkpt lat="45.11636" lon="4.9828">
        <ele>208.38604736328</ele>
        <time>2009-04-25T11:47:32Z</time>
      </trkpt>
      <trkpt lat="45.11623" lon="4.98258">
        <ele>209.57888793945</ele>
        <time>2009-04-25T11:47:35Z</time>
      </trkpt>
      <trkpt lat="45.11588" lon="4.98219">
        <ele>213.42266845703</ele>
        <time>2009-04-25T11:47:41Z</time>
      </trkpt>
      <trkpt lat="45.1155" lon="4.98194">
        <ele>216.86726379394</ele>
        <time>2009-04-25T11:47:47Z</time>
      </trkpt>
      <trkpt lat="45.11542" lon="4.98177">
        <ele>216.78358459473</ele>
        <time>2009-04-25T11:47:49Z</time>
      </trkpt>
      <trkpt lat="45.11535" lon="4.9813">
        <ele>215.06111145019</ele>
        <time>2009-04-25T11:47:54Z</time>
      </trkpt>
      <trkpt lat="45.11532" lon="4.98125">
        <ele>215.43264770508</ele>
        <time>2009-04-25T11:47:55Z</time>
      </trkpt>
      <trkpt lat="45.11522" lon="4.98125">
        <ele>217.6346282959</ele>
        <time>2009-04-25T11:47:56Z</time>
      </trkpt>
      <trkpt lat="45.11515" lon="4.98139">
        <ele>219.81562805176</ele>
        <time>2009-04-25T11:47:58Z</time>
      </trkpt>
      <trkpt lat="45.11514" lon="4.98153">
        <ele>220.70314025879</ele>
        <time>2009-04-25T11:47:59Z</time>
      </trkpt>
      <trkpt lat="45.11517" lon="4.9825">
        <ele>225.9659576416</ele>
        <time>2009-04-25T11:48:09Z</time>
      </trkpt>
      <trkpt lat="45.11512" lon="4.98299">
        <ele>228.07463073731</ele>
        <time>2009-04-25T11:48:14Z</time>
      </trkpt>
      <trkpt lat="45.11501" lon="4.9833">
        <ele>229.85171508789</ele>
        <time>2009-04-25T11:48:18Z</time>
      </trkpt>
      <trkpt lat="45.11485" lon="4.98357">
        <ele>230.80053710938</ele>
        <time>2009-04-25T11:48:21Z</time>
      </trkpt>
      <trkpt lat="45.11426" lon="4.98435">
        <ele>238.43495178223</ele>
        <time>2009-04-25T11:48:33Z</time>
      </trkpt>
      <trkpt lat="45.11413" lon="4.98479">
        <ele>242.857421875</ele>
        <time>2009-04-25T11:48:38Z</time>
      </trkpt>
      <trkpt lat="45.11377" lon="4.98497">
        <ele>247.18902587891</ele>
        <time>2009-04-25T11:48:43Z</time>
      </trkpt>
      <trkpt lat="45.11359" lon="4.98513">
        <ele>249.08213806152</ele>
        <time>2009-04-25T11:48:47Z</time>
      </trkpt>
      <trkpt lat="45.11341" lon="4.98542">
        <ele>250.58285522461</ele>
        <time>2009-04-25T11:48:50Z</time>
      </trkpt>
      <trkpt lat="45.11301" lon="4.98584">
        <ele>250.23580932617</ele>
        <time>2009-04-25T11:48:58Z</time>
      </trkpt>
      <trkpt lat="45.11207" lon="4.98697">
        <ele>252.76425170898</ele>
        <time>2009-04-25T11:49:16Z</time>
      </trkpt>
      <trkpt lat="45.10982" lon="4.9889">
        <ele>264.29537963867</ele>
        <time>2009-04-25T11:49:54Z</time>
      </trkpt>
      <trkpt lat="45.10963" lon="4.989">
        <ele>265.63864135742</ele>
        <time>2009-04-25T11:49:56Z</time>
      </trkpt>
      <trkpt lat="45.10938" lon="4.989">
        <ele>267.02828979492</ele>
        <time>2009-04-25T11:50:00Z</time>
      </trkpt>
      <trkpt lat="45.10893" lon="4.98884">
        <ele>268.79864501953</ele>
        <time>2009-04-25T11:50:07Z</time>
      </trkpt>
      <trkpt lat="45.10873" lon="4.98887">
        <ele>270.04382324219</ele>
        <time>2009-04-25T11:50:10Z</time>
      </trkpt>
      <trkpt lat="45.10841" lon="4.98913">
        <ele>272.53652954102</ele>
        <time>2009-04-25T11:50:15Z</time>
      </trkpt>
      <trkpt lat="45.10728" lon="4.99041">
        <ele>284.86538696289</ele>
        <time>2009-04-25T11:50:36Z</time>
      </trkpt>
      <trkpt lat="45.10715" lon="4.99043">
        <ele>285.58071899414</ele>
        <time>2009-04-25T11:50:38Z</time>
      </trkpt>
      <trkpt lat="45.10704" lon="4.99037">
        <ele>285.49978637695</ele>
        <time>2009-04-25T11:50:40Z</time>
      </trkpt>
      <trkpt lat="45.10683" lon="4.99001">
        <ele>282.70532226562</ele>
        <time>2009-04-25T11:50:44Z</time>
      </trkpt>
      <trkpt lat="45.10666" lon="4.98987">
        <ele>282.2389831543</ele>
        <time>2009-04-25T11:50:47Z</time>
      </trkpt>
      <trkpt lat="45.1062" lon="4.98972">
        <ele>282.43640136719</ele>
        <time>2009-04-25T11:50:54Z</time>
      </trkpt>
      <trkpt lat="45.10578" lon="4.98931">
        <ele>281.12860107422</ele>
        <time>2009-04-25T11:51:01Z</time>
      </trkpt>
      <trkpt lat="45.10501" lon="4.98883">
        <ele>281.93313598633</ele>
        <time>2009-04-25T11:51:13Z</time>
      </trkpt>
      <trkpt lat="45.10487" lon="4.98864">
        <ele>281.34884643555</ele>
        <time>2009-04-25T11:51:16Z</time>
      </trkpt>
      <trkpt lat="45.1047" lon="4.98826">
        <ele>280.12005615234</ele>
        <time>2009-04-25T11:51:21Z</time>
      </trkpt>
      <trkpt lat="45.1036" lon="4.98733">
        <ele>279.22543334961</ele>
        <time>2009-04-25T11:51:39Z</time>
      </trkpt>
      <trkpt lat="45.10252" lon="4.98676">
        <ele>275.82507324219</ele>
        <time>2009-04-25T11:51:56Z</time>
      </trkpt>
      <trkpt lat="45.10235" lon="4.98679">
        <ele>276.7453918457</ele>
        <time>2009-04-25T11:51:59Z</time>
      </trkpt>
      <trkpt lat="45.10213" lon="4.98702">
        <ele>280.42379760742</ele>
        <time>2009-04-25T11:52:02Z</time>
      </trkpt>
      <trkpt lat="45.10156" lon="4.98705">
        <ele>284.0198059082</ele>
        <time>2009-04-25T11:52:11Z</time>
      </trkpt>
      <trkpt lat="45.10135" lon="4.987">
        <ele>283.19979858398</ele>
        <time>2009-04-25T11:52:14Z</time>
      </trkpt>
      <trkpt lat="45.10089" lon="4.98659">
        <ele>275.31607055664</ele>
        <time>2009-04-25T11:52:22Z</time>
      </trkpt>
      <trkpt lat="45.10077" lon="4.98654">
        <ele>274.91540527344</ele>
        <time>2009-04-25T11:52:23Z</time>
      </trkpt>
      <trkpt lat="45.09982" lon="4.98646">
        <ele>276.94830322266</ele>
        <time>2009-04-25T11:52:37Z</time>
      </trkpt>
      <trkpt lat="45.09966" lon="4.98649">
        <ele>277.02026367188</ele>
        <time>2009-04-25T11:52:40Z</time>
      </trkpt>
      <trkpt lat="45.09907" lon="4.98688">
        <ele>281.46520996094</ele>
        <time>2009-04-25T11:52:49Z</time>
      </trkpt>
      <trkpt lat="45.09896" lon="4.98686">
        <ele>281.67245483398</ele>
        <time>2009-04-25T11:52:51Z</time>
      </trkpt>
      <trkpt lat="45.09859" lon="4.98656">
        <ele>280.56713867188</ele>
        <time>2009-04-25T11:52:57Z</time>
      </trkpt>
      <trkpt lat="45.09845" lon="4.9865">
        <ele>281.0163269043</ele>
        <time>2009-04-25T11:52:59Z</time>
      </trkpt>
      <trkpt lat="45.0982" lon="4.98648">
        <ele>281.69302368164</ele>
        <time>2009-04-25T11:53:02Z</time>
      </trkpt>
      <trkpt lat="45.09772" lon="4.98657">
        <ele>282.38848876953</ele>
        <time>2009-04-25T11:53:09Z</time>
      </trkpt>
      <trkpt lat="45.09732" lon="4.98657">
        <ele>282.11367797852</ele>
        <time>2009-04-25T11:53:15Z</time>
      </trkpt>
      <trkpt lat="45.0968" lon="4.98622">
        <ele>280.8896484375</ele>
        <time>2009-04-25T11:53:24Z</time>
      </trkpt>
      <trkpt lat="45.09532" lon="4.98547">
        <ele>284.23031616211</ele>
        <time>2009-04-25T11:53:46Z</time>
      </trkpt>
      <trkpt lat="45.095" lon="4.98537">
        <ele>284.77886962891</ele>
        <time>2009-04-25T11:53:51Z</time>
      </trkpt>
      <trkpt lat="45.09351" lon="4.98518">
        <ele>289.26867675781</ele>
        <time>2009-04-25T11:54:13Z</time>
      </trkpt>
      <trkpt lat="45.0933" lon="4.98511">
        <ele>289.5837097168</ele>
        <time>2009-04-25T11:54:16Z</time>
      </trkpt>
      <trkpt lat="45.09221" lon="4.98385">
        <ele>288.3391418457</ele>
        <time>2009-04-25T11:54:36Z</time>
      </trkpt>
      <trkpt lat="45.09195" lon="4.98345">
        <ele>285.80541992188</ele>
        <time>2009-04-25T11:54:42Z</time>
      </trkpt>
      <trkpt lat="45.09189" lon="4.98329">
        <ele>284.95703125</ele>
        <time>2009-04-25T11:54:44Z</time>
      </trkpt>
      <trkpt lat="45.09176" lon="4.98267">
        <ele>281.50448608398</ele>
        <time>2009-04-25T11:54:50Z</time>
      </trkpt>
      <trkpt lat="45.09144" lon="4.98015">
        <ele>276.84451293945</ele>
        <time>2009-04-25T11:55:16Z</time>
      </trkpt>
      <trkpt lat="45.09127" lon="4.97956">
        <ele>274.88916015625</ele>
        <time>2009-04-25T11:55:23Z</time>
      </trkpt>
      <trkpt lat="45.09023" lon="4.97858">
        <ele>276.95770263672</ele>
        <time>2009-04-25T11:55:41Z</time>
      </trkpt>
      <trkpt lat="45.08977" lon="4.97801">
        <ele>275.67935180664</ele>
        <time>2009-04-25T11:55:50Z</time>
      </trkpt>
      <trkpt lat="45.08859" lon="4.97709">
        <ele>270.86880493164</ele>
        <time>2009-04-25T11:56:09Z</time>
      </trkpt>
      <trkpt lat="45.08808" lon="4.97654">
        <ele>268.74603271484</ele>
        <time>2009-04-25T11:56:18Z</time>
      </trkpt>
      <trkpt lat="45.08701" lon="4.97507">
        <ele>266.23080444336</ele>
        <time>2009-04-25T11:56:40Z</time>
      </trkpt>
      <trkpt lat="45.08684" lon="4.97466">
        <ele>265.73294067383</ele>
        <time>2009-04-25T11:56:45Z</time>
      </trkpt>
      <trkpt lat="45.08665" lon="4.97404">
        <ele>265.50448608398</ele>
        <time>2009-04-25T11:56:52Z</time>
      </trkpt>
      <trkpt lat="45.08652" lon="4.97382">
        <ele>264.66448974609</ele>
        <time>2009-04-25T11:56:55Z</time>
      </trkpt>
      <trkpt lat="45.0855" lon="4.97247">
        <ele>265.11157226562</ele>
        <time>2009-04-25T11:57:15Z</time>
      </trkpt>
      <trkpt lat="45.08536" lon="4.97266">
        <ele>265.43203735352</ele>
        <time>2009-04-25T11:57:18Z</time>
      </trkpt>
      <trkpt lat="45.08519" lon="4.97279">
        <ele>265.31439208984</ele>
        <time>2009-04-25T11:57:20Z</time>
      </trkpt>
      <trkpt lat="45.08507" lon="4.97283">
        <ele>265.22451782227</ele>
        <time>2009-04-25T11:57:22Z</time>
      </trkpt>
      <trkpt lat="45.08479" lon="4.97281">
        <ele>264.05700683594</ele>
        <time>2009-04-25T11:57:26Z</time>
      </trkpt>
      <trkpt lat="45.08459" lon="4.97267">
        <ele>263.42779541016</ele>
        <time>2009-04-25T11:57:29Z</time>
      </trkpt>
      <trkpt lat="45.08402" lon="4.97189">
        <ele>257.10995483398</ele>
        <time>2009-04-25T11:57:41Z</time>
      </trkpt>
      <trkpt lat="45.0821" lon="4.9713">
        <ele>247.32543945312</ele>
        <time>2009-04-25T11:58:09Z</time>
      </trkpt>
      <trkpt lat="45.0814" lon="4.97079">
        <ele>244.19149780273</ele>
        <time>2009-04-25T11:58:21Z</time>
      </trkpt>
      <trkpt lat="45.08085" lon="4.97056">
        <ele>241.73126220703</ele>
        <time>2009-04-25T11:58:29Z</time>
      </trkpt>
      <trkpt lat="45.0805" lon="4.97007">
        <ele>239.26867675781</ele>
        <time>2009-04-25T11:58:36Z</time>
      </trkpt>
      <trkpt lat="45.07952" lon="4.96927">
        <ele>237.91004943848</ele>
        <time>2009-04-25T11:58:52Z</time>
      </trkpt>
      <trkpt lat="45.07877" lon="4.9688">
        <ele>236.31973266602</ele>
        <time>2009-04-25T11:59:04Z</time>
      </trkpt>
      <trkpt lat="45.07824" lon="4.96854">
        <ele>235.52642822266</ele>
        <time>2009-04-25T11:59:12Z</time>
      </trkpt>
      <trkpt lat="45.07729" lon="4.96792">
        <ele>233.9912109375</ele>
        <time>2009-04-25T11:59:28Z</time>
      </trkpt>
      <trkpt lat="45.07716" lon="4.96779">
        <ele>233.83557128906</ele>
        <time>2009-04-25T11:59:30Z</time>
      </trkpt>
      <trkpt lat="45.07652" lon="4.96746">
        <ele>231.61640930176</ele>
        <time>2009-04-25T11:59:40Z</time>
      </trkpt>
      <trkpt lat="45.07589" lon="4.96672">
        <ele>229.03083801269</ele>
        <time>2009-04-25T11:59:52Z</time>
      </trkpt>
      <trkpt lat="45.07564" lon="4.96649">
        <ele>225.88162231445</ele>
        <time>2009-04-25T11:59:56Z</time>
      </trkpt>
      <trkpt lat="45.0755" lon="4.96648">
        <ele>224.02322387695</ele>
        <time>2009-04-25T11:59:58Z</time>
      </trkpt>
      <trkpt lat="45.07506" lon="4.96659">
        <ele>218.6247253418</ele>
        <time>2009-04-25T12:00:04Z</time>
      </trkpt>
      <trkpt lat="45.07493" lon="4.96655">
        <ele>216.91940307617</ele>
        <time>2009-04-25T12:00:06Z</time>
      </trkpt>
      <trkpt lat="45.07474" lon="4.96623">
        <ele>214.66146850586</ele>
        <time>2009-04-25T12:00:11Z</time>
      </trkpt>
      <trkpt lat="45.07469" lon="4.96532">
        <ele>213.14669799805</ele>
        <time>2009-04-25T12:00:20Z</time>
      </trkpt>
      <trkpt lat="45.07462" lon="4.96514">
        <ele>212.43161010742</ele>
        <time>2009-04-25T12:00:22Z</time>
      </trkpt>
      <trkpt lat="45.07431" lon="4.96488">
        <ele>210.08857727051</ele>
        <time>2009-04-25T12:00:27Z</time>
      </trkpt>
      <trkpt lat="45.07392" lon="4.96444">
        <ele>206.22972106934</ele>
        <time>2009-04-25T12:00:34Z</time>
      </trkpt>
      <trkpt lat="45.07301" lon="4.96317">
        <ele>194.44905090332</ele>
        <time>2009-04-25T12:00:53Z</time>
      </trkpt>
      <trkpt lat="45.07256" lon="4.96289">
        <ele>189.69248962402</ele>
        <time>2009-04-25T12:01:00Z</time>
      </trkpt>
      <trkpt lat="45.07253" lon="4.9628">
        <ele>188.96350097656</ele>
        <time>2009-04-25T12:01:01Z</time>
      </trkpt>
      <trkpt lat="45.07287" lon="4.96187">
        <ele>185.41093444824</ele>
        <time>2009-04-25T12:01:12Z</time>
      </trkpt>
      <trkpt lat="45.07305" lon="4.96102">
        <ele>182.65719604492</ele>
        <time>2009-04-25T12:01:21Z</time>
      </trkpt>
      <trkpt lat="45.07316" lon="4.95991">
        <ele>177.48159790039</ele>
        <time>2009-04-25T12:01:32Z</time>
      </trkpt>
      <trkpt lat="45.07324" lon="4.95968">
        <ele>174.14308166504</ele>
        <time>2009-04-25T12:01:35Z</time>
      </trkpt>
      <trkpt lat="45.07341" lon="4.95957">
        <ele>172.63825988769</ele>
        <time>2009-04-25T12:01:37Z</time>
      </trkpt>
      <trkpt lat="45.07385" lon="4.95947">
        <ele>170.24911499023</ele>
        <time>2009-04-25T12:01:44Z</time>
      </trkpt>
      <trkpt lat="45.07406" lon="4.95914">
        <ele>164.98837280273</ele>
        <time>2009-04-25T12:01:48Z</time>
      </trkpt>
      <trkpt lat="45.07424" lon="4.95866">
        <ele>162.42749023438</ele>
        <time>2009-04-25T12:01:54Z</time>
      </trkpt>
      <trkpt lat="45.07345" lon="4.95863">
        <ele>161.62112426758</ele>
        <time>2009-04-25T12:02:05Z</time>
      </trkpt>
      <trkpt lat="45.07268" lon="4.95841">
        <ele>158.71636962891</ele>
        <time>2009-04-25T12:02:17Z</time>
      </trkpt>
      <trkpt lat="45.07221" lon="4.95836">
        <ele>157.0888671875</ele>
        <time>2009-04-25T12:02:24Z</time>
      </trkpt>
      <trkpt lat="45.07172" lon="4.95847">
        <ele>155.70498657227</ele>
        <time>2009-04-25T12:02:31Z</time>
      </trkpt>
      <trkpt lat="45.07136" lon="4.95863">
        <ele>155.57176208496</ele>
        <time>2009-04-25T12:02:36Z</time>
      </trkpt>
      <trkpt lat="45.07038" lon="4.95951">
        <ele>157.12716674805</ele>
        <time>2009-04-25T12:02:53Z</time>
      </trkpt>
      <trkpt lat="45.06907" lon="4.96032">
        <ele>155.61210632324</ele>
        <time>2009-04-25T12:03:14Z</time>
      </trkpt>
      <trkpt lat="45.06894" lon="4.96046">
        <ele>156.11824035644</ele>
        <time>2009-04-25T12:03:16Z</time>
      </trkpt>
      <trkpt lat="45.06799" lon="4.96192">
        <ele>157.61204528809</ele>
        <time>2009-04-25T12:03:36Z</time>
      </trkpt>
      <trkpt lat="45.0677" lon="4.96221">
        <ele>156.65974426269</ele>
        <time>2009-04-25T12:03:41Z</time>
      </trkpt>
      <trkpt lat="45.06629" lon="4.96278">
        <ele>154.56256103516</ele>
        <time>2009-04-25T12:04:03Z</time>
      </trkpt>
      <trkpt lat="45.06534" lon="4.96341">
        <ele>155.83317565918</ele>
        <time>2009-04-25T12:04:18Z</time>
      </trkpt>
      <trkpt lat="45.06436" lon="4.96344">
        <ele>155.81399536133</ele>
        <time>2009-04-25T12:04:32Z</time>
      </trkpt>
      <trkpt lat="45.06285" lon="4.96357">
        <ele>159.18307495117</ele>
        <time>2009-04-25T12:04:54Z</time>
      </trkpt>
      <trkpt lat="45.06149" lon="4.96415">
        <ele>160.0115814209</ele>
        <time>2009-04-25T12:05:14Z</time>
      </trkpt>
      <trkpt lat="45.06011" lon="4.96435">
        <ele>159.87030029297</ele>
        <time>2009-04-25T12:05:34Z</time>
      </trkpt>
      <trkpt lat="45.05733" lon="4.96362">
        <ele>153.93882751465</ele>
        <time>2009-04-25T12:06:15Z</time>
      </trkpt>
      <trkpt lat="45.0566" lon="4.96348">
        <ele>152.09439086914</ele>
        <time>2009-04-25T12:06:26Z</time>
      </trkpt>
      <trkpt lat="45.05559" lon="4.9634">
        <ele>151.32362365723</ele>
        <time>2009-04-25T12:06:41Z</time>
      </trkpt>
      <trkpt lat="45.05494" lon="4.96344">
        <ele>151.72631835938</ele>
        <time>2009-04-25T12:06:50Z</time>
      </trkpt>
      <trkpt lat="45.05434" lon="4.96355">
        <ele>150.15676879883</ele>
        <time>2009-04-25T12:06:59Z</time>
      </trkpt>
      <trkpt lat="45.05421" lon="4.96308">
        <ele>150.39361572266</ele>
        <time>2009-04-25T12:07:04Z</time>
      </trkpt>
      <trkpt lat="45.05414" lon="4.96194">
        <ele>150.8974609375</ele>
        <time>2009-04-25T12:07:16Z</time>
      </trkpt>
      <trkpt lat="45.05389" lon="4.95922">
        <ele>149.28901672363</ele>
        <time>2009-04-25T12:07:44Z</time>
      </trkpt>
      <trkpt lat="45.05329" lon="4.95336">
        <ele>147.98005676269</ele>
        <time>2009-04-25T12:08:44Z</time>
      </trkpt>
      <trkpt lat="45.05331" lon="4.95248">
        <ele>148.89790344238</ele>
        <time>2009-04-25T12:08:53Z</time>
      </trkpt>
      <trkpt lat="45.05325" lon="4.95167">
        <ele>145.61080932617</ele>
        <time>2009-04-25T12:09:01Z</time>
      </trkpt>
      <trkpt lat="45.05281" lon="4.94953">
        <ele>141.56726074219</ele>
        <time>2009-04-25T12:09:24Z</time>
      </trkpt>
      <trkpt lat="45.05267" lon="4.94856">
        <ele>145.45230102539</ele>
        <time>2009-04-25T12:09:34Z</time>
      </trkpt>
      <trkpt lat="45.05246" lon="4.94769">
        <ele>149.7412109375</ele>
        <time>2009-04-25T12:09:44Z</time>
      </trkpt>
      <trkpt lat="45.05227" lon="4.94774">
        <ele>148.84535217285</ele>
        <time>2009-04-25T12:09:46Z</time>
      </trkpt>
      <trkpt lat="45.05211" lon="4.94771">
        <ele>148.56414794922</ele>
        <time>2009-04-25T12:09:49Z</time>
      </trkpt>
      <trkpt lat="45.05189" lon="4.94749">
        <ele>149.58299255371</ele>
        <time>2009-04-25T12:09:53Z</time>
      </trkpt>
      <trkpt lat="45.05162" lon="4.94733">
        <ele>149.76058959961</ele>
        <time>2009-04-25T12:09:57Z</time>
      </trkpt>
      <trkpt lat="45.05055" lon="4.94717">
        <ele>148.42442321777</ele>
        <time>2009-04-25T12:10:12Z</time>
      </trkpt>
      <trkpt lat="45.0485" lon="4.94568">
        <ele>146.03677368164</ele>
        <time>2009-04-25T12:10:46Z</time>
      </trkpt>
      <trkpt lat="45.04696" lon="4.94469">
        <ele>145.35070800781</ele>
        <time>2009-04-25T12:11:10Z</time>
      </trkpt>
      <trkpt lat="45.04572" lon="4.94411">
        <ele>143.25456237793</ele>
        <time>2009-04-25T12:11:29Z</time>
      </trkpt>
      <trkpt lat="45.04499" lon="4.94383">
        <ele>144</ele>
        <time>2009-04-25T12:11:40Z</time>
      </trkpt>
      <trkpt lat="45.04466" lon="4.94367">
        <ele>144</ele>
        <time>2009-04-25T12:11:45Z</time>
      </trkpt>
      <trkpt lat="45.0443" lon="4.94341">
        <ele>144</ele>
        <time>2009-04-25T12:11:51Z</time>
      </trkpt>
      <trkpt lat="45.04374" lon="4.9429">
        <ele>144.27351379394</ele>
        <time>2009-04-25T12:12:01Z</time>
      </trkpt>
      <trkpt lat="45.0421" lon="4.94116">
        <ele>144.77365112305</ele>
        <time>2009-04-25T12:12:30Z</time>
      </trkpt>
      <trkpt lat="45.03983" lon="4.93896">
        <ele>139.55737304688</ele>
        <time>2009-04-25T12:13:10Z</time>
      </trkpt>
      <trkpt lat="45.0389" lon="4.93774">
        <ele>137.7565612793</ele>
        <time>2009-04-25T12:13:28Z</time>
      </trkpt>
      <trkpt lat="45.0375" lon="4.93658">
        <ele>137.40798950195</ele>
        <time>2009-04-25T12:13:52Z</time>
      </trkpt>
      <trkpt lat="45.03537" lon="4.93449">
        <ele>136.95088195801</ele>
        <time>2009-04-25T12:14:29Z</time>
      </trkpt>
      <trkpt lat="45.03436" lon="4.93307">
        <ele>135.74491882324</ele>
        <time>2009-04-25T12:14:50Z</time>
      </trkpt>
      <trkpt lat="45.03358" lon="4.93219">
        <ele>134.57868957519</ele>
        <time>2009-04-25T12:15:04Z</time>
      </trkpt>
      <trkpt lat="45.03287" lon="4.9316">
        <ele>136.58485412598</ele>
        <time>2009-04-25T12:15:16Z</time>
      </trkpt>
      <trkpt lat="45.03282" lon="4.93151">
        <ele>136.76493835449</ele>
        <time>2009-04-25T12:15:17Z</time>
      </trkpt>
      <trkpt lat="45.03202" lon="4.93101">
        <ele>137.09056091309</ele>
        <time>2009-04-25T12:15:30Z</time>
      </trkpt>
      <trkpt lat="45.03184" lon="4.93081">
        <ele>138.23168945312</ele>
        <time>2009-04-25T12:15:33Z</time>
      </trkpt>
      <trkpt lat="45.03182" lon="4.93059">
        <ele>138.4207611084</ele>
        <time>2009-04-25T12:15:35Z</time>
      </trkpt>
      <trkpt lat="45.03169" lon="4.93053">
        <ele>138.3807220459</ele>
        <time>2009-04-25T12:15:37Z</time>
      </trkpt>
      <trkpt lat="45.03159" lon="4.93063">
        <ele>138.08114624023</ele>
        <time>2009-04-25T12:15:39Z</time>
      </trkpt>
      <trkpt lat="45.03152" lon="4.93081">
        <ele>137.68295288086</ele>
        <time>2009-04-25T12:15:41Z</time>
      </trkpt>
      <trkpt lat="45.03062" lon="4.93076">
        <ele>135.98840332031</ele>
        <time>2009-04-25T12:15:54Z</time>
      </trkpt>
      <trkpt lat="45.02979" lon="4.93086">
        <ele>135.75694274902</ele>
        <time>2009-04-25T12:16:06Z</time>
      </trkpt>
      <trkpt lat="45.02935" lon="4.93102">
        <ele>136.80276489258</ele>
        <time>2009-04-25T12:16:13Z</time>
      </trkpt>
      <trkpt lat="45.0279" lon="4.93198">
        <ele>137.11016845703</ele>
        <time>2009-04-25T12:16:36Z</time>
      </trkpt>
      <trkpt lat="45.02593" lon="4.93342">
        <ele>136.58407592773</ele>
        <time>2009-04-25T12:17:08Z</time>
      </trkpt>
      <trkpt lat="45.02555" lon="4.9336">
        <ele>137.23596191406</ele>
        <time>2009-04-25T12:17:14Z</time>
      </trkpt>
      <trkpt lat="45.02522" lon="4.93366">
        <ele>137.92326354981</ele>
        <time>2009-04-25T12:17:19Z</time>
      </trkpt>
      <trkpt lat="45.02429" lon="4.9337">
        <ele>136.7317199707</ele>
        <time>2009-04-25T12:17:32Z</time>
      </trkpt>
      <trkpt lat="45.02258" lon="4.93355">
        <ele>137.23516845703</ele>
        <time>2009-04-25T12:17:57Z</time>
      </trkpt>
      <trkpt lat="45.02229" lon="4.93357">
        <ele>137.53675842285</ele>
        <time>2009-04-25T12:18:01Z</time>
      </trkpt>
      <trkpt lat="45.02201" lon="4.93367">
        <ele>137.99108886719</ele>
        <time>2009-04-25T12:18:05Z</time>
      </trkpt>
      <trkpt lat="45.02145" lon="4.93406">
        <ele>138.35221862793</ele>
        <time>2009-04-25T12:18:14Z</time>
      </trkpt>
      <trkpt lat="45.02089" lon="4.93459">
        <ele>137.10018920898</ele>
        <time>2009-04-25T12:18:24Z</time>
      </trkpt>
      <trkpt lat="45.02047" lon="4.93491">
        <ele>136.51637268066</ele>
        <time>2009-04-25T12:18:31Z</time>
      </trkpt>
      <trkpt lat="45.02036" lon="4.93493">
        <ele>136.38293457031</ele>
        <time>2009-04-25T12:18:33Z</time>
      </trkpt>
      <trkpt lat="45.01964" lon="4.93551">
        <ele>134.87741088867</ele>
        <time>2009-04-25T12:18:45Z</time>
      </trkpt>
      <trkpt lat="45.01936" lon="4.9358">
        <ele>133.72518920898</ele>
        <time>2009-04-25T12:18:50Z</time>
      </trkpt>
      <trkpt lat="45.01929" lon="4.93593">
        <ele>133.11738586426</ele>
        <time>2009-04-25T12:18:51Z</time>
      </trkpt>
      <trkpt lat="45.01832" lon="4.9369">
        <ele>127.82810974121</ele>
        <time>2009-04-25T12:19:08Z</time>
      </trkpt>
      <trkpt lat="45.01553" lon="4.9393">
        <ele>133.84939575195</ele>
        <time>2009-04-25T12:19:56Z</time>
      </trkpt>
      <trkpt lat="45.01546" lon="4.93932">
        <ele>134.18240356445</ele>
        <time>2009-04-25T12:19:57Z</time>
      </trkpt>
      <trkpt lat="45.01534" lon="4.93905">
        <ele>132.93321228027</ele>
        <time>2009-04-25T12:20:00Z</time>
      </trkpt>
      <trkpt lat="45.01504" lon="4.93822">
        <ele>132.91723632812</ele>
        <time>2009-04-25T12:20:09Z</time>
      </trkpt>
      <trkpt lat="45.01482" lon="4.9374">
        <ele>142.3346862793</ele>
        <time>2009-04-25T12:20:18Z</time>
      </trkpt>
      <trkpt lat="45.01487" lon="4.9373">
        <ele>139.84394836426</ele>
        <time>2009-04-25T12:20:20Z</time>
      </trkpt>
      <trkpt lat="45.01483" lon="4.93722">
        <ele>141.6194152832</ele>
        <time>2009-04-25T12:20:21Z</time>
      </trkpt>
      <trkpt lat="45.01478" lon="4.93722">
        <ele>144.24795532227</ele>
        <time>2009-04-25T12:20:21Z</time>
      </trkpt>
      <trkpt lat="45.01465" lon="4.93742">
        <ele>150.50419616699</ele>
        <time>2009-04-25T12:20:24Z</time>
      </trkpt>
      <trkpt lat="45.01449" lon="4.93801">
        <ele>151.32287597656</ele>
        <time>2009-04-25T12:20:31Z</time>
      </trkpt>
      <trkpt lat="45.01401" lon="4.93932">
        <ele>146.55111694336</ele>
        <time>2009-04-25T12:20:46Z</time>
      </trkpt>
      <trkpt lat="45.01401" lon="4.94011">
        <ele>148.63693237305</ele>
        <time>2009-04-25T12:20:54Z</time>
      </trkpt>
      <trkpt lat="45.01415" lon="4.94043">
        <ele>148.49375915527</ele>
        <time>2009-04-25T12:20:58Z</time>
      </trkpt>
      <trkpt lat="45.01484" lon="4.9416">
        <ele>158.53515625</ele>
        <time>2009-04-25T12:21:13Z</time>
      </trkpt>
      <trkpt lat="45.01527" lon="4.94271">
        <ele>164.34916687012</ele>
        <time>2009-04-25T12:21:26Z</time>
      </trkpt>
      <trkpt lat="45.01558" lon="4.94396">
        <ele>168.25486755371</ele>
        <time>2009-04-25T12:21:40Z</time>
      </trkpt>
      <trkpt lat="45.01553" lon="4.94409">
        <ele>168.47839355469</ele>
        <time>2009-04-25T12:21:41Z</time>
      </trkpt>
      <trkpt lat="45.01561" lon="4.9442">
        <ele>169.64115905762</ele>
        <time>2009-04-25T12:21:43Z</time>
      </trkpt>
      <trkpt lat="45.01548" lon="4.94482">
        <ele>173.49211120606</ele>
        <time>2009-04-25T12:21:49Z</time>
      </trkpt>
      <trkpt lat="45.01519" lon="4.94592">
        <ele>177.06048583984</ele>
        <time>2009-04-25T12:22:01Z</time>
      </trkpt>
      <trkpt lat="45.01468" lon="4.94738">
        <ele>176.24133300781</ele>
        <time>2009-04-25T12:22:18Z</time>
      </trkpt>
      <trkpt lat="45.01422" lon="4.94864">
        <ele>180.51951599121</ele>
        <time>2009-04-25T12:22:33Z</time>
      </trkpt>
      <trkpt lat="45.01415" lon="4.94871">
        <ele>180.86480712891</ele>
        <time>2009-04-25T12:22:34Z</time>
      </trkpt>
      <trkpt lat="45.01397" lon="4.94912">
        <ele>183.05264282227</ele>
        <time>2009-04-25T12:22:39Z</time>
      </trkpt>
      <trkpt lat="45.01358" lon="4.94954">
        <ele>185.81161499023</ele>
        <time>2009-04-25T12:22:46Z</time>
      </trkpt>
      <trkpt lat="45.0132" lon="4.94969">
        <ele>187.78469848633</ele>
        <time>2009-04-25T12:22:52Z</time>
      </trkpt>
      <trkpt lat="45.01315" lon="4.94976">
        <ele>188.44329833984</ele>
        <time>2009-04-25T12:22:53Z</time>
      </trkpt>
      <trkpt lat="45.01211" lon="4.95034">
        <ele>196.91523742676</ele>
        <time>2009-04-25T12:23:09Z</time>
      </trkpt>
      <trkpt lat="45.01183" lon="4.95049">
        <ele>198.04840087891</ele>
        <time>2009-04-25T12:23:13Z</time>
      </trkpt>
      <trkpt lat="45.01171" lon="4.95048">
        <ele>197.70002746582</ele>
        <time>2009-04-25T12:23:15Z</time>
      </trkpt>
      <trkpt lat="45.01144" lon="4.95066">
        <ele>200.26606750488</ele>
        <time>2009-04-25T12:23:19Z</time>
      </trkpt>
      <trkpt lat="45.01134" lon="4.95079">
        <ele>201.79606628418</ele>
        <time>2009-04-25T12:23:21Z</time>
      </trkpt>
      <trkpt lat="45.01107" lon="4.95142">
        <ele>207.06625366211</ele>
        <time>2009-04-25T12:23:29Z</time>
      </trkpt>
      <trkpt lat="45.01108" lon="4.95157">
        <ele>208.05305480957</ele>
        <time>2009-04-25T12:23:30Z</time>
      </trkpt>
      <trkpt lat="45.01087" lon="4.95221">
        <ele>209.66600036621</ele>
        <time>2009-04-25T12:23:37Z</time>
      </trkpt>
      <trkpt lat="45.01081" lon="4.95256">
        <ele>210.04302978516</ele>
        <time>2009-04-25T12:23:41Z</time>
      </trkpt>
      <trkpt lat="45.01079" lon="4.95303">
        <ele>209.04507446289</ele>
        <time>2009-04-25T12:23:46Z</time>
      </trkpt>
      <trkpt lat="45.01082" lon="4.95391">
        <ele>203.19001770019</ele>
        <time>2009-04-25T12:23:55Z</time>
      </trkpt>
      <trkpt lat="45.0106" lon="4.95498">
        <ele>191.94509887695</ele>
        <time>2009-04-25T12:24:06Z</time>
      </trkpt>
      <trkpt lat="45.01016" lon="4.95669">
        <ele>180.68132019043</ele>
        <time>2009-04-25T12:24:25Z</time>
      </trkpt>
      <trkpt lat="45.00993" lon="4.95778">
        <ele>175.44039916992</ele>
        <time>2009-04-25T12:24:36Z</time>
      </trkpt>
      <trkpt lat="45.00994" lon="4.95836">
        <ele>173.93325805664</ele>
        <time>2009-04-25T12:24:42Z</time>
      </trkpt>
      <trkpt lat="45.01007" lon="4.95954">
        <ele>171.22727966309</ele>
        <time>2009-04-25T12:24:55Z</time>
      </trkpt>
      <trkpt lat="45.01008" lon="4.96003">
        <ele>170.15213012695</ele>
        <time>2009-04-25T12:25:00Z</time>
      </trkpt>
      <trkpt lat="45.01008" lon="4.96274">
        <ele>169.28793334961</ele>
        <time>2009-04-25T12:25:27Z</time>
      </trkpt>
      <trkpt lat="45.01002" lon="4.96307">
        <ele>169.68389892578</ele>
        <time>2009-04-25T12:25:31Z</time>
      </trkpt>
      <trkpt lat="45.00985" lon="4.96369">
        <ele>170.15943908691</ele>
        <time>2009-04-25T12:25:38Z</time>
      </trkpt>
      <trkpt lat="45.00916" lon="4.96513">
        <ele>168.29203796387</ele>
        <time>2009-04-25T12:25:55Z</time>
      </trkpt>
      <trkpt lat="45.00873" lon="4.96592">
        <ele>168.63803100586</ele>
        <time>2009-04-25T12:26:06Z</time>
      </trkpt>
      <trkpt lat="45.00827" lon="4.96659">
        <ele>167.83920288086</ele>
        <time>2009-04-25T12:26:15Z</time>
      </trkpt>
      <trkpt lat="45.00761" lon="4.96738">
        <ele>168.95782470703</ele>
        <time>2009-04-25T12:26:28Z</time>
      </trkpt>
      <trkpt lat="45.00586" lon="4.97124">
        <ele>172.55055236816</ele>
        <time>2009-04-25T12:27:14Z</time>
      </trkpt>
      <trkpt lat="45.00486" lon="4.9754">
        <ele>175.26223754883</ele>
        <time>2009-04-25T12:27:59Z</time>
      </trkpt>
      <trkpt lat="45.00439" lon="4.97862">
        <ele>172.82363891602</ele>
        <time>2009-04-25T12:28:33Z</time>
      </trkpt>
      <trkpt lat="45.00404" lon="4.98001">
        <ele>168.83934020996</ele>
        <time>2009-04-25T12:28:48Z</time>
      </trkpt>
      <trkpt lat="45.00318" lon="4.98295">
        <ele>171.27749633789</ele>
        <time>2009-04-25T12:29:21Z</time>
      </trkpt>
      <trkpt lat="45.0031" lon="4.98337">
        <ele>170.67782592773</ele>
        <time>2009-04-25T12:29:25Z</time>
      </trkpt>
      <trkpt lat="45.0029" lon="4.98611">
        <ele>170.86720275879</ele>
        <time>2009-04-25T12:29:53Z</time>
      </trkpt>
      <trkpt lat="45.00281" lon="4.98619">
        <ele>171.16213989258</ele>
        <time>2009-04-25T12:29:55Z</time>
      </trkpt>
      <trkpt lat="45.00288" lon="4.98632">
        <ele>171.17916870117</ele>
        <time>2009-04-25T12:29:56Z</time>
      </trkpt>
      <trkpt lat="45.0025" lon="4.99051">
        <ele>172.22259521484</ele>
        <time>2009-04-25T12:30:40Z</time>
      </trkpt>
      <trkpt lat="45.00219" lon="4.99134">
        <ele>171.26525878906</ele>
        <time>2009-04-25T12:30:49Z</time>
      </trkpt>
      <trkpt lat="45.00179" lon="4.99202">
        <ele>169.72274780273</ele>
        <time>2009-04-25T12:30:58Z</time>
      </trkpt>
      <trkpt lat="45.00156" lon="4.99259">
        <ele>169.15531921387</ele>
        <time>2009-04-25T12:31:05Z</time>
      </trkpt>
      <trkpt lat="45.00141" lon="4.99356">
        <ele>170.19062805176</ele>
        <time>2009-04-25T12:31:15Z</time>
      </trkpt>
      <trkpt lat="45.00134" lon="4.99376">
        <ele>170.69187927246</ele>
        <time>2009-04-25T12:31:17Z</time>
      </trkpt>
      <trkpt lat="45.00007" lon="4.99563">
        <ele>172.22413635254</ele>
        <time>2009-04-25T12:31:44Z</time>
      </trkpt>
      <trkpt lat="44.99946" lon="4.99664">
        <ele>172.62937927246</ele>
        <time>2009-04-25T12:31:57Z</time>
      </trkpt>
      <trkpt lat="44.99929" lon="4.99659">
        <ele>172.77325439453</ele>
        <time>2009-04-25T12:32:00Z</time>
      </trkpt>
      <trkpt lat="44.99913" lon="4.99671">
        <ele>173.05178833008</ele>
        <time>2009-04-25T12:32:03Z</time>
      </trkpt>
      <trkpt lat="44.99907" lon="4.99687">
        <ele>173.24404907227</ele>
        <time>2009-04-25T12:32:04Z</time>
      </trkpt>
      <trkpt lat="44.99912" lon="4.99717">
        <ele>173.60397338867</ele>
        <time>2009-04-25T12:32:08Z</time>
      </trkpt>
      <trkpt lat="44.99861" lon="4.99752">
        <ele>174.03993225098</ele>
        <time>2009-04-25T12:32:16Z</time>
      </trkpt>
      <trkpt lat="44.99831" lon="4.99779">
        <ele>174.69444274902</ele>
        <time>2009-04-25T12:32:21Z</time>
      </trkpt>
      <trkpt lat="44.99743" lon="4.99892">
        <ele>173.2707824707</ele>
        <time>2009-04-25T12:32:38Z</time>
      </trkpt>
      <trkpt lat="44.99718" lon="4.99948">
        <ele>173.14385986328</ele>
        <time>2009-04-25T12:32:45Z</time>
      </trkpt>
      <trkpt lat="44.99706" lon="5.0001">
        <ele>172</ele>
        <time>2009-04-25T12:32:51Z</time>
      </trkpt>
      <trkpt lat="44.99695" lon="5.00014">
        <ele>172</ele>
        <time>2009-04-25T12:32:53Z</time>
      </trkpt>
      <trkpt lat="44.99683" lon="5.00033">
        <ele>172</ele>
        <time>2009-04-25T12:32:56Z</time>
      </trkpt>
      <trkpt lat="44.99681" lon="5.00045">
        <ele>172</ele>
        <time>2009-04-25T12:32:57Z</time>
      </trkpt>
      <trkpt lat="44.99684" lon="5.00063">
        <ele>172</ele>
        <time>2009-04-25T12:32:59Z</time>
      </trkpt>
      <trkpt lat="44.99698" lon="5.0008">
        <ele>172</ele>
        <time>2009-04-25T12:33:01Z</time>
      </trkpt>
      <trkpt lat="44.99682" lon="5.00105">
        <ele>172</ele>
        <time>2009-04-25T12:33:05Z</time>
      </trkpt>
      <trkpt lat="44.99654" lon="5.00127">
        <ele>172</ele>
        <time>2009-04-25T12:33:10Z</time>
      </trkpt>
      <trkpt lat="44.99616" lon="5.00174">
        <ele>172</ele>
        <time>2009-04-25T12:33:17Z</time>
      </trkpt>
      <trkpt lat="44.99473" lon="5.003">
        <ele>172</ele>
        <time>2009-04-25T12:33:41Z</time>
      </trkpt>
      <trkpt lat="44.99449" lon="5.00313">
        <ele>172</ele>
        <time>2009-04-25T12:33:45Z</time>
      </trkpt>
      <trkpt lat="44.99214" lon="5.00386">
        <ele>171</ele>
        <time>2009-04-25T12:34:20Z</time>
      </trkpt>
      <trkpt lat="44.99181" lon="5.00412">
        <ele>171</ele>
        <time>2009-04-25T12:34:25Z</time>
      </trkpt>
      <trkpt lat="44.99103" lon="5.00497">
        <ele>171.89227294922</ele>
        <time>2009-04-25T12:34:39Z</time>
      </trkpt>
      <trkpt lat="44.9899" lon="5.00616">
        <ele>172</ele>
        <time>2009-04-25T12:35:00Z</time>
      </trkpt>
      <trkpt lat="44.98741" lon="5.00785">
        <ele>172</ele>
        <time>2009-04-25T12:35:40Z</time>
      </trkpt>
      <trkpt lat="44.98245" lon="5.015">
        <ele>176</ele>
        <time>2009-04-25T12:37:22Z</time>
      </trkpt>
      <trkpt lat="44.98154" lon="5.01646">
        <ele>177</ele>
        <time>2009-04-25T12:37:42Z</time>
      </trkpt>
      <trkpt lat="44.9806" lon="5.01733">
        <ele>178</ele>
        <time>2009-04-25T12:37:58Z</time>
      </trkpt>
      <trkpt lat="44.97956" lon="5.01857">
        <ele>181.16186523438</ele>
        <time>2009-04-25T12:38:18Z</time>
      </trkpt>
      <trkpt lat="44.97596" lon="5.02694">
        <ele>180.53582763672</ele>
        <time>2009-04-25T12:39:58Z</time>
      </trkpt>
      <trkpt lat="44.97571" lon="5.02738">
        <ele>181</ele>
        <time>2009-04-25T12:40:04Z</time>
      </trkpt>
      <trkpt lat="44.97531" lon="5.02778">
        <ele>182</ele>
        <time>2009-04-25T12:40:11Z</time>
      </trkpt>
      <trkpt lat="44.97499" lon="5.02767">
        <ele>182</ele>
        <time>2009-04-25T12:40:16Z</time>
      </trkpt>
      <trkpt lat="44.97468" lon="5.02865">
        <ele>183</ele>
        <time>2009-04-25T12:40:27Z</time>
      </trkpt>
      <trkpt lat="44.97458" lon="5.02918">
        <ele>183.04818725586</ele>
        <time>2009-04-25T12:40:32Z</time>
      </trkpt>
      <trkpt lat="44.97452" lon="5.03">
        <ele>184</ele>
        <time>2009-04-25T12:40:41Z</time>
      </trkpt>
      <trkpt lat="44.9745" lon="5.03116">
        <ele>185</ele>
        <time>2009-04-25T12:40:53Z</time>
      </trkpt>
      <trkpt lat="44.97469" lon="5.03702">
        <ele>190</ele>
        <time>2009-04-25T12:41:53Z</time>
      </trkpt>
      <trkpt lat="44.97401" lon="5.04062">
        <ele>193</ele>
        <time>2009-04-25T12:42:31Z</time>
      </trkpt>
      <trkpt lat="44.97375" lon="5.04263">
        <ele>195</ele>
        <time>2009-04-25T12:42:52Z</time>
      </trkpt>
      <trkpt lat="44.97348" lon="5.04326">
        <ele>195.86058044434</ele>
        <time>2009-04-25T12:42:59Z</time>
      </trkpt>
      <trkpt lat="44.97277" lon="5.04516">
        <ele>198</ele>
        <time>2009-04-25T12:43:21Z</time>
      </trkpt>
      <trkpt lat="44.97221" lon="5.0471">
        <ele>201.02479553223</ele>
        <time>2009-04-25T12:43:43Z</time>
      </trkpt>
      <trkpt lat="44.97202" lon="5.05287">
        <ele>210.73089599609</ele>
        <time>2009-04-25T12:44:42Z</time>
      </trkpt>
      <trkpt lat="44.97168" lon="5.05517">
        <ele>215.56533813477</ele>
        <time>2009-04-25T12:45:06Z</time>
      </trkpt>
      <trkpt lat="44.9714" lon="5.05636">
        <ele>217.89517211914</ele>
        <time>2009-04-25T12:45:18Z</time>
      </trkpt>
      <trkpt lat="44.97109" lon="5.05746">
        <ele>219.85539245606</ele>
        <time>2009-04-25T12:45:31Z</time>
      </trkpt>
      <trkpt lat="44.96999" lon="5.05947">
        <ele>219.96319580078</ele>
        <time>2009-04-25T12:45:57Z</time>
      </trkpt>
      <trkpt lat="44.9696" lon="5.06037">
        <ele>220</ele>
        <time>2009-04-25T12:46:07Z</time>
      </trkpt>
      <trkpt lat="44.96938" lon="5.0614">
        <ele>221.00930786133</ele>
        <time>2009-04-25T12:46:18Z</time>
      </trkpt>
      <trkpt lat="44.96931" lon="5.06158">
        <ele>221.33142089844</ele>
        <time>2009-04-25T12:46:20Z</time>
      </trkpt>
      <trkpt lat="44.96838" lon="5.06344">
        <ele>223.48696899414</ele>
        <time>2009-04-25T12:46:44Z</time>
      </trkpt>
      <trkpt lat="44.96748" lon="5.06546">
        <ele>225.60876464844</ele>
        <time>2009-04-25T12:47:08Z</time>
      </trkpt>
      <trkpt lat="44.96695" lon="5.06653">
        <ele>227</ele>
        <time>2009-04-25T12:47:22Z</time>
      </trkpt>
      <trkpt lat="44.96678" lon="5.06712">
        <ele>228</ele>
        <time>2009-04-25T12:47:28Z</time>
      </trkpt>
      <trkpt lat="44.96653" lon="5.06861">
        <ele>230.49092102051</ele>
        <time>2009-04-25T12:47:44Z</time>
      </trkpt>
      <trkpt lat="44.96643" lon="5.06901">
        <ele>231.36976623535</ele>
        <time>2009-04-25T12:47:48Z</time>
      </trkpt>
      <trkpt lat="44.96605" lon="5.07037">
        <ele>234</ele>
        <time>2009-04-25T12:48:03Z</time>
      </trkpt>
      <trkpt lat="44.96591" lon="5.07074">
        <ele>234.47685241699</ele>
        <time>2009-04-25T12:48:07Z</time>
      </trkpt>
      <trkpt lat="44.96576" lon="5.07102">
        <ele>235</ele>
        <time>2009-04-25T12:48:11Z</time>
      </trkpt>
      <trkpt lat="44.96547" lon="5.07142">
        <ele>236.03497314453</ele>
        <time>2009-04-25T12:48:17Z</time>
      </trkpt>
      <trkpt lat="44.96542" lon="5.07163">
        <ele>236.42430114746</ele>
        <time>2009-04-25T12:48:19Z</time>
      </trkpt>
      <trkpt lat="44.96512" lon="5.0734">
        <ele>239.13774108887</ele>
        <time>2009-04-25T12:48:38Z</time>
      </trkpt>
      <trkpt lat="44.96504" lon="5.07359">
        <ele>239.79598999023</ele>
        <time>2009-04-25T12:48:40Z</time>
      </trkpt>
      <trkpt lat="44.96498" lon="5.07459">
        <ele>241.55711364746</ele>
        <time>2009-04-25T12:48:50Z</time>
      </trkpt>
      <trkpt lat="44.96504" lon="5.07476">
        <ele>241.880859375</ele>
        <time>2009-04-25T12:48:52Z</time>
      </trkpt>
      <trkpt lat="44.96503" lon="5.07537">
        <ele>243.29481506348</ele>
        <time>2009-04-25T12:48:58Z</time>
      </trkpt>
      <trkpt lat="44.96494" lon="5.07598">
        <ele>244.6319732666</ele>
        <time>2009-04-25T12:49:05Z</time>
      </trkpt>
      <trkpt lat="44.96496" lon="5.07777">
        <ele>248.14642333984</ele>
        <time>2009-04-25T12:49:23Z</time>
      </trkpt>
      <trkpt lat="44.96426" lon="5.07995">
        <ele>253</ele>
        <time>2009-04-25T12:49:47Z</time>
      </trkpt>
      <trkpt lat="44.96414" lon="5.07994">
        <ele>253.07000732422</ele>
        <time>2009-04-25T12:49:49Z</time>
      </trkpt>
      <trkpt lat="44.96406" lon="5.08007">
        <ele>253.53459167481</ele>
        <time>2009-04-25T12:49:51Z</time>
      </trkpt>
      <trkpt lat="44.96325" lon="5.07961">
        <ele>253.89839172363</ele>
        <time>2009-04-25T12:50:04Z</time>
      </trkpt>
      <trkpt lat="44.96297" lon="5.07955">
        <ele>254.56880187988</ele>
        <time>2009-04-25T12:50:08Z</time>
      </trkpt>
      <trkpt lat="44.96191" lon="5.07985">
        <ele>257</ele>
        <time>2009-04-25T12:50:23Z</time>
      </trkpt>
      <trkpt lat="44.96172" lon="5.0798">
        <ele>257</ele>
        <time>2009-04-25T12:50:26Z</time>
      </trkpt>
      <trkpt lat="44.96135" lon="5.07953">
        <ele>257.30712890625</ele>
        <time>2009-04-25T12:50:32Z</time>
      </trkpt>
      <trkpt lat="44.96099" lon="5.07946">
        <ele>257.05651855469</ele>
        <time>2009-04-25T12:50:37Z</time>
      </trkpt>
      <trkpt lat="44.95969" lon="5.07978">
        <ele>259.20837402344</ele>
        <time>2009-04-25T12:50:56Z</time>
      </trkpt>
      <trkpt lat="44.9588" lon="5.07959">
        <ele>258.5234375</ele>
        <time>2009-04-25T12:51:09Z</time>
      </trkpt>
      <trkpt lat="44.95765" lon="5.08022">
        <ele>260.25555419922</ele>
        <time>2009-04-25T12:51:27Z</time>
      </trkpt>
      <trkpt lat="44.95516" lon="5.08198">
        <ele>268</ele>
        <time>2009-04-25T12:52:08Z</time>
      </trkpt>
      <trkpt lat="44.95399" lon="5.08215">
        <ele>269</ele>
        <time>2009-04-25T12:52:25Z</time>
      </trkpt>
      <trkpt lat="44.95391" lon="5.0822">
        <ele>269</ele>
        <time>2009-04-25T12:52:26Z</time>
      </trkpt>
      <trkpt lat="44.95181" lon="5.08493">
        <ele>275.36480712891</ele>
        <time>2009-04-25T12:53:07Z</time>
      </trkpt>
      <trkpt lat="44.9511" lon="5.08599">
        <ele>278.58221435547</ele>
        <time>2009-04-25T12:53:22Z</time>
      </trkpt>
      <trkpt lat="44.9507" lon="5.08651">
        <ele>280.21139526367</ele>
        <time>2009-04-25T12:53:30Z</time>
      </trkpt>
      <trkpt lat="44.95047" lon="5.08653">
        <ele>280.81686401367</ele>
        <time>2009-04-25T12:53:33Z</time>
      </trkpt>
      <trkpt lat="44.94964" lon="5.08604">
        <ele>281.224609375</ele>
        <time>2009-04-25T12:53:46Z</time>
      </trkpt>
      <trkpt lat="44.94935" lon="5.08598">
        <ele>281.69097900391</ele>
        <time>2009-04-25T12:53:50Z</time>
      </trkpt>
      <trkpt lat="44.94921" lon="5.086">
        <ele>281.93597412109</ele>
        <time>2009-04-25T12:53:52Z</time>
      </trkpt>
      <trkpt lat="44.94601" lon="5.08834">
        <ele>289.02331542969</ele>
        <time>2009-04-25T12:54:45Z</time>
      </trkpt>
      <trkpt lat="44.9454" lon="5.0893">
        <ele>291.48056030273</ele>
        <time>2009-04-25T12:54:58Z</time>
      </trkpt>
      <trkpt lat="44.94525" lon="5.08937">
        <ele>291.73120117188</ele>
        <time>2009-04-25T12:55:00Z</time>
      </trkpt>
      <trkpt lat="44.94294" lon="5.08951">
        <ele>291.13754272461</ele>
        <time>2009-04-25T12:55:33Z</time>
      </trkpt>
      <trkpt lat="44.94273" lon="5.0896">
        <ele>291</ele>
        <time>2009-04-25T12:55:37Z</time>
      </trkpt>
      <trkpt lat="44.94254" lon="5.08984">
        <ele>291.42376708984</ele>
        <time>2009-04-25T12:55:40Z</time>
      </trkpt>
      <trkpt lat="44.94205" lon="5.09068">
        <ele>292.6598815918</ele>
        <time>2009-04-25T12:55:51Z</time>
      </trkpt>
      <trkpt lat="44.939" lon="5.09147">
        <ele>300</ele>
        <time>2009-04-25T12:56:36Z</time>
      </trkpt>
      <trkpt lat="44.93798" lon="5.09167">
        <ele>301</ele>
        <time>2009-04-25T12:56:51Z</time>
      </trkpt>
      <trkpt lat="44.93782" lon="5.0921">
        <ele>301.56051635742</ele>
        <time>2009-04-25T12:56:56Z</time>
      </trkpt>
      <trkpt lat="44.93728" lon="5.09432">
        <ele>307.43914794922</ele>
        <time>2009-04-25T12:57:20Z</time>
      </trkpt>
      <trkpt lat="44.93707" lon="5.09577">
        <ele>312.32339477539</ele>
        <time>2009-04-25T12:57:35Z</time>
      </trkpt>
      <trkpt lat="44.93615" lon="5.09618">
        <ele>317.24786376953</ele>
        <time>2009-04-25T12:57:49Z</time>
      </trkpt>
      <trkpt lat="44.93543" lon="5.09672">
        <ele>310.79928588867</ele>
        <time>2009-04-25T12:58:01Z</time>
      </trkpt>
      <trkpt lat="44.93515" lon="5.09688">
        <ele>305.92514038086</ele>
        <time>2009-04-25T12:58:05Z</time>
      </trkpt>
      <trkpt lat="44.93446" lon="5.09718">
        <ele>306.54281616211</ele>
        <time>2009-04-25T12:58:16Z</time>
      </trkpt>
      <trkpt lat="44.93206" lon="5.09783">
        <ele>308.71347045898</ele>
        <time>2009-04-25T12:58:51Z</time>
      </trkpt>
      <trkpt lat="44.93172" lon="5.09821">
        <ele>309.50024414062</ele>
        <time>2009-04-25T12:58:57Z</time>
      </trkpt>
      <trkpt lat="44.9316" lon="5.09826">
        <ele>309.16195678711</ele>
        <time>2009-04-25T12:58:59Z</time>
      </trkpt>
      <trkpt lat="44.93122" lon="5.09822">
        <ele>307.77459716797</ele>
        <time>2009-04-25T12:59:05Z</time>
      </trkpt>
      <trkpt lat="44.93095" lon="5.09813">
        <ele>307.96527099609</ele>
        <time>2009-04-25T12:59:09Z</time>
      </trkpt>
      <trkpt lat="44.92993" lon="5.09763">
        <ele>309.98754882812</ele>
        <time>2009-04-25T12:59:24Z</time>
      </trkpt>
      <trkpt lat="44.92956" lon="5.09766">
        <ele>309.72479248047</ele>
        <time>2009-04-25T12:59:30Z</time>
      </trkpt>
      <trkpt lat="44.92934" lon="5.09774">
        <ele>309.52301025391</ele>
        <time>2009-04-25T12:59:33Z</time>
      </trkpt>
      <trkpt lat="44.92861" lon="5.09831">
        <ele>314.41900634766</ele>
        <time>2009-04-25T12:59:45Z</time>
      </trkpt>
      <trkpt lat="44.92729" lon="5.0988">
        <ele>310.04196166992</ele>
        <time>2009-04-25T13:00:05Z</time>
      </trkpt>
      <trkpt lat="44.92687" lon="5.09909">
        <ele>313.17306518555</ele>
        <time>2009-04-25T13:00:12Z</time>
      </trkpt>
      <trkpt lat="44.92646" lon="5.09913">
        <ele>313.70333862305</ele>
        <time>2009-04-25T13:00:18Z</time>
      </trkpt>
      <trkpt lat="44.92581" lon="5.09896">
        <ele>316.39114379883</ele>
        <time>2009-04-25T13:00:27Z</time>
      </trkpt>
      <trkpt lat="44.92554" lon="5.09896">
        <ele>318</ele>
        <time>2009-04-25T13:00:31Z</time>
      </trkpt>
      <trkpt lat="44.92377" lon="5.09987">
        <ele>334.15594482422</ele>
        <time>2009-04-25T13:00:58Z</time>
      </trkpt>
      <trkpt lat="44.92351" lon="5.09998">
        <ele>335.38455200195</ele>
        <time>2009-04-25T13:01:02Z</time>
      </trkpt>
      <trkpt lat="44.92339" lon="5.09995">
        <ele>335.94213867188</ele>
        <time>2009-04-25T13:01:04Z</time>
      </trkpt>
      <trkpt lat="44.92328" lon="5.09976">
        <ele>337.39920043945</ele>
        <time>2009-04-25T13:01:06Z</time>
      </trkpt>
      <trkpt lat="44.92328" lon="5.09953">
        <ele>341.18057250977</ele>
        <time>2009-04-25T13:01:09Z</time>
      </trkpt>
      <trkpt lat="44.92336" lon="5.09925">
        <ele>343.21694946289</ele>
        <time>2009-04-25T13:01:12Z</time>
      </trkpt>
      <trkpt lat="44.92387" lon="5.09823">
        <ele>347.83773803711</ele>
        <time>2009-04-25T13:01:25Z</time>
      </trkpt>
      <trkpt lat="44.92415" lon="5.09783">
        <ele>346.83306884766</ele>
        <time>2009-04-25T13:01:30Z</time>
      </trkpt>
      <trkpt lat="44.92419" lon="5.09765">
        <ele>347.95007324219</ele>
        <time>2009-04-25T13:01:32Z</time>
      </trkpt>
      <trkpt lat="44.92414" lon="5.0976">
        <ele>349.19812011719</ele>
        <time>2009-04-25T13:01:33Z</time>
      </trkpt>
      <trkpt lat="44.924" lon="5.09771">
        <ele>349.53286743164</ele>
        <time>2009-04-25T13:01:36Z</time>
      </trkpt>
      <trkpt lat="44.92317" lon="5.09889">
        <ele>352.33471679688</ele>
        <time>2009-04-25T13:01:53Z</time>
      </trkpt>
      <trkpt lat="44.92291" lon="5.09914">
        <ele>353.21429443359</ele>
        <time>2009-04-25T13:01:57Z</time>
      </trkpt>
      <trkpt lat="44.92249" lon="5.09917">
        <ele>358.10501098633</ele>
        <time>2009-04-25T13:02:03Z</time>
      </trkpt>
      <trkpt lat="44.92195" lon="5.09894">
        <ele>368.78854370117</ele>
        <time>2009-04-25T13:02:11Z</time>
      </trkpt>
      <trkpt lat="44.92166" lon="5.09931">
        <ele>366.01330566406</ele>
        <time>2009-04-25T13:02:17Z</time>
      </trkpt>
      <trkpt lat="44.92149" lon="5.09945">
        <ele>366.43310546875</ele>
        <time>2009-04-25T13:02:20Z</time>
      </trkpt>
      <trkpt lat="44.92081" lon="5.09955">
        <ele>371.41036987305</ele>
        <time>2009-04-25T13:02:30Z</time>
      </trkpt>
      <trkpt lat="44.92041" lon="5.09989">
        <ele>373.07238769531</ele>
        <time>2009-04-25T13:02:36Z</time>
      </trkpt>
      <trkpt lat="44.91755" lon="5.10048">
        <ele>370.77633666992</ele>
        <time>2009-04-25T13:03:18Z</time>
      </trkpt>
      <trkpt lat="44.91737" lon="5.10059">
        <ele>370.1213684082</ele>
        <time>2009-04-25T13:03:21Z</time>
      </trkpt>
      <trkpt lat="44.91724" lon="5.10079">
        <ele>369.9186706543</ele>
        <time>2009-04-25T13:03:24Z</time>
      </trkpt>
      <trkpt lat="44.91702" lon="5.10176">
        <ele>370.60369873047</ele>
        <time>2009-04-25T13:03:34Z</time>
      </trkpt>
      <trkpt lat="44.9167" lon="5.10242">
        <ele>371.08142089844</ele>
        <time>2009-04-25T13:03:42Z</time>
      </trkpt>
      <trkpt lat="44.91667" lon="5.10261">
        <ele>371.41470336914</ele>
        <time>2009-04-25T13:03:44Z</time>
      </trkpt>
      <trkpt lat="44.91676" lon="5.1032">
        <ele>372.85400390625</ele>
        <time>2009-04-25T13:03:51Z</time>
      </trkpt>
      <trkpt lat="44.91674" lon="5.10348">
        <ele>373.65295410156</ele>
        <time>2009-04-25T13:03:54Z</time>
      </trkpt>
      <trkpt lat="44.91631" lon="5.10422">
        <ele>373.90536499023</ele>
        <time>2009-04-25T13:04:03Z</time>
      </trkpt>
      <trkpt lat="44.91625" lon="5.10426">
        <ele>373.82983398438</ele>
        <time>2009-04-25T13:04:04Z</time>
      </trkpt>
      <trkpt lat="44.91559" lon="5.10387">
        <ele>371.04986572266</ele>
        <time>2009-04-25T13:04:15Z</time>
      </trkpt>
      <trkpt lat="44.9151" lon="5.10366">
        <ele>371.17639160156</ele>
        <time>2009-04-25T13:04:22Z</time>
      </trkpt>
      <trkpt lat="44.91417" lon="5.10371">
        <ele>380.99047851562</ele>
        <time>2009-04-25T13:04:35Z</time>
      </trkpt>
      <trkpt lat="44.91392" lon="5.10367">
        <ele>382.07070922852</ele>
        <time>2009-04-25T13:04:39Z</time>
      </trkpt>
      <trkpt lat="44.91368" lon="5.10373">
        <ele>383.6044921875</ele>
        <time>2009-04-25T13:04:43Z</time>
      </trkpt>
      <trkpt lat="44.91356" lon="5.10383">
        <ele>384.14785766602</ele>
        <time>2009-04-25T13:04:45Z</time>
      </trkpt>
      <trkpt lat="44.91326" lon="5.10557">
        <ele>385.7253112793</ele>
        <time>2009-04-25T13:05:03Z</time>
      </trkpt>
      <trkpt lat="44.91302" lon="5.10527">
        <ele>388.27297973633</ele>
        <time>2009-04-25T13:05:08Z</time>
      </trkpt>
      <trkpt lat="44.91299" lon="5.10511">
        <ele>388.93011474609</ele>
        <time>2009-04-25T13:05:09Z</time>
      </trkpt>
      <trkpt lat="44.91297" lon="5.10466">
        <ele>389.37036132812</ele>
        <time>2009-04-25T13:05:14Z</time>
      </trkpt>
      <trkpt lat="44.91286" lon="5.10427">
        <ele>389.77368164062</ele>
        <time>2009-04-25T13:05:18Z</time>
      </trkpt>
      <trkpt lat="44.91231" lon="5.1033">
        <ele>388.1559753418</ele>
        <time>2009-04-25T13:05:31Z</time>
      </trkpt>
      <trkpt lat="44.91141" lon="5.10116">
        <ele>381.2575378418</ele>
        <time>2009-04-25T13:05:56Z</time>
      </trkpt>
      <trkpt lat="44.91073" lon="5.10044">
        <ele>382.18218994141</ele>
        <time>2009-04-25T13:06:09Z</time>
      </trkpt>
      <trkpt lat="44.9104" lon="5.09946">
        <ele>378.67150878906</ele>
        <time>2009-04-25T13:06:20Z</time>
      </trkpt>
      <trkpt lat="44.91014" lon="5.09911">
        <ele>377.59289550781</ele>
        <time>2009-04-25T13:06:25Z</time>
      </trkpt>
      <trkpt lat="44.90959" lon="5.09853">
        <ele>375.88464355469</ele>
        <time>2009-04-25T13:06:35Z</time>
      </trkpt>
      <trkpt lat="44.90869" lon="5.09787">
        <ele>374.33154296875</ele>
        <time>2009-04-25T13:06:50Z</time>
      </trkpt>
      <trkpt lat="44.90802" lon="5.09753">
        <ele>375.32934570312</ele>
        <time>2009-04-25T13:07:00Z</time>
      </trkpt>
      <trkpt lat="44.9067" lon="5.09737">
        <ele>379.41204833984</ele>
        <time>2009-04-25T13:07:19Z</time>
      </trkpt>
      <trkpt lat="44.90591" lon="5.09771">
        <ele>385.23516845703</ele>
        <time>2009-04-25T13:07:31Z</time>
      </trkpt>
      <trkpt lat="44.90547" lon="5.09774">
        <ele>387.03076171875</ele>
        <time>2009-04-25T13:07:37Z</time>
      </trkpt>
      <trkpt lat="44.90438" lon="5.09736">
        <ele>385.87921142578</ele>
        <time>2009-04-25T13:07:54Z</time>
      </trkpt>
      <trkpt lat="44.90158" lon="5.09657">
        <ele>376.37774658203</ele>
        <time>2009-04-25T13:08:35Z</time>
      </trkpt>
      <trkpt lat="44.90057" lon="5.0962">
        <ele>386.38143920898</ele>
        <time>2009-04-25T13:08:50Z</time>
      </trkpt>
      <trkpt lat="44.90026" lon="5.09629">
        <ele>391.41015625</ele>
        <time>2009-04-25T13:08:55Z</time>
      </trkpt>
      <trkpt lat="44.90008" lon="5.09628">
        <ele>392.62893676758</ele>
        <time>2009-04-25T13:08:57Z</time>
      </trkpt>
      <trkpt lat="44.89963" lon="5.09591">
        <ele>391.78887939453</ele>
        <time>2009-04-25T13:09:05Z</time>
      </trkpt>
      <trkpt lat="44.89939" lon="5.09586">
        <ele>392.09600830078</ele>
        <time>2009-04-25T13:09:08Z</time>
      </trkpt>
      <trkpt lat="44.89941" lon="5.09543">
        <ele>388.5754699707</ele>
        <time>2009-04-25T13:09:13Z</time>
      </trkpt>
      <trkpt lat="44.89957" lon="5.09511">
        <ele>386.3957824707</ele>
        <time>2009-04-25T13:09:17Z</time>
      </trkpt>
      <trkpt lat="44.8996" lon="5.09479">
        <ele>384.15786743164</ele>
        <time>2009-04-25T13:09:20Z</time>
      </trkpt>
      <trkpt lat="44.89946" lon="5.09161">
        <ele>370.85125732422</ele>
        <time>2009-04-25T13:09:53Z</time>
      </trkpt>
      <trkpt lat="44.89945" lon="5.09029">
        <ele>367.00064086914</ele>
        <time>2009-04-25T13:10:06Z</time>
      </trkpt>
      <trkpt lat="44.89948" lon="5.08947">
        <ele>364.09167480469</ele>
        <time>2009-04-25T13:10:14Z</time>
      </trkpt>
      <trkpt lat="44.89953" lon="5.08905">
        <ele>362.57934570312</ele>
        <time>2009-04-25T13:10:19Z</time>
      </trkpt>
      <trkpt lat="44.89945" lon="5.08861">
        <ele>360.99661254883</ele>
        <time>2009-04-25T13:10:23Z</time>
      </trkpt>
      <trkpt lat="44.89939" lon="5.08793">
        <ele>357.90570068359</ele>
        <time>2009-04-25T13:10:30Z</time>
      </trkpt>
      <trkpt lat="44.89939" lon="5.08671">
        <ele>351.9641418457</ele>
        <time>2009-04-25T13:10:43Z</time>
      </trkpt>
      <trkpt lat="44.89933" lon="5.08638">
        <ele>349.55651855469</ele>
        <time>2009-04-25T13:10:46Z</time>
      </trkpt>
      <trkpt lat="44.89909" lon="5.08603">
        <ele>347.15466308594</ele>
        <time>2009-04-25T13:10:51Z</time>
      </trkpt>
      <trkpt lat="44.89721" lon="5.08434">
        <ele>345.71832275391</ele>
        <time>2009-04-25T13:11:24Z</time>
      </trkpt>
      <trkpt lat="44.89638" lon="5.08344">
        <ele>346.36669921875</ele>
        <time>2009-04-25T13:11:39Z</time>
      </trkpt>
      <trkpt lat="44.89503" lon="5.08236">
        <ele>340.32745361328</ele>
        <time>2009-04-25T13:12:01Z</time>
      </trkpt>
      <trkpt lat="44.89399" lon="5.08141">
        <ele>336.15148925781</ele>
        <time>2009-04-25T13:12:19Z</time>
      </trkpt>
      <trkpt lat="44.89369" lon="5.08124">
        <ele>335.31607055664</ele>
        <time>2009-04-25T13:12:24Z</time>
      </trkpt>
      <trkpt lat="44.89284" lon="5.08095">
        <ele>333.51513671875</ele>
        <time>2009-04-25T13:12:36Z</time>
      </trkpt>
      <trkpt lat="44.89224" lon="5.08052">
        <ele>331.69360351562</ele>
        <time>2009-04-25T13:12:46Z</time>
      </trkpt>
      <trkpt lat="44.89064" lon="5.07963">
        <ele>333.66763305664</ele>
        <time>2009-04-25T13:13:11Z</time>
      </trkpt>
      <trkpt lat="44.88968" lon="5.0789">
        <ele>329.03948974609</ele>
        <time>2009-04-25T13:13:27Z</time>
      </trkpt>
      <trkpt lat="44.88833" lon="5.07824">
        <ele>326.34460449219</ele>
        <time>2009-04-25T13:13:47Z</time>
      </trkpt>
      <trkpt lat="44.88723" lon="5.07794">
        <ele>329.51699829102</ele>
        <time>2009-04-25T13:14:04Z</time>
      </trkpt>
      <trkpt lat="44.88627" lon="5.07739">
        <ele>330.64239501953</ele>
        <time>2009-04-25T13:14:19Z</time>
      </trkpt>
      <trkpt lat="44.88493" lon="5.07698">
        <ele>337.41058349609</ele>
        <time>2009-04-25T13:14:38Z</time>
      </trkpt>
      <trkpt lat="44.88467" lon="5.077">
        <ele>339</ele>
        <time>2009-04-25T13:14:42Z</time>
      </trkpt>
      <trkpt lat="44.88371" lon="5.07753">
        <ele>352.37219238281</ele>
        <time>2009-04-25T13:14:57Z</time>
      </trkpt>
      <trkpt lat="44.88332" lon="5.07754">
        <ele>357.45111083984</ele>
        <time>2009-04-25T13:15:03Z</time>
      </trkpt>
      <trkpt lat="44.8823" lon="5.07736">
        <ele>352.82904052734</ele>
        <time>2009-04-25T13:15:18Z</time>
      </trkpt>
      <trkpt lat="44.88113" lon="5.07725">
        <ele>353.75552368164</ele>
        <time>2009-04-25T13:15:35Z</time>
      </trkpt>
      <trkpt lat="44.88062" lon="5.07697">
        <ele>357.77142333984</ele>
        <time>2009-04-25T13:15:42Z</time>
      </trkpt>
      <trkpt lat="44.88" lon="5.07647">
        <ele>359</ele>
        <time>2009-04-25T13:15:53Z</time>
      </trkpt>
      <trkpt lat="44.87975" lon="5.07641">
        <ele>359</ele>
        <time>2009-04-25T13:15:56Z</time>
      </trkpt>
      <trkpt lat="44.87917" lon="5.07638">
        <ele>359</ele>
        <time>2009-04-25T13:16:05Z</time>
      </trkpt>
      <trkpt lat="44.87897" lon="5.07642">
        <ele>359</ele>
        <time>2009-04-25T13:16:08Z</time>
      </trkpt>
      <trkpt lat="44.87794" lon="5.07683">
        <ele>358.41232299805</ele>
        <time>2009-04-25T13:16:23Z</time>
      </trkpt>
      <trkpt lat="44.87748" lon="5.07689">
        <ele>358.19604492188</ele>
        <time>2009-04-25T13:16:30Z</time>
      </trkpt>
      <trkpt lat="44.87693" lon="5.07687">
        <ele>358.26812744141</ele>
        <time>2009-04-25T13:16:38Z</time>
      </trkpt>
      <trkpt lat="44.87599" lon="5.07662">
        <ele>359</ele>
        <time>2009-04-25T13:16:52Z</time>
      </trkpt>
      <trkpt lat="44.87571" lon="5.07664">
        <ele>359</ele>
        <time>2009-04-25T13:16:56Z</time>
      </trkpt>
      <trkpt lat="44.87552" lon="5.07675">
        <ele>360.20211791992</ele>
        <time>2009-04-25T13:16:59Z</time>
      </trkpt>
      <trkpt lat="44.87402" lon="5.07822">
        <ele>377.65032958984</ele>
        <time>2009-04-25T13:17:25Z</time>
      </trkpt>
      <trkpt lat="44.8739" lon="5.07829">
        <ele>378.75408935547</ele>
        <time>2009-04-25T13:17:27Z</time>
      </trkpt>
      <trkpt lat="44.87354" lon="5.07829">
        <ele>378.84393310547</ele>
        <time>2009-04-25T13:17:32Z</time>
      </trkpt>
      <trkpt lat="44.87343" lon="5.07837">
        <ele>379</ele>
        <time>2009-04-25T13:17:34Z</time>
      </trkpt>
      <trkpt lat="44.87303" lon="5.0796">
        <ele>379</ele>
        <time>2009-04-25T13:17:48Z</time>
      </trkpt>
      <trkpt lat="44.87233" lon="5.08079">
        <ele>379</ele>
        <time>2009-04-25T13:18:04Z</time>
      </trkpt>
      <trkpt lat="44.87218" lon="5.08112">
        <ele>380</ele>
        <time>2009-04-25T13:18:08Z</time>
      </trkpt>
      <trkpt lat="44.8721" lon="5.08153">
        <ele>380</ele>
        <time>2009-04-25T13:18:12Z</time>
      </trkpt>
      <trkpt lat="44.87204" lon="5.08287">
        <ele>380</ele>
        <time>2009-04-25T13:18:26Z</time>
      </trkpt>
      <trkpt lat="44.872" lon="5.0831">
        <ele>380.28604125977</ele>
        <time>2009-04-25T13:18:28Z</time>
      </trkpt>
      <trkpt lat="44.87154" lon="5.08441">
        <ele>392.27874755859</ele>
        <time>2009-04-25T13:18:43Z</time>
      </trkpt>
      <trkpt lat="44.87122" lon="5.08566">
        <ele>396.75619506836</ele>
        <time>2009-04-25T13:18:57Z</time>
      </trkpt>
      <trkpt lat="44.87071" lon="5.08682">
        <ele>398.44952392578</ele>
        <time>2009-04-25T13:19:11Z</time>
      </trkpt>
      <trkpt lat="44.87039" lon="5.08743">
        <ele>400.47573852539</ele>
        <time>2009-04-25T13:19:19Z</time>
      </trkpt>
      <trkpt lat="44.87018" lon="5.0878">
        <ele>400.31878662109</ele>
        <time>2009-04-25T13:19:23Z</time>
      </trkpt>
      <trkpt lat="44.86976" lon="5.08834">
        <ele>401.54632568359</ele>
        <time>2009-04-25T13:19:32Z</time>
      </trkpt>
      <trkpt lat="44.86915" lon="5.0889">
        <ele>403.27407836914</ele>
        <time>2009-04-25T13:19:42Z</time>
      </trkpt>
      <trkpt lat="44.86864" lon="5.08905">
        <ele>411.14645385742</ele>
        <time>2009-04-25T13:19:50Z</time>
      </trkpt>
      <trkpt lat="44.86759" lon="5.08911">
        <ele>428.69909667969</ele>
        <time>2009-04-25T13:20:05Z</time>
      </trkpt>
      <trkpt lat="44.86733" lon="5.08919">
        <ele>430.34649658203</ele>
        <time>2009-04-25T13:20:09Z</time>
      </trkpt>
      <trkpt lat="44.86651" lon="5.08937">
        <ele>431.63607788086</ele>
        <time>2009-04-25T13:20:21Z</time>
      </trkpt>
      <trkpt lat="44.86602" lon="5.08965">
        <ele>432.34686279297</ele>
        <time>2009-04-25T13:20:28Z</time>
      </trkpt>
      <trkpt lat="44.8657" lon="5.08971">
        <ele>434.17260742188</ele>
        <time>2009-04-25T13:20:33Z</time>
      </trkpt>
      <trkpt lat="44.86514" lon="5.08955">
        <ele>441.40713500977</ele>
        <time>2009-04-25T13:20:41Z</time>
      </trkpt>
      <trkpt lat="44.86361" lon="5.08871">
        <ele>474.80145263672</ele>
        <time>2009-04-25T13:21:05Z</time>
      </trkpt>
      <trkpt lat="44.86301" lon="5.08851">
        <ele>480.25448608398</ele>
        <time>2009-04-25T13:21:14Z</time>
      </trkpt>
      <trkpt lat="44.86168" lon="5.08795">
        <ele>489.47418212891</ele>
        <time>2009-04-25T13:21:34Z</time>
      </trkpt>
      <trkpt lat="44.86084" lon="5.08768">
        <ele>492.50607299805</ele>
        <time>2009-04-25T13:21:47Z</time>
      </trkpt>
      <trkpt lat="44.86003" lon="5.08752">
        <ele>491.42047119141</ele>
        <time>2009-04-25T13:21:58Z</time>
      </trkpt>
      <trkpt lat="44.85932" lon="5.08749">
        <ele>489.50411987305</ele>
        <time>2009-04-25T13:22:09Z</time>
      </trkpt>
      <trkpt lat="44.85891" lon="5.0876">
        <ele>486.70660400391</ele>
        <time>2009-04-25T13:22:15Z</time>
      </trkpt>
      <trkpt lat="44.85851" lon="5.0879">
        <ele>486.66610717773</ele>
        <time>2009-04-25T13:22:21Z</time>
      </trkpt>
      <trkpt lat="44.85792" lon="5.08797">
        <ele>493.07693481445</ele>
        <time>2009-04-25T13:22:30Z</time>
      </trkpt>
      <trkpt lat="44.85743" lon="5.08778">
        <ele>503.18780517578</ele>
        <time>2009-04-25T13:22:37Z</time>
      </trkpt>
      <trkpt lat="44.85685" lon="5.08746">
        <ele>515.06939697266</ele>
        <time>2009-04-25T13:22:46Z</time>
      </trkpt>
      <trkpt lat="44.85649" lon="5.08742">
        <ele>515.55499267578</ele>
        <time>2009-04-25T13:22:51Z</time>
      </trkpt>
      <trkpt lat="44.85639" lon="5.08749">
        <ele>512.54840087891</ele>
        <time>2009-04-25T13:22:53Z</time>
      </trkpt>
      <trkpt lat="44.85636" lon="5.08791">
        <ele>497.11602783203</ele>
        <time>2009-04-25T13:22:57Z</time>
      </trkpt>
      <trkpt lat="44.8562" lon="5.08808">
        <ele>494.64791870117</ele>
        <time>2009-04-25T13:23:00Z</time>
      </trkpt>
      <trkpt lat="44.85593" lon="5.08814">
        <ele>497.58499145508</ele>
        <time>2009-04-25T13:23:04Z</time>
      </trkpt>
      <trkpt lat="44.85538" lon="5.08813">
        <ele>508.97204589844</ele>
        <time>2009-04-25T13:23:12Z</time>
      </trkpt>
      <trkpt lat="44.85512" lon="5.08823">
        <ele>505.03863525391</ele>
        <time>2009-04-25T13:23:16Z</time>
      </trkpt>
      <trkpt lat="44.85504" lon="5.0884">
        <ele>499.04162597656</ele>
        <time>2009-04-25T13:23:18Z</time>
      </trkpt>
      <trkpt lat="44.85494" lon="5.08913">
        <ele>492.22763061523</ele>
        <time>2009-04-25T13:23:26Z</time>
      </trkpt>
      <trkpt lat="44.85481" lon="5.08941">
        <ele>492.09060668945</ele>
        <time>2009-04-25T13:23:29Z</time>
      </trkpt>
      <trkpt lat="44.85466" lon="5.08957">
        <ele>493.83828735352</ele>
        <time>2009-04-25T13:23:32Z</time>
      </trkpt>
      <trkpt lat="44.85455" lon="5.08966">
        <ele>496.07583618164</ele>
        <time>2009-04-25T13:23:34Z</time>
      </trkpt>
      <trkpt lat="44.85436" lon="5.08972">
        <ele>505.51220703125</ele>
        <time>2009-04-25T13:23:36Z</time>
      </trkpt>
      <trkpt lat="44.85372" lon="5.08977">
        <ele>537.54473876953</ele>
        <time>2009-04-25T13:23:46Z</time>
      </trkpt>
      <trkpt lat="44.85307" lon="5.09041">
        <ele>537.24255371094</ele>
        <time>2009-04-25T13:23:57Z</time>
      </trkpt>
      <trkpt lat="44.8526" lon="5.09109">
        <ele>536.20269775391</ele>
        <time>2009-04-25T13:24:07Z</time>
      </trkpt>
      <trkpt lat="44.85251" lon="5.09137">
        <ele>534.88293457031</ele>
        <time>2009-04-25T13:24:10Z</time>
      </trkpt>
      <trkpt lat="44.85244" lon="5.09186">
        <ele>532.09838867188</ele>
        <time>2009-04-25T13:24:15Z</time>
      </trkpt>
      <trkpt lat="44.85241" lon="5.09196">
        <ele>533.37579345703</ele>
        <time>2009-04-25T13:24:16Z</time>
      </trkpt>
      <trkpt lat="44.85234" lon="5.092">
        <ele>535.99078369141</ele>
        <time>2009-04-25T13:24:17Z</time>
      </trkpt>
      <trkpt lat="44.85229" lon="5.09199">
        <ele>537.64215087891</ele>
        <time>2009-04-25T13:24:18Z</time>
      </trkpt>
      <trkpt lat="44.85228" lon="5.0919">
        <ele>537.80487060547</ele>
        <time>2009-04-25T13:24:19Z</time>
      </trkpt>
      <trkpt lat="44.85244" lon="5.09108">
        <ele>543.13586425781</ele>
        <time>2009-04-25T13:24:28Z</time>
      </trkpt>
      <trkpt lat="44.85269" lon="5.09036">
        <ele>553.32104492188</ele>
        <time>2009-04-25T13:24:36Z</time>
      </trkpt>
      <trkpt lat="44.85292" lon="5.0899">
        <ele>560.61737060547</ele>
        <time>2009-04-25T13:24:42Z</time>
      </trkpt>
      <trkpt lat="44.85349" lon="5.08893">
        <ele>573.39660644531</ele>
        <time>2009-04-25T13:24:55Z</time>
      </trkpt>
      <trkpt lat="44.85399" lon="5.08861">
        <ele>566.44708251953</ele>
        <time>2009-04-25T13:25:03Z</time>
      </trkpt>
      <trkpt lat="44.85415" lon="5.08841">
        <ele>569.28674316406</ele>
        <time>2009-04-25T13:25:06Z</time>
      </trkpt>
      <trkpt lat="44.85429" lon="5.0881">
        <ele>570.65771484375</ele>
        <time>2009-04-25T13:25:09Z</time>
      </trkpt>
      <trkpt lat="44.85455" lon="5.08726">
        <ele>592.33746337891</ele>
        <time>2009-04-25T13:25:19Z</time>
      </trkpt>
      <trkpt lat="44.85504" lon="5.08661">
        <ele>596.21130371094</ele>
        <time>2009-04-25T13:25:29Z</time>
      </trkpt>
      <trkpt lat="44.8553" lon="5.08608">
        <ele>597.15173339844</ele>
        <time>2009-04-25T13:25:35Z</time>
      </trkpt>
      <trkpt lat="44.85547" lon="5.08588">
        <ele>598.29852294922</ele>
        <time>2009-04-25T13:25:38Z</time>
      </trkpt>
      <trkpt lat="44.85541" lon="5.08571">
        <ele>602.30950927734</ele>
        <time>2009-04-25T13:25:40Z</time>
      </trkpt>
      <trkpt lat="44.85532" lon="5.08578">
        <ele>602.48303222656</ele>
        <time>2009-04-25T13:25:42Z</time>
      </trkpt>
      <trkpt lat="44.85495" lon="5.08641">
        <ele>602.04516601562</ele>
        <time>2009-04-25T13:25:50Z</time>
      </trkpt>
      <trkpt lat="44.85432" lon="5.08685">
        <ele>612.81976318359</ele>
        <time>2009-04-25T13:26:00Z</time>
      </trkpt>
      <trkpt lat="44.8536" lon="5.08766">
        <ele>611.77960205078</ele>
        <time>2009-04-25T13:26:14Z</time>
      </trkpt>
      <trkpt lat="44.85341" lon="5.08783">
        <ele>611.67547607422</ele>
        <time>2009-04-25T13:26:17Z</time>
      </trkpt>
      <trkpt lat="44.85272" lon="5.08826">
        <ele>610.73327636719</ele>
        <time>2009-04-25T13:26:28Z</time>
      </trkpt>
      <trkpt lat="44.85226" lon="5.08842">
        <ele>613.31304931641</ele>
        <time>2009-04-25T13:26:35Z</time>
      </trkpt>
      <trkpt lat="44.85202" lon="5.08845">
        <ele>616.93658447266</ele>
        <time>2009-04-25T13:26:38Z</time>
      </trkpt>
      <trkpt lat="44.8515" lon="5.08833">
        <ele>623.71527099609</ele>
        <time>2009-04-25T13:26:46Z</time>
      </trkpt>
      <trkpt lat="44.85071" lon="5.08799">
        <ele>624.71502685547</ele>
        <time>2009-04-25T13:26:58Z</time>
      </trkpt>
      <trkpt lat="44.85028" lon="5.08796">
        <ele>627.86791992188</ele>
        <time>2009-04-25T13:27:04Z</time>
      </trkpt>
      <trkpt lat="44.84886" lon="5.08904">
        <ele>647.84832763672</ele>
        <time>2009-04-25T13:27:27Z</time>
      </trkpt>
      <trkpt lat="44.84826" lon="5.08963">
        <ele>655.92041015625</ele>
        <time>2009-04-25T13:27:38Z</time>
      </trkpt>
      <trkpt lat="44.84789" lon="5.08975">
        <ele>655.85034179688</ele>
        <time>2009-04-25T13:27:43Z</time>
      </trkpt>
      <trkpt lat="44.84764" lon="5.08971">
        <ele>653.52532958984</ele>
        <time>2009-04-25T13:27:47Z</time>
      </trkpt>
      <trkpt lat="44.84713" lon="5.08943">
        <ele>647.20794677734</ele>
        <time>2009-04-25T13:27:55Z</time>
      </trkpt>
      <trkpt lat="44.84646" lon="5.08918">
        <ele>642.20684814453</ele>
        <time>2009-04-25T13:28:05Z</time>
      </trkpt>
      <trkpt lat="44.84598" lon="5.08876">
        <ele>634.94781494141</ele>
        <time>2009-04-25T13:28:13Z</time>
      </trkpt>
      <trkpt lat="44.84558" lon="5.08855">
        <ele>637.609375</ele>
        <time>2009-04-25T13:28:19Z</time>
      </trkpt>
      <trkpt lat="44.84514" lon="5.08851">
        <ele>641.63842773438</ele>
        <time>2009-04-25T13:28:26Z</time>
      </trkpt>
      <trkpt lat="44.84477" lon="5.08859">
        <ele>648.69799804688</ele>
        <time>2009-04-25T13:28:31Z</time>
      </trkpt>
      <trkpt lat="44.84413" lon="5.08884">
        <ele>659.02093505859</ele>
        <time>2009-04-25T13:28:41Z</time>
      </trkpt>
      <trkpt lat="44.84352" lon="5.08888">
        <ele>668.78460693359</ele>
        <time>2009-04-25T13:28:49Z</time>
      </trkpt>
      <trkpt lat="44.84253" lon="5.0887">
        <ele>676.68762207031</ele>
        <time>2009-04-25T13:29:04Z</time>
      </trkpt>
      <trkpt lat="44.84199" lon="5.08852">
        <ele>664.50946044922</ele>
        <time>2009-04-25T13:29:12Z</time>
      </trkpt>
      <trkpt lat="44.84154" lon="5.08834">
        <ele>660.93524169922</ele>
        <time>2009-04-25T13:29:19Z</time>
      </trkpt>
      <trkpt lat="44.84097" lon="5.08798">
        <ele>657.64990234375</ele>
        <time>2009-04-25T13:29:28Z</time>
      </trkpt>
      <trkpt lat="44.84085" lon="5.08796">
        <ele>660.58361816406</ele>
        <time>2009-04-25T13:29:29Z</time>
      </trkpt>
      <trkpt lat="44.84081" lon="5.08807">
        <ele>667.04083251953</ele>
        <time>2009-04-25T13:29:31Z</time>
      </trkpt>
      <trkpt lat="44.84086" lon="5.08814">
        <ele>668.25378417969</ele>
        <time>2009-04-25T13:29:32Z</time>
      </trkpt>
      <trkpt lat="44.84198" lon="5.08899">
        <ele>697.14123535156</ele>
        <time>2009-04-25T13:29:50Z</time>
      </trkpt>
      <trkpt lat="44.84238" lon="5.08924">
        <ele>706.22827148438</ele>
        <time>2009-04-25T13:29:56Z</time>
      </trkpt>
      <trkpt lat="44.84323" lon="5.08961">
        <ele>707.80200195312</ele>
        <time>2009-04-25T13:30:09Z</time>
      </trkpt>
      <trkpt lat="44.84483" lon="5.08991">
        <ele>698.78375244141</ele>
        <time>2009-04-25T13:30:33Z</time>
      </trkpt>
      <trkpt lat="44.84573" lon="5.09023">
        <ele>701.669921875</ele>
        <time>2009-04-25T13:30:46Z</time>
      </trkpt>
      <trkpt lat="44.84645" lon="5.09057">
        <ele>705.66033935547</ele>
        <time>2009-04-25T13:30:57Z</time>
      </trkpt>
      <trkpt lat="44.8467" lon="5.09076">
        <ele>713.98864746094</ele>
        <time>2009-04-25T13:31:01Z</time>
      </trkpt>
      <trkpt lat="44.84717" lon="5.09132">
        <ele>732.18994140625</ele>
        <time>2009-04-25T13:31:10Z</time>
      </trkpt>
      <trkpt lat="44.84758" lon="5.09158">
        <ele>734.41717529297</ele>
        <time>2009-04-25T13:31:17Z</time>
      </trkpt>
      <trkpt lat="44.84792" lon="5.09164">
        <ele>730.60760498047</ele>
        <time>2009-04-25T13:31:22Z</time>
      </trkpt>
      <trkpt lat="44.84839" lon="5.09161">
        <ele>723.02478027344</ele>
        <time>2009-04-25T13:31:28Z</time>
      </trkpt>
      <trkpt lat="44.84932" lon="5.09125">
        <ele>710.12396240234</ele>
        <time>2009-04-25T13:31:42Z</time>
      </trkpt>
      <trkpt lat="44.84939" lon="5.09127">
        <ele>709.80902099609</ele>
        <time>2009-04-25T13:31:43Z</time>
      </trkpt>
      <trkpt lat="44.84942" lon="5.09138">
        <ele>711.14947509766</ele>
        <time>2009-04-25T13:31:45Z</time>
      </trkpt>
      <trkpt lat="44.84937" lon="5.09156">
        <ele>714.61083984375</ele>
        <time>2009-04-25T13:31:46Z</time>
      </trkpt>
      <trkpt lat="44.84922" lon="5.09183">
        <ele>719.375</ele>
        <time>2009-04-25T13:31:50Z</time>
      </trkpt>
      <trkpt lat="44.84882" lon="5.09223">
        <ele>725.05072021484</ele>
        <time>2009-04-25T13:31:57Z</time>
      </trkpt>
      <trkpt lat="44.84813" lon="5.09264">
        <ele>738.81072998047</ele>
        <time>2009-04-25T13:32:08Z</time>
      </trkpt>
      <trkpt lat="44.84676" lon="5.09332">
        <ele>754.64849853516</ele>
        <time>2009-04-25T13:32:29Z</time>
      </trkpt>
      <trkpt lat="44.84636" lon="5.09358">
        <ele>757.59729003906</ele>
        <time>2009-04-25T13:32:35Z</time>
      </trkpt>
      <trkpt lat="44.846" lon="5.09389">
        <ele>751.40124511719</ele>
        <time>2009-04-25T13:32:41Z</time>
      </trkpt>
      <trkpt lat="44.8456" lon="5.09437">
        <ele>740.84539794922</ele>
        <time>2009-04-25T13:32:49Z</time>
      </trkpt>
      <trkpt lat="44.84493" lon="5.09532">
        <ele>740.76403808594</ele>
        <time>2009-04-25T13:33:03Z</time>
      </trkpt>
      <trkpt lat="44.84422" lon="5.09572">
        <ele>747.66571044922</ele>
        <time>2009-04-25T13:33:14Z</time>
      </trkpt>
      <trkpt lat="44.84386" lon="5.09607">
        <ele>754.25665283203</ele>
        <time>2009-04-25T13:33:20Z</time>
      </trkpt>
      <trkpt lat="44.84312" lon="5.0971">
        <ele>771.95428466797</ele>
        <time>2009-04-25T13:33:35Z</time>
      </trkpt>
      <trkpt lat="44.84261" lon="5.09764">
        <ele>775.38793945312</ele>
        <time>2009-04-25T13:33:44Z</time>
      </trkpt>
      <trkpt lat="44.84237" lon="5.09816">
        <ele>779.71801757812</ele>
        <time>2009-04-25T13:33:51Z</time>
      </trkpt>
      <trkpt lat="44.84212" lon="5.09844">
        <ele>780.57189941406</ele>
        <time>2009-04-25T13:33:55Z</time>
      </trkpt>
      <trkpt lat="44.83988" lon="5.0996">
        <ele>799.90032958984</ele>
        <time>2009-04-25T13:34:30Z</time>
      </trkpt>
      <trkpt lat="44.83926" lon="5.09984">
        <ele>806.44055175781</ele>
        <time>2009-04-25T13:34:39Z</time>
      </trkpt>
      <trkpt lat="44.83906" lon="5.09989">
        <ele>806.80108642578</ele>
        <time>2009-04-25T13:34:42Z</time>
      </trkpt>
      <trkpt lat="44.83843" lon="5.09988">
        <ele>802.57806396484</ele>
        <time>2009-04-25T13:34:51Z</time>
      </trkpt>
      <trkpt lat="44.83784" lon="5.09973">
        <ele>786.84014892578</ele>
        <time>2009-04-25T13:35:00Z</time>
      </trkpt>
      <trkpt lat="44.83756" lon="5.09974">
        <ele>778.96551513672</ele>
        <time>2009-04-25T13:35:04Z</time>
      </trkpt>
      <trkpt lat="44.83743" lon="5.09982">
        <ele>776.62957763672</ele>
        <time>2009-04-25T13:35:06Z</time>
      </trkpt>
      <trkpt lat="44.83738" lon="5.10004">
        <ele>778.966796875</ele>
        <time>2009-04-25T13:35:08Z</time>
      </trkpt>
      <trkpt lat="44.8378" lon="5.10137">
        <ele>806.06561279297</ele>
        <time>2009-04-25T13:35:23Z</time>
      </trkpt>
      <trkpt lat="44.8379" lon="5.10185">
        <ele>814.25115966797</ele>
        <time>2009-04-25T13:35:28Z</time>
      </trkpt>
      <trkpt lat="44.8379" lon="5.10345">
        <ele>827.06707763672</ele>
        <time>2009-04-25T13:35:45Z</time>
      </trkpt>
      <trkpt lat="44.83784" lon="5.10391">
        <ele>822.50665283203</ele>
        <time>2009-04-25T13:35:50Z</time>
      </trkpt>
      <trkpt lat="44.83747" lon="5.10521">
        <ele>825.72283935547</ele>
        <time>2009-04-25T13:36:04Z</time>
      </trkpt>
      <trkpt lat="44.83724" lon="5.10562">
        <ele>826.22973632812</ele>
        <time>2009-04-25T13:36:09Z</time>
      </trkpt>
      <trkpt lat="44.83694" lon="5.10591">
        <ele>818.51098632812</ele>
        <time>2009-04-25T13:36:14Z</time>
      </trkpt>
      <trkpt lat="44.83658" lon="5.10613">
        <ele>817.06842041016</ele>
        <time>2009-04-25T13:36:20Z</time>
      </trkpt>
      <trkpt lat="44.83567" lon="5.10642">
        <ele>835.28472900391</ele>
        <time>2009-04-25T13:36:34Z</time>
      </trkpt>
      <trkpt lat="44.83567" lon="5.10641">
        <ele>835.24871826172</ele>
        <time>2009-04-25T13:36:34Z</time>
      </trkpt>
      <trkpt lat="44.83658" lon="5.10613">
        <ele>817.06842041016</ele>
        <time>2009-04-25T13:36:47Z</time>
      </trkpt>
      <trkpt lat="44.83694" lon="5.10591">
        <ele>818.51098632812</ele>
        <time>2009-04-25T13:36:53Z</time>
      </trkpt>
      <trkpt lat="44.83724" lon="5.10562">
        <ele>826.22973632812</ele>
        <time>2009-04-25T13:36:58Z</time>
      </trkpt>
      <trkpt lat="44.83747" lon="5.10521">
        <ele>825.72283935547</ele>
        <time>2009-04-25T13:37:04Z</time>
      </trkpt>
      <trkpt lat="44.83784" lon="5.10391">
        <ele>822.50665283203</ele>
        <time>2009-04-25T13:37:18Z</time>
      </trkpt>
      <trkpt lat="44.8379" lon="5.10345">
        <ele>827.06707763672</ele>
        <time>2009-04-25T13:37:23Z</time>
      </trkpt>
      <trkpt lat="44.8379" lon="5.10185">
        <ele>814.25115966797</ele>
        <time>2009-04-25T13:37:39Z</time>
      </trkpt>
      <trkpt lat="44.8378" lon="5.10137">
        <ele>806.06561279297</ele>
        <time>2009-04-25T13:37:44Z</time>
      </trkpt>
      <trkpt lat="44.83738" lon="5.10004">
        <ele>778.966796875</ele>
        <time>2009-04-25T13:37:59Z</time>
      </trkpt>
      <trkpt lat="44.83743" lon="5.09982">
        <ele>776.62957763672</ele>
        <time>2009-04-25T13:38:01Z</time>
      </trkpt>
      <trkpt lat="44.83756" lon="5.09974">
        <ele>778.96551513672</ele>
        <time>2009-04-25T13:38:04Z</time>
      </trkpt>
      <trkpt lat="44.83784" lon="5.09973">
        <ele>786.84014892578</ele>
        <time>2009-04-25T13:38:08Z</time>
      </trkpt>
      <trkpt lat="44.83843" lon="5.09988">
        <ele>802.57806396484</ele>
        <time>2009-04-25T13:38:16Z</time>
      </trkpt>
      <trkpt lat="44.83906" lon="5.09989">
        <ele>806.80108642578</ele>
        <time>2009-04-25T13:38:25Z</time>
      </trkpt>
      <trkpt lat="44.83926" lon="5.09984">
        <ele>806.44055175781</ele>
        <time>2009-04-25T13:38:28Z</time>
      </trkpt>
      <trkpt lat="44.83988" lon="5.0996">
        <ele>799.90032958984</ele>
        <time>2009-04-25T13:38:38Z</time>
      </trkpt>
      <trkpt lat="44.84212" lon="5.09844">
        <ele>780.57189941406</ele>
        <time>2009-04-25T13:39:12Z</time>
      </trkpt>
      <trkpt lat="44.84237" lon="5.09816">
        <ele>779.71801757812</ele>
        <time>2009-04-25T13:39:17Z</time>
      </trkpt>
      <trkpt lat="44.84261" lon="5.09764">
        <ele>775.38793945312</ele>
        <time>2009-04-25T13:39:23Z</time>
      </trkpt>
      <trkpt lat="44.84312" lon="5.0971">
        <ele>771.95428466797</ele>
        <time>2009-04-25T13:39:32Z</time>
      </trkpt>
      <trkpt lat="44.84386" lon="5.09607">
        <ele>754.25665283203</ele>
        <time>2009-04-25T13:39:47Z</time>
      </trkpt>
      <trkpt lat="44.84422" lon="5.09572">
        <ele>747.66571044922</ele>
        <time>2009-04-25T13:39:54Z</time>
      </trkpt>
      <trkpt lat="44.84493" lon="5.09532">
        <ele>740.76403808594</ele>
        <time>2009-04-25T13:40:05Z</time>
      </trkpt>
      <trkpt lat="44.8456" lon="5.09437">
        <ele>740.84539794922</ele>
        <time>2009-04-25T13:40:18Z</time>
      </trkpt>
      <trkpt lat="44.846" lon="5.09389">
        <ele>751.40124511719</ele>
        <time>2009-04-25T13:40:26Z</time>
      </trkpt>
      <trkpt lat="44.84636" lon="5.09358">
        <ele>757.59729003906</ele>
        <time>2009-04-25T13:40:32Z</time>
      </trkpt>
      <trkpt lat="44.84676" lon="5.09332">
        <ele>754.64849853516</ele>
        <time>2009-04-25T13:40:38Z</time>
      </trkpt>
      <trkpt lat="44.84813" lon="5.09264">
        <ele>738.81072998047</ele>
        <time>2009-04-25T13:40:59Z</time>
      </trkpt>
      <trkpt lat="44.84882" lon="5.09223">
        <ele>725.05072021484</ele>
        <time>2009-04-25T13:41:10Z</time>
      </trkpt>
      <trkpt lat="44.84922" lon="5.09183">
        <ele>719.375</ele>
        <time>2009-04-25T13:41:17Z</time>
      </trkpt>
      <trkpt lat="44.84937" lon="5.09156">
        <ele>714.61083984375</ele>
        <time>2009-04-25T13:41:21Z</time>
      </trkpt>
      <trkpt lat="44.84942" lon="5.09138">
        <ele>711.14947509766</ele>
        <time>2009-04-25T13:41:23Z</time>
      </trkpt>
      <trkpt lat="44.84939" lon="5.09127">
        <ele>709.80902099609</ele>
        <time>2009-04-25T13:41:24Z</time>
      </trkpt>
      <trkpt lat="44.84932" lon="5.09125">
        <ele>710.12396240234</ele>
        <time>2009-04-25T13:41:25Z</time>
      </trkpt>
      <trkpt lat="44.84839" lon="5.09161">
        <ele>723.02478027344</ele>
        <time>2009-04-25T13:41:39Z</time>
      </trkpt>
      <trkpt lat="44.84792" lon="5.09164">
        <ele>730.60760498047</ele>
        <time>2009-04-25T13:41:46Z</time>
      </trkpt>
      <trkpt lat="44.84758" lon="5.09158">
        <ele>734.41717529297</ele>
        <time>2009-04-25T13:41:51Z</time>
      </trkpt>
      <trkpt lat="44.84717" lon="5.09132">
        <ele>732.18994140625</ele>
        <time>2009-04-25T13:41:57Z</time>
      </trkpt>
      <trkpt lat="44.8467" lon="5.09076">
        <ele>713.98864746094</ele>
        <time>2009-04-25T13:42:06Z</time>
      </trkpt>
      <trkpt lat="44.84645" lon="5.09057">
        <ele>705.66033935547</ele>
        <time>2009-04-25T13:42:10Z</time>
      </trkpt>
      <trkpt lat="44.84573" lon="5.09023">
        <ele>701.669921875</ele>
        <time>2009-04-25T13:42:21Z</time>
      </trkpt>
      <trkpt lat="44.84483" lon="5.08991">
        <ele>698.78375244141</ele>
        <time>2009-04-25T13:42:35Z</time>
      </trkpt>
      <trkpt lat="44.84323" lon="5.08961">
        <ele>707.80200195312</ele>
        <time>2009-04-25T13:42:58Z</time>
      </trkpt>
      <trkpt lat="44.84238" lon="5.08924">
        <ele>706.22827148438</ele>
        <time>2009-04-25T13:43:11Z</time>
      </trkpt>
      <trkpt lat="44.84198" lon="5.08899">
        <ele>697.14123535156</ele>
        <time>2009-04-25T13:43:17Z</time>
      </trkpt>
      <trkpt lat="44.84086" lon="5.08814">
        <ele>668.25378417969</ele>
        <time>2009-04-25T13:43:36Z</time>
      </trkpt>
      <trkpt lat="44.84081" lon="5.08807">
        <ele>667.04083251953</ele>
        <time>2009-04-25T13:43:37Z</time>
      </trkpt>
      <trkpt lat="44.84085" lon="5.08796">
        <ele>660.58361816406</ele>
        <time>2009-04-25T13:43:38Z</time>
      </trkpt>
      <trkpt lat="44.84097" lon="5.08798">
        <ele>657.64990234375</ele>
        <time>2009-04-25T13:43:40Z</time>
      </trkpt>
      <trkpt lat="44.84154" lon="5.08834">
        <ele>660.93524169922</ele>
        <time>2009-04-25T13:43:49Z</time>
      </trkpt>
      <trkpt lat="44.84199" lon="5.08852">
        <ele>664.50946044922</ele>
        <time>2009-04-25T13:43:55Z</time>
      </trkpt>
      <trkpt lat="44.84253" lon="5.0887">
        <ele>676.68762207031</ele>
        <time>2009-04-25T13:44:03Z</time>
      </trkpt>
      <trkpt lat="44.84352" lon="5.08888">
        <ele>668.78460693359</ele>
        <time>2009-04-25T13:44:18Z</time>
      </trkpt>
      <trkpt lat="44.84413" lon="5.08884">
        <ele>659.02093505859</ele>
        <time>2009-04-25T13:44:27Z</time>
      </trkpt>
      <trkpt lat="44.84477" lon="5.08859">
        <ele>648.69799804688</ele>
        <time>2009-04-25T13:44:36Z</time>
      </trkpt>
      <trkpt lat="44.84514" lon="5.08851">
        <ele>641.63842773438</ele>
        <time>2009-04-25T13:44:42Z</time>
      </trkpt>
      <trkpt lat="44.84558" lon="5.08855">
        <ele>637.609375</ele>
        <time>2009-04-25T13:44:48Z</time>
      </trkpt>
      <trkpt lat="44.84598" lon="5.08876">
        <ele>634.94781494141</ele>
        <time>2009-04-25T13:44:54Z</time>
      </trkpt>
      <trkpt lat="44.84646" lon="5.08918">
        <ele>642.20684814453</ele>
        <time>2009-04-25T13:45:02Z</time>
      </trkpt>
      <trkpt lat="44.84713" lon="5.08943">
        <ele>647.20794677734</ele>
        <time>2009-04-25T13:45:12Z</time>
      </trkpt>
      <trkpt lat="44.84764" lon="5.08971">
        <ele>653.52532958984</ele>
        <time>2009-04-25T13:45:20Z</time>
      </trkpt>
      <trkpt lat="44.84789" lon="5.08975">
        <ele>655.85034179688</ele>
        <time>2009-04-25T13:45:24Z</time>
      </trkpt>
      <trkpt lat="44.84826" lon="5.08963">
        <ele>655.92041015625</ele>
        <time>2009-04-25T13:45:30Z</time>
      </trkpt>
      <trkpt lat="44.84886" lon="5.08904">
        <ele>647.84832763672</ele>
        <time>2009-04-25T13:45:40Z</time>
      </trkpt>
      <trkpt lat="44.85028" lon="5.08796">
        <ele>627.86791992188</ele>
        <time>2009-04-25T13:46:03Z</time>
      </trkpt>
      <trkpt lat="44.85071" lon="5.08799">
        <ele>624.71502685547</ele>
        <time>2009-04-25T13:46:10Z</time>
      </trkpt>
      <trkpt lat="44.8515" lon="5.08833">
        <ele>623.71527099609</ele>
        <time>2009-04-25T13:46:22Z</time>
      </trkpt>
      <trkpt lat="44.85202" lon="5.08845">
        <ele>616.93658447266</ele>
        <time>2009-04-25T13:46:29Z</time>
      </trkpt>
      <trkpt lat="44.85226" lon="5.08842">
        <ele>613.31304931641</ele>
        <time>2009-04-25T13:46:33Z</time>
      </trkpt>
      <trkpt lat="44.85272" lon="5.08826">
        <ele>610.73327636719</ele>
        <time>2009-04-25T13:46:40Z</time>
      </trkpt>
      <trkpt lat="44.85341" lon="5.08783">
        <ele>611.67547607422</ele>
        <time>2009-04-25T13:46:50Z</time>
      </trkpt>
      <trkpt lat="44.8536" lon="5.08766">
        <ele>611.77960205078</ele>
        <time>2009-04-25T13:46:54Z</time>
      </trkpt>
      <trkpt lat="44.85432" lon="5.08685">
        <ele>612.81976318359</ele>
        <time>2009-04-25T13:47:07Z</time>
      </trkpt>
      <trkpt lat="44.85495" lon="5.08641">
        <ele>602.04516601562</ele>
        <time>2009-04-25T13:47:17Z</time>
      </trkpt>
      <trkpt lat="44.85532" lon="5.08578">
        <ele>602.48303222656</ele>
        <time>2009-04-25T13:47:26Z</time>
      </trkpt>
      <trkpt lat="44.85541" lon="5.08571">
        <ele>602.30950927734</ele>
        <time>2009-04-25T13:47:27Z</time>
      </trkpt>
      <trkpt lat="44.85548" lon="5.08572">
        <ele>600.93756103516</ele>
        <time>2009-04-25T13:47:28Z</time>
      </trkpt>
      <trkpt lat="44.8553" lon="5.08608">
        <ele>597.15173339844</ele>
        <time>2009-04-25T13:47:33Z</time>
      </trkpt>
      <trkpt lat="44.85504" lon="5.08661">
        <ele>596.21130371094</ele>
        <time>2009-04-25T13:47:39Z</time>
      </trkpt>
      <trkpt lat="44.85455" lon="5.08726">
        <ele>592.33746337891</ele>
        <time>2009-04-25T13:47:49Z</time>
      </trkpt>
      <trkpt lat="44.85429" lon="5.0881">
        <ele>570.65771484375</ele>
        <time>2009-04-25T13:47:58Z</time>
      </trkpt>
      <trkpt lat="44.85415" lon="5.08841">
        <ele>569.28674316406</ele>
        <time>2009-04-25T13:48:02Z</time>
      </trkpt>
      <trkpt lat="44.85399" lon="5.08861">
        <ele>566.44708251953</ele>
        <time>2009-04-25T13:48:05Z</time>
      </trkpt>
      <trkpt lat="44.85349" lon="5.08893">
        <ele>573.39660644531</ele>
        <time>2009-04-25T13:48:13Z</time>
      </trkpt>
      <trkpt lat="44.85292" lon="5.0899">
        <ele>560.61737060547</ele>
        <time>2009-04-25T13:48:26Z</time>
      </trkpt>
      <trkpt lat="44.85269" lon="5.09036">
        <ele>553.32104492188</ele>
        <time>2009-04-25T13:48:32Z</time>
      </trkpt>
      <trkpt lat="44.85244" lon="5.09108">
        <ele>543.13586425781</ele>
        <time>2009-04-25T13:48:40Z</time>
      </trkpt>
      <trkpt lat="44.85228" lon="5.0919">
        <ele>537.80487060547</ele>
        <time>2009-04-25T13:48:49Z</time>
      </trkpt>
      <trkpt lat="44.85229" lon="5.09199">
        <ele>537.64215087891</ele>
        <time>2009-04-25T13:48:50Z</time>
      </trkpt>
      <trkpt lat="44.85234" lon="5.092">
        <ele>535.99078369141</ele>
        <time>2009-04-25T13:48:50Z</time>
      </trkpt>
      <trkpt lat="44.85241" lon="5.09196">
        <ele>533.37579345703</ele>
        <time>2009-04-25T13:48:51Z</time>
      </trkpt>
      <trkpt lat="44.85244" lon="5.09186">
        <ele>532.09838867188</ele>
        <time>2009-04-25T13:48:53Z</time>
      </trkpt>
      <trkpt lat="44.85251" lon="5.09137">
        <ele>534.88293457031</ele>
        <time>2009-04-25T13:48:58Z</time>
      </trkpt>
      <trkpt lat="44.8526" lon="5.09109">
        <ele>536.20269775391</ele>
        <time>2009-04-25T13:49:01Z</time>
      </trkpt>
      <trkpt lat="44.85307" lon="5.09041">
        <ele>537.24255371094</ele>
        <time>2009-04-25T13:49:11Z</time>
      </trkpt>
      <trkpt lat="44.85372" lon="5.08977">
        <ele>537.54473876953</ele>
        <time>2009-04-25T13:49:22Z</time>
      </trkpt>
      <trkpt lat="44.85436" lon="5.08972">
        <ele>505.51220703125</ele>
        <time>2009-04-25T13:49:31Z</time>
      </trkpt>
      <trkpt lat="44.85455" lon="5.08966">
        <ele>496.07583618164</ele>
        <time>2009-04-25T13:49:34Z</time>
      </trkpt>
      <trkpt lat="44.85466" lon="5.08957">
        <ele>493.83828735352</ele>
        <time>2009-04-25T13:49:36Z</time>
      </trkpt>
      <trkpt lat="44.85481" lon="5.08941">
        <ele>492.09060668945</ele>
        <time>2009-04-25T13:49:39Z</time>
      </trkpt>
      <trkpt lat="44.85494" lon="5.08913">
        <ele>492.22763061523</ele>
        <time>2009-04-25T13:49:42Z</time>
      </trkpt>
      <trkpt lat="44.85504" lon="5.0884">
        <ele>499.04162597656</ele>
        <time>2009-04-25T13:49:50Z</time>
      </trkpt>
      <trkpt lat="44.85512" lon="5.08823">
        <ele>505.03863525391</ele>
        <time>2009-04-25T13:49:52Z</time>
      </trkpt>
      <trkpt lat="44.85538" lon="5.08813">
        <ele>508.97204589844</ele>
        <time>2009-04-25T13:49:56Z</time>
      </trkpt>
      <trkpt lat="44.85593" lon="5.08814">
        <ele>497.58499145508</ele>
        <time>2009-04-25T13:50:04Z</time>
      </trkpt>
      <trkpt lat="44.8562" lon="5.08808">
        <ele>494.64791870117</ele>
        <time>2009-04-25T13:50:08Z</time>
      </trkpt>
      <trkpt lat="44.85636" lon="5.08791">
        <ele>497.11602783203</ele>
        <time>2009-04-25T13:50:10Z</time>
      </trkpt>
      <trkpt lat="44.85639" lon="5.08749">
        <ele>512.54840087891</ele>
        <time>2009-04-25T13:50:15Z</time>
      </trkpt>
      <trkpt lat="44.85649" lon="5.08742">
        <ele>515.55499267578</ele>
        <time>2009-04-25T13:50:16Z</time>
      </trkpt>
      <trkpt lat="44.85685" lon="5.08746">
        <ele>515.06939697266</ele>
        <time>2009-04-25T13:50:22Z</time>
      </trkpt>
      <trkpt lat="44.85743" lon="5.08778">
        <ele>503.18780517578</ele>
        <time>2009-04-25T13:50:31Z</time>
      </trkpt>
      <trkpt lat="44.85792" lon="5.08797">
        <ele>493.07693481445</ele>
        <time>2009-04-25T13:50:38Z</time>
      </trkpt>
      <trkpt lat="44.85851" lon="5.0879">
        <ele>486.66610717773</ele>
        <time>2009-04-25T13:50:47Z</time>
      </trkpt>
      <trkpt lat="44.85891" lon="5.0876">
        <ele>486.70660400391</ele>
        <time>2009-04-25T13:50:53Z</time>
      </trkpt>
      <trkpt lat="44.85932" lon="5.08749">
        <ele>489.50411987305</ele>
        <time>2009-04-25T13:50:59Z</time>
      </trkpt>
      <trkpt lat="44.86003" lon="5.08752">
        <ele>491.42047119141</ele>
        <time>2009-04-25T13:51:09Z</time>
      </trkpt>
      <trkpt lat="44.86084" lon="5.08768">
        <ele>492.50607299805</ele>
        <time>2009-04-25T13:51:21Z</time>
      </trkpt>
      <trkpt lat="44.86168" lon="5.08795">
        <ele>489.47418212891</ele>
        <time>2009-04-25T13:51:34Z</time>
      </trkpt>
      <trkpt lat="44.86301" lon="5.08851">
        <ele>480.25448608398</ele>
        <time>2009-04-25T13:51:54Z</time>
      </trkpt>
      <trkpt lat="44.86361" lon="5.08871">
        <ele>474.80145263672</ele>
        <time>2009-04-25T13:52:03Z</time>
      </trkpt>
      <trkpt lat="44.86514" lon="5.08955">
        <ele>441.40713500977</ele>
        <time>2009-04-25T13:52:26Z</time>
      </trkpt>
      <trkpt lat="44.8657" lon="5.08971">
        <ele>434.17260742188</ele>
        <time>2009-04-25T13:52:35Z</time>
      </trkpt>
      <trkpt lat="44.86602" lon="5.08965">
        <ele>432.34686279297</ele>
        <time>2009-04-25T13:52:39Z</time>
      </trkpt>
      <trkpt lat="44.86651" lon="5.08937">
        <ele>431.63607788086</ele>
        <time>2009-04-25T13:52:47Z</time>
      </trkpt>
      <trkpt lat="44.86713" lon="5.08926">
        <ele>430.42413330078</ele>
        <time>2009-04-25T13:52:56Z</time>
      </trkpt>
      <trkpt lat="44.86759" lon="5.08911">
        <ele>428.69909667969</ele>
        <time>2009-04-25T13:53:03Z</time>
      </trkpt>
      <trkpt lat="44.86833" lon="5.08909">
        <ele>417.90161132812</ele>
        <time>2009-04-25T13:53:14Z</time>
      </trkpt>
      <trkpt lat="44.86886" lon="5.08901">
        <ele>407.80935668945</ele>
        <time>2009-04-25T13:53:21Z</time>
      </trkpt>
      <trkpt lat="44.86915" lon="5.0889">
        <ele>403.27407836914</ele>
        <time>2009-04-25T13:53:26Z</time>
      </trkpt>
      <trkpt lat="44.86976" lon="5.08834">
        <ele>401.54632568359</ele>
        <time>2009-04-25T13:53:36Z</time>
      </trkpt>
      <trkpt lat="44.87018" lon="5.0878">
        <ele>400.31878662109</ele>
        <time>2009-04-25T13:53:44Z</time>
      </trkpt>
      <trkpt lat="44.87071" lon="5.08682">
        <ele>398.44952392578</ele>
        <time>2009-04-25T13:53:57Z</time>
      </trkpt>
      <trkpt lat="44.8713" lon="5.08543">
        <ele>396.32092285156</ele>
        <time>2009-04-25T13:54:14Z</time>
      </trkpt>
      <trkpt lat="44.87154" lon="5.08441">
        <ele>392.27874755859</ele>
        <time>2009-04-25T13:54:25Z</time>
      </trkpt>
      <trkpt lat="44.872" lon="5.0831">
        <ele>380.28604125977</ele>
        <time>2009-04-25T13:54:40Z</time>
      </trkpt>
      <trkpt lat="44.87204" lon="5.08287">
        <ele>380</ele>
        <time>2009-04-25T13:54:42Z</time>
      </trkpt>
      <trkpt lat="44.8721" lon="5.08153">
        <ele>380</ele>
        <time>2009-04-25T13:54:56Z</time>
      </trkpt>
      <trkpt lat="44.87218" lon="5.08112">
        <ele>380</ele>
        <time>2009-04-25T13:55:00Z</time>
      </trkpt>
      <trkpt lat="44.87233" lon="5.08079">
        <ele>379</ele>
        <time>2009-04-25T13:55:04Z</time>
      </trkpt>
      <trkpt lat="44.87303" lon="5.0796">
        <ele>379</ele>
        <time>2009-04-25T13:55:20Z</time>
      </trkpt>
      <trkpt lat="44.87343" lon="5.07837">
        <ele>379</ele>
        <time>2009-04-25T13:55:34Z</time>
      </trkpt>
      <trkpt lat="44.87354" lon="5.07829">
        <ele>378.84393310547</ele>
        <time>2009-04-25T13:55:36Z</time>
      </trkpt>
      <trkpt lat="44.8738" lon="5.07829">
        <ele>378.84393310547</ele>
        <time>2009-04-25T13:55:39Z</time>
      </trkpt>
      <trkpt lat="44.8746" lon="5.07887">
        <ele>377.48937988281</ele>
        <time>2009-04-25T13:55:52Z</time>
      </trkpt>
      <trkpt lat="44.87468" lon="5.0789">
        <ele>377.91937255859</ele>
        <time>2009-04-25T13:55:54Z</time>
      </trkpt>
      <trkpt lat="44.87485" lon="5.07886">
        <ele>379.70434570312</ele>
        <time>2009-04-25T13:55:56Z</time>
      </trkpt>
      <trkpt lat="44.87512" lon="5.0786">
        <ele>380.3854675293</ele>
        <time>2009-04-25T13:56:01Z</time>
      </trkpt>
      <trkpt lat="44.87523" lon="5.07837">
        <ele>379.95629882812</ele>
        <time>2009-04-25T13:56:04Z</time>
      </trkpt>
      <trkpt lat="44.87557" lon="5.07716">
        <ele>364.8561706543</ele>
        <time>2009-04-25T13:56:17Z</time>
      </trkpt>
      <trkpt lat="44.87577" lon="5.07663">
        <ele>359</ele>
        <time>2009-04-25T13:56:23Z</time>
      </trkpt>
      <trkpt lat="44.87615" lon="5.07665">
        <ele>359</ele>
        <time>2009-04-25T13:56:29Z</time>
      </trkpt>
      <trkpt lat="44.87693" lon="5.07687">
        <ele>358.26812744141</ele>
        <time>2009-04-25T13:56:40Z</time>
      </trkpt>
      <trkpt lat="44.87748" lon="5.07689">
        <ele>358.19604492188</ele>
        <time>2009-04-25T13:56:48Z</time>
      </trkpt>
      <trkpt lat="44.87794" lon="5.07683">
        <ele>358.41232299805</ele>
        <time>2009-04-25T13:56:55Z</time>
      </trkpt>
      <trkpt lat="44.87897" lon="5.07642">
        <ele>359</ele>
        <time>2009-04-25T13:57:10Z</time>
      </trkpt>
      <trkpt lat="44.87944" lon="5.07638">
        <ele>359</ele>
        <time>2009-04-25T13:57:17Z</time>
      </trkpt>
      <trkpt lat="44.88" lon="5.07647">
        <ele>359</ele>
        <time>2009-04-25T13:57:25Z</time>
      </trkpt>
      <trkpt lat="44.88062" lon="5.07697">
        <ele>357.77142333984</ele>
        <time>2009-04-25T13:57:35Z</time>
      </trkpt>
      <trkpt lat="44.88113" lon="5.07725">
        <ele>353.75552368164</ele>
        <time>2009-04-25T13:57:43Z</time>
      </trkpt>
      <trkpt lat="44.88129" lon="5.07728">
        <ele>352.36633300781</ele>
        <time>2009-04-25T13:57:46Z</time>
      </trkpt>
      <trkpt lat="44.88192" lon="5.07731">
        <ele>349.79528808594</ele>
        <time>2009-04-25T13:57:55Z</time>
      </trkpt>
      <trkpt lat="44.88332" lon="5.07754">
        <ele>357.45111083984</ele>
        <time>2009-04-25T13:58:15Z</time>
      </trkpt>
      <trkpt lat="44.88371" lon="5.07753">
        <ele>352.37219238281</ele>
        <time>2009-04-25T13:58:21Z</time>
      </trkpt>
      <trkpt lat="44.88467" lon="5.077">
        <ele>339</ele>
        <time>2009-04-25T13:58:36Z</time>
      </trkpt>
      <trkpt lat="44.88493" lon="5.07698">
        <ele>337.41058349609</ele>
        <time>2009-04-25T13:58:40Z</time>
      </trkpt>
      <trkpt lat="44.88627" lon="5.07739">
        <ele>330.64239501953</ele>
        <time>2009-04-25T13:58:59Z</time>
      </trkpt>
      <trkpt lat="44.88723" lon="5.07794">
        <ele>329.51699829102</ele>
        <time>2009-04-25T13:59:14Z</time>
      </trkpt>
      <trkpt lat="44.88811" lon="5.07816">
        <ele>326.55059814453</ele>
        <time>2009-04-25T13:59:27Z</time>
      </trkpt>
      <trkpt lat="44.88935" lon="5.07871">
        <ele>327.59259033203</ele>
        <time>2009-04-25T13:59:46Z</time>
      </trkpt>
      <trkpt lat="44.88968" lon="5.0789">
        <ele>329.03948974609</ele>
        <time>2009-04-25T13:59:51Z</time>
      </trkpt>
      <trkpt lat="44.89064" lon="5.07963">
        <ele>333.66763305664</ele>
        <time>2009-04-25T14:00:07Z</time>
      </trkpt>
      <trkpt lat="44.89224" lon="5.08052">
        <ele>331.69360351562</ele>
        <time>2009-04-25T14:00:32Z</time>
      </trkpt>
      <trkpt lat="44.89284" lon="5.08095">
        <ele>333.51513671875</ele>
        <time>2009-04-25T14:00:42Z</time>
      </trkpt>
      <trkpt lat="44.89381" lon="5.0813">
        <ele>335.44921875</ele>
        <time>2009-04-25T14:00:56Z</time>
      </trkpt>
      <trkpt lat="44.89399" lon="5.08141">
        <ele>336.15148925781</ele>
        <time>2009-04-25T14:00:59Z</time>
      </trkpt>
      <trkpt lat="44.89574" lon="5.08296">
        <ele>341.65646362305</ele>
        <time>2009-04-25T14:01:29Z</time>
      </trkpt>
      <trkpt lat="44.89627" lon="5.08334">
        <ele>345.60977172852</ele>
        <time>2009-04-25T14:01:37Z</time>
      </trkpt>
      <trkpt lat="44.89721" lon="5.08434">
        <ele>345.71832275391</ele>
        <time>2009-04-25T14:01:54Z</time>
      </trkpt>
      <trkpt lat="44.89909" lon="5.08603">
        <ele>347.15466308594</ele>
        <time>2009-04-25T14:02:27Z</time>
      </trkpt>
      <trkpt lat="44.89927" lon="5.08625">
        <ele>348.8681640625</ele>
        <time>2009-04-25T14:02:30Z</time>
      </trkpt>
      <trkpt lat="44.89937" lon="5.08652">
        <ele>350.67123413086</ele>
        <time>2009-04-25T14:02:33Z</time>
      </trkpt>
      <trkpt lat="44.89939" lon="5.08793">
        <ele>357.90570068359</ele>
        <time>2009-04-25T14:02:48Z</time>
      </trkpt>
      <trkpt lat="44.89945" lon="5.08861">
        <ele>360.99661254883</ele>
        <time>2009-04-25T14:02:55Z</time>
      </trkpt>
      <trkpt lat="44.89953" lon="5.08905">
        <ele>362.57934570312</ele>
        <time>2009-04-25T14:02:59Z</time>
      </trkpt>
      <trkpt lat="44.89948" lon="5.08947">
        <ele>364.09167480469</ele>
        <time>2009-04-25T14:03:04Z</time>
      </trkpt>
      <trkpt lat="44.89945" lon="5.09029">
        <ele>367.00064086914</ele>
        <time>2009-04-25T14:03:12Z</time>
      </trkpt>
      <trkpt lat="44.89946" lon="5.09161">
        <ele>370.85125732422</ele>
        <time>2009-04-25T14:03:25Z</time>
      </trkpt>
      <trkpt lat="44.8996" lon="5.09479">
        <ele>384.15786743164</ele>
        <time>2009-04-25T14:03:58Z</time>
      </trkpt>
      <trkpt lat="44.89957" lon="5.09511">
        <ele>386.3957824707</ele>
        <time>2009-04-25T14:04:01Z</time>
      </trkpt>
      <trkpt lat="44.89941" lon="5.09543">
        <ele>388.5754699707</ele>
        <time>2009-04-25T14:04:05Z</time>
      </trkpt>
      <trkpt lat="44.89939" lon="5.09586">
        <ele>392.09600830078</ele>
        <time>2009-04-25T14:04:10Z</time>
      </trkpt>
      <trkpt lat="44.89963" lon="5.09591">
        <ele>391.78887939453</ele>
        <time>2009-04-25T14:04:13Z</time>
      </trkpt>
      <trkpt lat="44.90008" lon="5.09628">
        <ele>392.62893676758</ele>
        <time>2009-04-25T14:04:21Z</time>
      </trkpt>
      <trkpt lat="44.90026" lon="5.09629">
        <ele>391.41015625</ele>
        <time>2009-04-25T14:04:23Z</time>
      </trkpt>
      <trkpt lat="44.90057" lon="5.0962">
        <ele>386.38143920898</ele>
        <time>2009-04-25T14:04:28Z</time>
      </trkpt>
      <trkpt lat="44.90158" lon="5.09657">
        <ele>376.37774658203</ele>
        <time>2009-04-25T14:04:43Z</time>
      </trkpt>
      <trkpt lat="44.90438" lon="5.09736">
        <ele>385.87921142578</ele>
        <time>2009-04-25T14:05:24Z</time>
      </trkpt>
      <trkpt lat="44.90547" lon="5.09774">
        <ele>387.03076171875</ele>
        <time>2009-04-25T14:05:41Z</time>
      </trkpt>
      <trkpt lat="44.90591" lon="5.09771">
        <ele>385.23516845703</ele>
        <time>2009-04-25T14:05:47Z</time>
      </trkpt>
      <trkpt lat="44.9067" lon="5.09737">
        <ele>379.41204833984</ele>
        <time>2009-04-25T14:05:59Z</time>
      </trkpt>
      <trkpt lat="44.90802" lon="5.09753">
        <ele>375.32934570312</ele>
        <time>2009-04-25T14:06:18Z</time>
      </trkpt>
      <trkpt lat="44.90855" lon="5.09778">
        <ele>374.22787475586</ele>
        <time>2009-04-25T14:06:26Z</time>
      </trkpt>
      <trkpt lat="44.90959" lon="5.09853">
        <ele>375.88464355469</ele>
        <time>2009-04-25T14:06:43Z</time>
      </trkpt>
      <trkpt lat="44.91031" lon="5.09932">
        <ele>378.38983154297</ele>
        <time>2009-04-25T14:06:56Z</time>
      </trkpt>
      <trkpt lat="44.91044" lon="5.09956">
        <ele>379.25170898438</ele>
        <time>2009-04-25T14:06:59Z</time>
      </trkpt>
      <trkpt lat="44.91073" lon="5.10044">
        <ele>382.18218994141</ele>
        <time>2009-04-25T14:07:09Z</time>
      </trkpt>
      <trkpt lat="44.91141" lon="5.10116">
        <ele>381.2575378418</ele>
        <time>2009-04-25T14:07:22Z</time>
      </trkpt>
      <trkpt lat="44.91231" lon="5.1033">
        <ele>388.1559753418</ele>
        <time>2009-04-25T14:07:47Z</time>
      </trkpt>
      <trkpt lat="44.91286" lon="5.10427">
        <ele>389.77368164062</ele>
        <time>2009-04-25T14:08:00Z</time>
      </trkpt>
      <trkpt lat="44.91297" lon="5.10466">
        <ele>389.37036132812</ele>
        <time>2009-04-25T14:08:04Z</time>
      </trkpt>
      <trkpt lat="44.91302" lon="5.10527">
        <ele>388.27297973633</ele>
        <time>2009-04-25T14:08:10Z</time>
      </trkpt>
      <trkpt lat="44.91326" lon="5.10557">
        <ele>385.7253112793</ele>
        <time>2009-04-25T14:08:15Z</time>
      </trkpt>
      <trkpt lat="44.9135" lon="5.10417">
        <ele>385.40518188477</ele>
        <time>2009-04-25T14:08:30Z</time>
      </trkpt>
      <trkpt lat="44.91366" lon="5.10387">
        <ele>383.81912231445</ele>
        <time>2009-04-25T14:08:34Z</time>
      </trkpt>
      <trkpt lat="44.91393" lon="5.10377">
        <ele>382.34439086914</ele>
        <time>2009-04-25T14:08:38Z</time>
      </trkpt>
      <trkpt lat="44.91468" lon="5.10366">
        <ele>372.35241699219</ele>
        <time>2009-04-25T14:08:49Z</time>
      </trkpt>
      <trkpt lat="44.9151" lon="5.10366">
        <ele>371.17639160156</ele>
        <time>2009-04-25T14:08:55Z</time>
      </trkpt>
      <trkpt lat="44.91559" lon="5.10387">
        <ele>371.04986572266</ele>
        <time>2009-04-25T14:09:02Z</time>
      </trkpt>
      <trkpt lat="44.91625" lon="5.10426">
        <ele>373.82983398438</ele>
        <time>2009-04-25T14:09:12Z</time>
      </trkpt>
      <trkpt lat="44.91626" lon="5.10433">
        <ele>374.12338256836</ele>
        <time>2009-04-25T14:09:13Z</time>
      </trkpt>
      <trkpt lat="44.91671" lon="5.10465">
        <ele>376.11517333984</ele>
        <time>2009-04-25T14:09:20Z</time>
      </trkpt>
      <trkpt lat="44.91714" lon="5.10504">
        <ele>377.85171508789</ele>
        <time>2009-04-25T14:09:28Z</time>
      </trkpt>
      <trkpt lat="44.91753" lon="5.10528">
        <ele>379.00854492188</ele>
        <time>2009-04-25T14:09:34Z</time>
      </trkpt>
      <trkpt lat="44.91769" lon="5.10525">
        <ele>378.96835327148</ele>
        <time>2009-04-25T14:09:36Z</time>
      </trkpt>
      <trkpt lat="44.91791" lon="5.10508">
        <ele>379.13888549805</ele>
        <time>2009-04-25T14:09:40Z</time>
      </trkpt>
      <trkpt lat="44.9181" lon="5.10501">
        <ele>379.0361328125</ele>
        <time>2009-04-25T14:09:43Z</time>
      </trkpt>
      <trkpt lat="44.91836" lon="5.105">
        <ele>379.00006103516</ele>
        <time>2009-04-25T14:09:46Z</time>
      </trkpt>
      <trkpt lat="44.9186" lon="5.1051">
        <ele>379.36056518555</ele>
        <time>2009-04-25T14:09:50Z</time>
      </trkpt>
      <trkpt lat="44.91961" lon="5.10583">
        <ele>383.39605712891</ele>
        <time>2009-04-25T14:10:06Z</time>
      </trkpt>
      <trkpt lat="44.91975" lon="5.106">
        <ele>384.19961547852</ele>
        <time>2009-04-25T14:10:09Z</time>
      </trkpt>
      <trkpt lat="44.91997" lon="5.10651">
        <ele>386.43658447266</ele>
        <time>2009-04-25T14:10:15Z</time>
      </trkpt>
      <trkpt lat="44.92028" lon="5.10699">
        <ele>388.15386962891</ele>
        <time>2009-04-25T14:10:22Z</time>
      </trkpt>
      <trkpt lat="44.92052" lon="5.10726">
        <ele>388.39880371094</ele>
        <time>2009-04-25T14:10:26Z</time>
      </trkpt>
      <trkpt lat="44.92093" lon="5.10758">
        <ele>388.60018920898</ele>
        <time>2009-04-25T14:10:33Z</time>
      </trkpt>
      <trkpt lat="44.92166" lon="5.10803">
        <ele>385.94375610352</ele>
        <time>2009-04-25T14:10:45Z</time>
      </trkpt>
      <trkpt lat="44.92193" lon="5.10869">
        <ele>388.28323364258</ele>
        <time>2009-04-25T14:10:52Z</time>
      </trkpt>
      <trkpt lat="44.92212" lon="5.10885">
        <ele>391.37564086914</ele>
        <time>2009-04-25T14:10:56Z</time>
      </trkpt>
      <trkpt lat="44.92244" lon="5.10886">
        <ele>392.89605712891</ele>
        <time>2009-04-25T14:11:00Z</time>
      </trkpt>
      <trkpt lat="44.92267" lon="5.1086">
        <ele>394.40182495117</ele>
        <time>2009-04-25T14:11:05Z</time>
      </trkpt>
      <trkpt lat="44.92336" lon="5.10843">
        <ele>402.15585327148</ele>
        <time>2009-04-25T14:11:15Z</time>
      </trkpt>
      <trkpt lat="44.92395" lon="5.10798">
        <ele>402.02105712891</ele>
        <time>2009-04-25T14:11:24Z</time>
      </trkpt>
      <trkpt lat="44.92421" lon="5.1079">
        <ele>400.41741943359</ele>
        <time>2009-04-25T14:11:28Z</time>
      </trkpt>
      <trkpt lat="44.92456" lon="5.10796">
        <ele>397.47766113281</ele>
        <time>2009-04-25T14:11:33Z</time>
      </trkpt>
      <trkpt lat="44.92492" lon="5.10809">
        <ele>395.03317260742</ele>
        <time>2009-04-25T14:11:39Z</time>
      </trkpt>
      <trkpt lat="44.92548" lon="5.10842">
        <ele>392.58401489258</ele>
        <time>2009-04-25T14:11:47Z</time>
      </trkpt>
      <trkpt lat="44.92587" lon="5.10871">
        <ele>390.53668212891</ele>
        <time>2009-04-25T14:11:54Z</time>
      </trkpt>
      <trkpt lat="44.92649" lon="5.10927">
        <ele>388.63870239258</ele>
        <time>2009-04-25T14:12:04Z</time>
      </trkpt>
      <trkpt lat="44.9268" lon="5.10967">
        <ele>387.76440429688</ele>
        <time>2009-04-25T14:12:10Z</time>
      </trkpt>
      <trkpt lat="44.92721" lon="5.11043">
        <ele>382.77310180664</ele>
        <time>2009-04-25T14:12:20Z</time>
      </trkpt>
      <trkpt lat="44.92781" lon="5.11105">
        <ele>374.78045654297</ele>
        <time>2009-04-25T14:12:31Z</time>
      </trkpt>
      <trkpt lat="44.92864" lon="5.11208">
        <ele>374.97668457031</ele>
        <time>2009-04-25T14:12:47Z</time>
      </trkpt>
      <trkpt lat="44.92909" lon="5.11237">
        <ele>377.44662475586</ele>
        <time>2009-04-25T14:12:54Z</time>
      </trkpt>
      <trkpt lat="44.92958" lon="5.11244">
        <ele>378.37222290039</ele>
        <time>2009-04-25T14:13:01Z</time>
      </trkpt>
      <trkpt lat="44.92979" lon="5.11253">
        <ele>377.72607421875</ele>
        <time>2009-04-25T14:13:04Z</time>
      </trkpt>
      <trkpt lat="44.93099" lon="5.11363">
        <ele>366.61434936523</ele>
        <time>2009-04-25T14:13:25Z</time>
      </trkpt>
      <trkpt lat="44.93114" lon="5.1136">
        <ele>366.08770751953</ele>
        <time>2009-04-25T14:13:27Z</time>
      </trkpt>
      <trkpt lat="44.93135" lon="5.11336">
        <ele>364.23236083984</ele>
        <time>2009-04-25T14:13:31Z</time>
      </trkpt>
      <trkpt lat="44.93144" lon="5.11333">
        <ele>364.33200073242</ele>
        <time>2009-04-25T14:13:33Z</time>
      </trkpt>
      <trkpt lat="44.93228" lon="5.11322">
        <ele>365.7587890625</ele>
        <time>2009-04-25T14:13:45Z</time>
      </trkpt>
      <trkpt lat="44.93292" lon="5.11323">
        <ele>364.25762939453</ele>
        <time>2009-04-25T14:13:54Z</time>
      </trkpt>
      <trkpt lat="44.93342" lon="5.11315">
        <ele>362.06927490234</ele>
        <time>2009-04-25T14:14:01Z</time>
      </trkpt>
      <trkpt lat="44.93387" lon="5.11344">
        <ele>361.29986572266</ele>
        <time>2009-04-25T14:14:08Z</time>
      </trkpt>
      <trkpt lat="44.93489" lon="5.11428">
        <ele>366.61972045898</ele>
        <time>2009-04-25T14:14:25Z</time>
      </trkpt>
      <trkpt lat="44.93585" lon="5.1147">
        <ele>364.68222045898</ele>
        <time>2009-04-25T14:14:40Z</time>
      </trkpt>
      <trkpt lat="44.93609" lon="5.11495">
        <ele>363.88482666016</ele>
        <time>2009-04-25T14:14:44Z</time>
      </trkpt>
      <trkpt lat="44.93644" lon="5.1155">
        <ele>364.43539428711</ele>
        <time>2009-04-25T14:14:52Z</time>
      </trkpt>
      <trkpt lat="44.93662" lon="5.11566">
        <ele>364.03308105469</ele>
        <time>2009-04-25T14:14:55Z</time>
      </trkpt>
      <trkpt lat="44.93729" lon="5.11594">
        <ele>363.74743652344</ele>
        <time>2009-04-25T14:15:05Z</time>
      </trkpt>
      <trkpt lat="44.93788" lon="5.11627">
        <ele>375.67742919922</ele>
        <time>2009-04-25T14:15:14Z</time>
      </trkpt>
      <trkpt lat="44.93854" lon="5.11639">
        <ele>377.00604248047</ele>
        <time>2009-04-25T14:15:24Z</time>
      </trkpt>
      <trkpt lat="44.93955" lon="5.117">
        <ele>371.45123291016</ele>
        <time>2009-04-25T14:15:40Z</time>
      </trkpt>
      <trkpt lat="44.93999" lon="5.11742">
        <ele>369.77752685547</ele>
        <time>2009-04-25T14:15:47Z</time>
      </trkpt>
      <trkpt lat="44.94014" lon="5.11748">
        <ele>368.92092895508</ele>
        <time>2009-04-25T14:15:50Z</time>
      </trkpt>
      <trkpt lat="44.94015" lon="5.1176">
        <ele>369.27111816406</ele>
        <time>2009-04-25T14:15:51Z</time>
      </trkpt>
      <trkpt lat="44.94024" lon="5.11782">
        <ele>369.43078613281</ele>
        <time>2009-04-25T14:15:54Z</time>
      </trkpt>
      <trkpt lat="44.94034" lon="5.11794">
        <ele>369.14923095703</ele>
        <time>2009-04-25T14:15:55Z</time>
      </trkpt>
      <trkpt lat="44.94059" lon="5.1181">
        <ele>368.01708984375</ele>
        <time>2009-04-25T14:15:59Z</time>
      </trkpt>
      <trkpt lat="44.94149" lon="5.11846">
        <ele>365.45663452148</ele>
        <time>2009-04-25T14:16:13Z</time>
      </trkpt>
      <trkpt lat="44.9425" lon="5.11903">
        <ele>364.50415039062</ele>
        <time>2009-04-25T14:16:29Z</time>
      </trkpt>
      <trkpt lat="44.94286" lon="5.11916">
        <ele>363.38714599609</ele>
        <time>2009-04-25T14:16:34Z</time>
      </trkpt>
      <trkpt lat="44.94325" lon="5.11915">
        <ele>361.94058227539</ele>
        <time>2009-04-25T14:16:40Z</time>
      </trkpt>
      <trkpt lat="44.94393" lon="5.11888">
        <ele>359.97229003906</ele>
        <time>2009-04-25T14:16:50Z</time>
      </trkpt>
      <trkpt lat="44.94419" lon="5.11889">
        <ele>360.09414672852</ele>
        <time>2009-04-25T14:16:54Z</time>
      </trkpt>
      <trkpt lat="44.94444" lon="5.11902">
        <ele>361.92407226562</ele>
        <time>2009-04-25T14:16:57Z</time>
      </trkpt>
      <trkpt lat="44.94521" lon="5.11961">
        <ele>366.44906616211</ele>
        <time>2009-04-25T14:17:10Z</time>
      </trkpt>
      <trkpt lat="44.94573" lon="5.11979">
        <ele>368.24426269531</ele>
        <time>2009-04-25T14:17:18Z</time>
      </trkpt>
      <trkpt lat="44.94682" lon="5.12006">
        <ele>367.86264038086</ele>
        <time>2009-04-25T14:17:34Z</time>
      </trkpt>
      <trkpt lat="44.94789" lon="5.12069">
        <ele>371.76956176758</ele>
        <time>2009-04-25T14:17:51Z</time>
      </trkpt>
      <trkpt lat="44.94869" lon="5.12097">
        <ele>372.49118041992</ele>
        <time>2009-04-25T14:18:03Z</time>
      </trkpt>
      <trkpt lat="44.94898" lon="5.12119">
        <ele>373.28424072266</ele>
        <time>2009-04-25T14:18:07Z</time>
      </trkpt>
      <trkpt lat="44.95034" lon="5.12297">
        <ele>376.53662109375</ele>
        <time>2009-04-25T14:18:34Z</time>
      </trkpt>
      <trkpt lat="44.95055" lon="5.1233">
        <ele>376.89999389648</ele>
        <time>2009-04-25T14:18:39Z</time>
      </trkpt>
      <trkpt lat="44.95125" lon="5.12406">
        <ele>377.12313842773</ele>
        <time>2009-04-25T14:18:51Z</time>
      </trkpt>
      <trkpt lat="44.9518" lon="5.12447">
        <ele>377.09283447266</ele>
        <time>2009-04-25T14:19:00Z</time>
      </trkpt>
      <trkpt lat="44.95271" lon="5.12481">
        <ele>379.99169921875</ele>
        <time>2009-04-25T14:19:14Z</time>
      </trkpt>
      <trkpt lat="44.9532" lon="5.12513">
        <ele>382.46862792969</ele>
        <time>2009-04-25T14:19:22Z</time>
      </trkpt>
      <trkpt lat="44.95335" lon="5.12542">
        <ele>383</ele>
        <time>2009-04-25T14:19:25Z</time>
      </trkpt>
      <trkpt lat="44.95363" lon="5.12575">
        <ele>383.65631103516</ele>
        <time>2009-04-25T14:19:31Z</time>
      </trkpt>
      <trkpt lat="44.95381" lon="5.12586">
        <ele>383.3479309082</ele>
        <time>2009-04-25T14:19:34Z</time>
      </trkpt>
      <trkpt lat="44.95498" lon="5.12631">
        <ele>390.7155456543</ele>
        <time>2009-04-25T14:19:51Z</time>
      </trkpt>
      <trkpt lat="44.95528" lon="5.12651">
        <ele>391.43255615234</ele>
        <time>2009-04-25T14:19:56Z</time>
      </trkpt>
      <trkpt lat="44.95641" lon="5.12783">
        <ele>393.92596435547</ele>
        <time>2009-04-25T14:20:17Z</time>
      </trkpt>
      <trkpt lat="44.95729" lon="5.12895">
        <ele>394.2204284668</ele>
        <time>2009-04-25T14:20:34Z</time>
      </trkpt>
      <trkpt lat="44.9581" lon="5.1301">
        <ele>396.35919189453</ele>
        <time>2009-04-25T14:20:51Z</time>
      </trkpt>
      <trkpt lat="44.9593" lon="5.13207">
        <ele>400.4850769043</ele>
        <time>2009-04-25T14:21:17Z</time>
      </trkpt>
      <trkpt lat="44.95923" lon="5.13221">
        <ele>401.50988769531</ele>
        <time>2009-04-25T14:21:19Z</time>
      </trkpt>
      <trkpt lat="44.95925" lon="5.13234">
        <ele>402.53210449219</ele>
        <time>2009-04-25T14:21:21Z</time>
      </trkpt>
      <trkpt lat="44.95936" lon="5.13243">
        <ele>402.34967041016</ele>
        <time>2009-04-25T14:21:22Z</time>
      </trkpt>
      <trkpt lat="44.9595" lon="5.13239">
        <ele>400.89105224609</ele>
        <time>2009-04-25T14:21:24Z</time>
      </trkpt>
      <trkpt lat="44.95952" lon="5.13228">
        <ele>400.09344482422</ele>
        <time>2009-04-25T14:21:26Z</time>
      </trkpt>
      <trkpt lat="44.95948" lon="5.13212">
        <ele>399.50344848633</ele>
        <time>2009-04-25T14:21:27Z</time>
      </trkpt>
      <trkpt lat="44.95986" lon="5.1313">
        <ele>394.49768066406</ele>
        <time>2009-04-25T14:21:37Z</time>
      </trkpt>
      <trkpt lat="44.96064" lon="5.13007">
        <ele>388.77294921875</ele>
        <time>2009-04-25T14:21:54Z</time>
      </trkpt>
      <trkpt lat="44.96085" lon="5.12974">
        <ele>387.94085693359</ele>
        <time>2009-04-25T14:21:59Z</time>
      </trkpt>
      <trkpt lat="44.96173" lon="5.12874">
        <ele>382.7685546875</ele>
        <time>2009-04-25T14:22:15Z</time>
      </trkpt>
      <trkpt lat="44.96228" lon="5.12794">
        <ele>380</ele>
        <time>2009-04-25T14:22:27Z</time>
      </trkpt>
      <trkpt lat="44.96255" lon="5.12775">
        <ele>379.98153686523</ele>
        <time>2009-04-25T14:22:31Z</time>
      </trkpt>
      <trkpt lat="44.96319" lon="5.12748">
        <ele>376.97326660156</ele>
        <time>2009-04-25T14:22:41Z</time>
      </trkpt>
      <trkpt lat="44.9646" lon="5.12669">
        <ele>369.44140625</ele>
        <time>2009-04-25T14:23:02Z</time>
      </trkpt>
      <trkpt lat="44.96505" lon="5.12625">
        <ele>365.82092285156</ele>
        <time>2009-04-25T14:23:10Z</time>
      </trkpt>
      <trkpt lat="44.96548" lon="5.12561">
        <ele>363.26910400391</ele>
        <time>2009-04-25T14:23:19Z</time>
      </trkpt>
      <trkpt lat="44.9658" lon="5.12524">
        <ele>361.87924194336</ele>
        <time>2009-04-25T14:23:25Z</time>
      </trkpt>
      <trkpt lat="44.96663" lon="5.1247">
        <ele>360</ele>
        <time>2009-04-25T14:23:39Z</time>
      </trkpt>
      <trkpt lat="44.96712" lon="5.1242">
        <ele>357.48345947266</ele>
        <time>2009-04-25T14:23:47Z</time>
      </trkpt>
      <trkpt lat="44.96769" lon="5.12344">
        <ele>352.01873779297</ele>
        <time>2009-04-25T14:23:59Z</time>
      </trkpt>
      <trkpt lat="44.96798" lon="5.12291">
        <ele>349.75012207031</ele>
        <time>2009-04-25T14:24:06Z</time>
      </trkpt>
      <trkpt lat="44.96914" lon="5.12111">
        <ele>341.09884643555</ele>
        <time>2009-04-25T14:24:30Z</time>
      </trkpt>
      <trkpt lat="44.96952" lon="5.12061">
        <ele>339.19683837891</ele>
        <time>2009-04-25T14:24:38Z</time>
      </trkpt>
      <trkpt lat="44.9699" lon="5.12021">
        <ele>337.60977172852</ele>
        <time>2009-04-25T14:24:45Z</time>
      </trkpt>
      <trkpt lat="44.97031" lon="5.11987">
        <ele>337</ele>
        <time>2009-04-25T14:24:52Z</time>
      </trkpt>
      <trkpt lat="44.97085" lon="5.11951">
        <ele>335.93316650391</ele>
        <time>2009-04-25T14:25:00Z</time>
      </trkpt>
      <trkpt lat="44.9721" lon="5.11877">
        <ele>328.01495361328</ele>
        <time>2009-04-25T14:25:20Z</time>
      </trkpt>
      <trkpt lat="44.97311" lon="5.11835">
        <ele>323.8515625</ele>
        <time>2009-04-25T14:25:35Z</time>
      </trkpt>
      <trkpt lat="44.97464" lon="5.11791">
        <ele>319.63107299805</ele>
        <time>2009-04-25T14:25:58Z</time>
      </trkpt>
      <trkpt lat="44.97487" lon="5.11778">
        <ele>318.4811706543</ele>
        <time>2009-04-25T14:26:01Z</time>
      </trkpt>
      <trkpt lat="44.97511" lon="5.11757">
        <ele>316.85894775391</ele>
        <time>2009-04-25T14:26:05Z</time>
      </trkpt>
      <trkpt lat="44.97611" lon="5.11612">
        <ele>309.04071044922</ele>
        <time>2009-04-25T14:26:26Z</time>
      </trkpt>
      <trkpt lat="44.97722" lon="5.11425">
        <ele>302.30065917969</ele>
        <time>2009-04-25T14:26:51Z</time>
      </trkpt>
      <trkpt lat="44.97754" lon="5.11392">
        <ele>301.87524414062</ele>
        <time>2009-04-25T14:26:57Z</time>
      </trkpt>
      <trkpt lat="44.97968" lon="5.1125">
        <ele>299.15521240234</ele>
        <time>2009-04-25T14:27:31Z</time>
      </trkpt>
      <trkpt lat="44.98014" lon="5.11199">
        <ele>296.49353027344</ele>
        <time>2009-04-25T14:27:39Z</time>
      </trkpt>
      <trkpt lat="44.98088" lon="5.11082">
        <ele>292.82934570312</ele>
        <time>2009-04-25T14:27:55Z</time>
      </trkpt>
      <trkpt lat="44.98198" lon="5.10974">
        <ele>287.87426757812</ele>
        <time>2009-04-25T14:28:15Z</time>
      </trkpt>
      <trkpt lat="44.98226" lon="5.10937">
        <ele>285.71606445312</ele>
        <time>2009-04-25T14:28:20Z</time>
      </trkpt>
      <trkpt lat="44.98274" lon="5.10885">
        <ele>283.14141845703</ele>
        <time>2009-04-25T14:28:29Z</time>
      </trkpt>
      <trkpt lat="44.98324" lon="5.10846">
        <ele>279.84088134766</ele>
        <time>2009-04-25T14:28:37Z</time>
      </trkpt>
      <trkpt lat="44.98533" lon="5.10719">
        <ele>271.88446044922</ele>
        <time>2009-04-25T14:29:10Z</time>
      </trkpt>
      <trkpt lat="44.98606" lon="5.10656">
        <ele>268.796875</ele>
        <time>2009-04-25T14:29:23Z</time>
      </trkpt>
      <trkpt lat="44.98689" lon="5.10593">
        <ele>265.54748535156</ele>
        <time>2009-04-25T14:29:36Z</time>
      </trkpt>
      <trkpt lat="44.98695" lon="5.10593">
        <ele>265.32775878906</ele>
        <time>2009-04-25T14:29:37Z</time>
      </trkpt>
      <trkpt lat="44.98787" lon="5.10512">
        <ele>261.81314086914</ele>
        <time>2009-04-25T14:29:53Z</time>
      </trkpt>
      <trkpt lat="44.98898" lon="5.10288">
        <ele>256.67437744141</ele>
        <time>2009-04-25T14:30:21Z</time>
      </trkpt>
      <trkpt lat="44.98917" lon="5.10261">
        <ele>255.39639282227</ele>
        <time>2009-04-25T14:30:25Z</time>
      </trkpt>
      <trkpt lat="44.9893" lon="5.10267">
        <ele>255.61270141602</ele>
        <time>2009-04-25T14:30:27Z</time>
      </trkpt>
      <trkpt lat="44.98938" lon="5.10257">
        <ele>255.25219726562</ele>
        <time>2009-04-25T14:30:28Z</time>
      </trkpt>
      <trkpt lat="44.98938" lon="5.10248">
        <ele>255</ele>
        <time>2009-04-25T14:30:29Z</time>
      </trkpt>
      <trkpt lat="44.98995" lon="5.10239">
        <ele>253.18621826172</ele>
        <time>2009-04-25T14:30:37Z</time>
      </trkpt>
      <trkpt lat="44.9914" lon="5.10189">
        <ele>249</ele>
        <time>2009-04-25T14:30:59Z</time>
      </trkpt>
      <trkpt lat="44.99167" lon="5.10178">
        <ele>248.99267578125</ele>
        <time>2009-04-25T14:31:03Z</time>
      </trkpt>
      <trkpt lat="44.99221" lon="5.10144">
        <ele>248</ele>
        <time>2009-04-25T14:31:11Z</time>
      </trkpt>
      <trkpt lat="44.99443" lon="5.09968">
        <ele>241.84780883789</ele>
        <time>2009-04-25T14:31:48Z</time>
      </trkpt>
      <trkpt lat="44.9961" lon="5.09818">
        <ele>240</ele>
        <time>2009-04-25T14:32:17Z</time>
      </trkpt>
      <trkpt lat="44.9973" lon="5.09727">
        <ele>239.72290039062</ele>
        <time>2009-04-25T14:32:37Z</time>
      </trkpt>
      <trkpt lat="44.99835" lon="5.09657">
        <ele>237.61706542969</ele>
        <time>2009-04-25T14:32:53Z</time>
      </trkpt>
      <trkpt lat="44.99915" lon="5.09626">
        <ele>235.56521606445</ele>
        <time>2009-04-25T14:33:05Z</time>
      </trkpt>
      <trkpt lat="44.99951" lon="5.09598">
        <ele>232.546875</ele>
        <time>2009-04-25T14:33:11Z</time>
      </trkpt>
      <trkpt lat="45.00019" lon="5.09531">
        <ele>225.31335449219</ele>
        <time>2009-04-25T14:33:23Z</time>
      </trkpt>
      <trkpt lat="45.00104" lon="5.09457">
        <ele>222.58993530273</ele>
        <time>2009-04-25T14:33:38Z</time>
      </trkpt>
      <trkpt lat="45.0028" lon="5.09316">
        <ele>220</ele>
        <time>2009-04-25T14:34:07Z</time>
      </trkpt>
      <trkpt lat="45.00346" lon="5.09274">
        <ele>220</ele>
        <time>2009-04-25T14:34:17Z</time>
      </trkpt>
      <trkpt lat="45.00392" lon="5.09252">
        <ele>219.88256835938</ele>
        <time>2009-04-25T14:34:24Z</time>
      </trkpt>
      <trkpt lat="45.00706" lon="5.09057">
        <ele>218</ele>
        <time>2009-04-25T14:35:14Z</time>
      </trkpt>
      <trkpt lat="45.00816" lon="5.08962">
        <ele>218</ele>
        <time>2009-04-25T14:35:33Z</time>
      </trkpt>
      <trkpt lat="45.00937" lon="5.08896">
        <ele>218</ele>
        <time>2009-04-25T14:35:51Z</time>
      </trkpt>
      <trkpt lat="45.00996" lon="5.08894">
        <ele>218</ele>
        <time>2009-04-25T14:36:00Z</time>
      </trkpt>
      <trkpt lat="45.01046" lon="5.08847">
        <ele>215.34436035156</ele>
        <time>2009-04-25T14:36:09Z</time>
      </trkpt>
      <trkpt lat="45.01075" lon="5.08826">
        <ele>214.92080688477</ele>
        <time>2009-04-25T14:36:13Z</time>
      </trkpt>
      <trkpt lat="45.01117" lon="5.08732">
        <ele>212.35147094727</ele>
        <time>2009-04-25T14:36:25Z</time>
      </trkpt>
      <trkpt lat="45.01149" lon="5.08672">
        <ele>209.82843017578</ele>
        <time>2009-04-25T14:36:32Z</time>
      </trkpt>
      <trkpt lat="45.01246" lon="5.08541">
        <ele>199.62474060059</ele>
        <time>2009-04-25T14:36:52Z</time>
      </trkpt>
      <trkpt lat="45.01304" lon="5.08436">
        <ele>199.03698730469</ele>
        <time>2009-04-25T14:37:05Z</time>
      </trkpt>
      <trkpt lat="45.01326" lon="5.08417">
        <ele>199</ele>
        <time>2009-04-25T14:37:09Z</time>
      </trkpt>
      <trkpt lat="45.01372" lon="5.08403">
        <ele>199</ele>
        <time>2009-04-25T14:37:16Z</time>
      </trkpt>
      <trkpt lat="45.01394" lon="5.08385">
        <ele>199</ele>
        <time>2009-04-25T14:37:20Z</time>
      </trkpt>
      <trkpt lat="45.01508" lon="5.08246">
        <ele>198.71380615234</ele>
        <time>2009-04-25T14:37:41Z</time>
      </trkpt>
      <trkpt lat="45.01525" lon="5.08236">
        <ele>198.09582519531</ele>
        <time>2009-04-25T14:37:44Z</time>
      </trkpt>
      <trkpt lat="45.01663" lon="5.08108">
        <ele>196.88784790039</ele>
        <time>2009-04-25T14:38:08Z</time>
      </trkpt>
      <trkpt lat="45.01666" lon="5.08098">
        <ele>196.52737426758</ele>
        <time>2009-04-25T14:38:09Z</time>
      </trkpt>
      <trkpt lat="45.01716" lon="5.08042">
        <ele>195</ele>
        <time>2009-04-25T14:38:18Z</time>
      </trkpt>
      <trkpt lat="45.01863" lon="5.07839">
        <ele>192.92846679688</ele>
        <time>2009-04-25T14:38:48Z</time>
      </trkpt>
      <trkpt lat="45.0189" lon="5.07809">
        <ele>192</ele>
        <time>2009-04-25T14:38:53Z</time>
      </trkpt>
      <trkpt lat="45.01958" lon="5.07752">
        <ele>191</ele>
        <time>2009-04-25T14:39:04Z</time>
      </trkpt>
      <trkpt lat="45.01991" lon="5.07731">
        <ele>191.22421264648</ele>
        <time>2009-04-25T14:39:09Z</time>
      </trkpt>
      <trkpt lat="45.02109" lon="5.07683">
        <ele>191</ele>
        <time>2009-04-25T14:39:27Z</time>
      </trkpt>
      <trkpt lat="45.02165" lon="5.0767">
        <ele>190.77435302734</ele>
        <time>2009-04-25T14:39:35Z</time>
      </trkpt>
      <trkpt lat="45.02243" lon="5.07676">
        <ele>189</ele>
        <time>2009-04-25T14:39:47Z</time>
      </trkpt>
      <trkpt lat="45.02277" lon="5.07671">
        <ele>189</ele>
        <time>2009-04-25T14:39:52Z</time>
      </trkpt>
      <trkpt lat="45.02308" lon="5.0766">
        <ele>189</ele>
        <time>2009-04-25T14:39:56Z</time>
      </trkpt>
      <trkpt lat="45.02376" lon="5.07601">
        <ele>188.26075744629</ele>
        <time>2009-04-25T14:40:08Z</time>
      </trkpt>
      <trkpt lat="45.025" lon="5.0751">
        <ele>180.35980224609</ele>
        <time>2009-04-25T14:40:28Z</time>
      </trkpt>
      <trkpt lat="45.02551" lon="5.07484">
        <ele>179.42425537109</ele>
        <time>2009-04-25T14:40:36Z</time>
      </trkpt>
      <trkpt lat="45.02608" lon="5.07468">
        <ele>179</ele>
        <time>2009-04-25T14:40:44Z</time>
      </trkpt>
      <trkpt lat="45.02662" lon="5.07422">
        <ele>177.03308105469</ele>
        <time>2009-04-25T14:40:53Z</time>
      </trkpt>
      <trkpt lat="45.02674" lon="5.07467">
        <ele>177.32650756836</ele>
        <time>2009-04-25T14:40:58Z</time>
      </trkpt>
      <trkpt lat="45.02674" lon="5.07516">
        <ele>178.15417480469</ele>
        <time>2009-04-25T14:41:03Z</time>
      </trkpt>
      <trkpt lat="45.02768" lon="5.0758">
        <ele>174.92234802246</ele>
        <time>2009-04-25T14:41:18Z</time>
      </trkpt>
      <trkpt lat="45.0281" lon="5.07588">
        <ele>172.84338378906</ele>
        <time>2009-04-25T14:41:24Z</time>
      </trkpt>
      <trkpt lat="45.02925" lon="5.07592">
        <ele>170.69604492188</ele>
        <time>2009-04-25T14:41:41Z</time>
      </trkpt>
      <trkpt lat="45.03022" lon="5.07595">
        <ele>169</ele>
        <time>2009-04-25T14:41:55Z</time>
      </trkpt>
      <trkpt lat="45.03091" lon="5.07569">
        <ele>167.72222900391</ele>
        <time>2009-04-25T14:42:05Z</time>
      </trkpt>
      <trkpt lat="45.03104" lon="5.07569">
        <ele>167.25531005859</ele>
        <time>2009-04-25T14:42:07Z</time>
      </trkpt>
      <trkpt lat="45.03138" lon="5.07584">
        <ele>167.02398681641</ele>
        <time>2009-04-25T14:42:12Z</time>
      </trkpt>
      <trkpt lat="45.03133" lon="5.07597">
        <ele>167.49261474609</ele>
        <time>2009-04-25T14:42:14Z</time>
      </trkpt>
      <trkpt lat="45.03134" lon="5.07615">
        <ele>168</ele>
        <time>2009-04-25T14:42:16Z</time>
      </trkpt>
      <trkpt lat="45.03143" lon="5.07629">
        <ele>168</ele>
        <time>2009-04-25T14:42:18Z</time>
      </trkpt>
      <trkpt lat="45.03156" lon="5.07635">
        <ele>168</ele>
        <time>2009-04-25T14:42:20Z</time>
      </trkpt>
      <trkpt lat="45.03167" lon="5.0763">
        <ele>167.98937988281</ele>
        <time>2009-04-25T14:42:21Z</time>
      </trkpt>
      <trkpt lat="45.03175" lon="5.07617">
        <ele>167.70098876953</ele>
        <time>2009-04-25T14:42:23Z</time>
      </trkpt>
      <trkpt lat="45.03174" lon="5.07595">
        <ele>167.31210327148</ele>
        <time>2009-04-25T14:42:25Z</time>
      </trkpt>
      <trkpt lat="45.03219" lon="5.07572">
        <ele>167</ele>
        <time>2009-04-25T14:42:32Z</time>
      </trkpt>
      <trkpt lat="45.03256" lon="5.07563">
        <ele>166</ele>
        <time>2009-04-25T14:42:38Z</time>
      </trkpt>
      <trkpt lat="45.03373" lon="5.07566">
        <ele>164.73428344727</ele>
        <time>2009-04-25T14:42:55Z</time>
      </trkpt>
      <trkpt lat="45.03477" lon="5.07583">
        <ele>163.98794555664</ele>
        <time>2009-04-25T14:43:10Z</time>
      </trkpt>
      <trkpt lat="45.03543" lon="5.07577">
        <ele>162.87411499023</ele>
        <time>2009-04-25T14:43:19Z</time>
      </trkpt>
      <trkpt lat="45.0364" lon="5.07504">
        <ele>160.96057128906</ele>
        <time>2009-04-25T14:43:35Z</time>
      </trkpt>
      <trkpt lat="45.03648" lon="5.07498">
        <ele>160.67218017578</ele>
        <time>2009-04-25T14:43:37Z</time>
      </trkpt>
      <trkpt lat="45.03648" lon="5.07499">
        <ele>160.67218017578</ele>
        <time>2009-04-25T14:43:37Z</time>
      </trkpt>
      <trkpt lat="45.0364" lon="5.07504">
        <ele>160.96057128906</ele>
        <time>2009-04-25T14:43:38Z</time>
      </trkpt>
      <trkpt lat="45.03595" lon="5.08126">
        <ele>165.5810546875</ele>
        <time>2009-04-25T14:44:42Z</time>
      </trkpt>
      <trkpt lat="45.03587" lon="5.08198">
        <ele>165.99826049805</ele>
        <time>2009-04-25T14:44:49Z</time>
      </trkpt>
      <trkpt lat="45.03575" lon="5.08197">
        <ele>166.38793945312</ele>
        <time>2009-04-25T14:44:51Z</time>
      </trkpt>
      <trkpt lat="45.03558" lon="5.0821">
        <ele>167.47283935547</ele>
        <time>2009-04-25T14:44:54Z</time>
      </trkpt>
      <trkpt lat="45.0355" lon="5.08234">
        <ele>168</ele>
        <time>2009-04-25T14:44:57Z</time>
      </trkpt>
      <trkpt lat="45.03558" lon="5.08262">
        <ele>167.91314697266</ele>
        <time>2009-04-25T14:45:00Z</time>
      </trkpt>
      <trkpt lat="45.03568" lon="5.08273">
        <ele>167.55609130859</ele>
        <time>2009-04-25T14:45:01Z</time>
      </trkpt>
      <trkpt lat="45.03583" lon="5.08277">
        <ele>167.00677490234</ele>
        <time>2009-04-25T14:45:04Z</time>
      </trkpt>
      <trkpt lat="45.03572" lon="5.08439">
        <ele>168.40502929688</ele>
        <time>2009-04-25T14:45:20Z</time>
      </trkpt>
      <trkpt lat="45.03566" lon="5.08455">
        <ele>168.62475585938</ele>
        <time>2009-04-25T14:45:22Z</time>
      </trkpt>
      <trkpt lat="45.03555" lon="5.08623">
        <ele>170</ele>
        <time>2009-04-25T14:45:39Z</time>
      </trkpt>
      <trkpt lat="45.03887" lon="5.08693">
        <ele>148.30685424805</ele>
        <time>2009-04-25T14:46:28Z</time>
      </trkpt>
      <trkpt lat="45.04205" lon="5.08603">
        <ele>169.18768310547</ele>
        <time>2009-04-25T14:47:15Z</time>
      </trkpt>
      <trkpt lat="45.04205" lon="5.08602">
        <ele>169.17379760742</ele>
        <time>2009-04-25T14:47:15Z</time>
      </trkpt>
      <trkpt lat="45.04225" lon="5.08583">
        <ele>170</ele>
        <time>2009-04-25T14:47:18Z</time>
      </trkpt>
      <trkpt lat="45.04278" lon="5.08472">
        <ele>169.98541259766</ele>
        <time>2009-04-25T14:47:32Z</time>
      </trkpt>
      <trkpt lat="45.04301" lon="5.08441">
        <ele>169.14152526856</ele>
        <time>2009-04-25T14:47:37Z</time>
      </trkpt>
      <trkpt lat="45.04309" lon="5.08455">
        <ele>169.126953125</ele>
        <time>2009-04-25T14:47:38Z</time>
      </trkpt>
      <trkpt lat="45.0432" lon="5.08464">
        <ele>169.52520751953</ele>
        <time>2009-04-25T14:47:40Z</time>
      </trkpt>
      <trkpt lat="45.04343" lon="5.08463">
        <ele>170</ele>
        <time>2009-04-25T14:47:44Z</time>
      </trkpt>
      <trkpt lat="45.04366" lon="5.086">
        <ele>170</ele>
        <time>2009-04-25T14:47:58Z</time>
      </trkpt>
      <trkpt lat="45.04515" lon="5.08572">
        <ele>170</ele>
        <time>2009-04-25T14:48:20Z</time>
      </trkpt>
      <trkpt lat="45.04756" lon="5.08521">
        <ele>170</ele>
        <time>2009-04-25T14:48:55Z</time>
      </trkpt>
      <trkpt lat="45.04933" lon="5.08502">
        <ele>170</ele>
        <time>2009-04-25T14:49:21Z</time>
      </trkpt>
      <trkpt lat="45.05074" lon="5.0848">
        <ele>170</ele>
        <time>2009-04-25T14:49:41Z</time>
      </trkpt>
      <trkpt lat="45.05056" lon="5.08274">
        <ele>170</ele>
        <time>2009-04-25T14:50:02Z</time>
      </trkpt>
      <trkpt lat="45.05047" lon="5.08234">
        <ele>170</ele>
        <time>2009-04-25T14:50:07Z</time>
      </trkpt>
      <trkpt lat="45.05016" lon="5.08141">
        <ele>170</ele>
        <time>2009-04-25T14:50:17Z</time>
      </trkpt>
      <trkpt lat="45.05008" lon="5.08093">
        <ele>170</ele>
        <time>2009-04-25T14:50:22Z</time>
      </trkpt>
      <trkpt lat="45.05006" lon="5.08061">
        <ele>170</ele>
        <time>2009-04-25T14:50:25Z</time>
      </trkpt>
      <trkpt lat="45.05017" lon="5.07931">
        <ele>170</ele>
        <time>2009-04-25T14:50:39Z</time>
      </trkpt>
      <trkpt lat="45.05024" lon="5.07928">
        <ele>170</ele>
        <time>2009-04-25T14:50:40Z</time>
      </trkpt>
      <trkpt lat="45.05036" lon="5.07908">
        <ele>170</ele>
        <time>2009-04-25T14:50:42Z</time>
      </trkpt>
      <trkpt lat="45.05033" lon="5.07882">
        <ele>170</ele>
        <time>2009-04-25T14:50:45Z</time>
      </trkpt>
      <trkpt lat="45.05027" lon="5.07871">
        <ele>170</ele>
        <time>2009-04-25T14:50:47Z</time>
      </trkpt>
      <trkpt lat="45.05089" lon="5.07818">
        <ele>170</ele>
        <time>2009-04-25T14:50:57Z</time>
      </trkpt>
      <trkpt lat="45.05234" lon="5.07729">
        <ele>170</ele>
        <time>2009-04-25T14:51:20Z</time>
      </trkpt>
      <trkpt lat="45.05241" lon="5.07738">
        <ele>170</ele>
        <time>2009-04-25T14:51:21Z</time>
      </trkpt>
      <trkpt lat="45.05255" lon="5.07735">
        <ele>170</ele>
        <time>2009-04-25T14:51:23Z</time>
      </trkpt>
      <trkpt lat="45.05265" lon="5.07699">
        <ele>170</ele>
        <time>2009-04-25T14:51:27Z</time>
      </trkpt>
      <trkpt lat="45.05377" lon="5.07523">
        <ele>170</ele>
        <time>2009-04-25T14:51:51Z</time>
      </trkpt>
      <trkpt lat="45.05484" lon="5.07327">
        <ele>170</ele>
        <time>2009-04-25T14:52:17Z</time>
      </trkpt>
      <trkpt lat="45.05566" lon="5.07154">
        <ele>169</ele>
        <time>2009-04-25T14:52:38Z</time>
      </trkpt>
      <trkpt lat="45.05578" lon="5.07158">
        <ele>169</ele>
        <time>2009-04-25T14:52:40Z</time>
      </trkpt>
      <trkpt lat="45.0559" lon="5.07148">
        <ele>169</ele>
        <time>2009-04-25T14:52:42Z</time>
      </trkpt>
      <trkpt lat="45.05593" lon="5.07131">
        <ele>169</ele>
        <time>2009-04-25T14:52:44Z</time>
      </trkpt>
      <trkpt lat="45.05586" lon="5.07115">
        <ele>169</ele>
        <time>2009-04-25T14:52:46Z</time>
      </trkpt>
      <trkpt lat="45.05603" lon="5.07085">
        <ele>169</ele>
        <time>2009-04-25T14:52:49Z</time>
      </trkpt>
      <trkpt lat="45.05623" lon="5.07036">
        <ele>169.42309570312</ele>
        <time>2009-04-25T14:52:55Z</time>
      </trkpt>
      <trkpt lat="45.05639" lon="5.06955">
        <ele>169.99987792969</ele>
        <time>2009-04-25T14:53:04Z</time>
      </trkpt>
      <trkpt lat="45.0567" lon="5.06732">
        <ele>170</ele>
        <time>2009-04-25T14:53:27Z</time>
      </trkpt>
      <trkpt lat="45.05708" lon="5.0654">
        <ele>169.71212768555</ele>
        <time>2009-04-25T14:53:47Z</time>
      </trkpt>
      <trkpt lat="45.0573" lon="5.06468">
        <ele>169.89112854004</ele>
        <time>2009-04-25T14:53:55Z</time>
      </trkpt>
      <trkpt lat="45.05744" lon="5.06474">
        <ele>170</ele>
        <time>2009-04-25T14:53:58Z</time>
      </trkpt>
      <trkpt lat="45.05754" lon="5.06466">
        <ele>170</ele>
        <time>2009-04-25T14:53:59Z</time>
      </trkpt>
      <trkpt lat="45.05758" lon="5.06452">
        <ele>170</ele>
        <time>2009-04-25T14:54:01Z</time>
      </trkpt>
      <trkpt lat="45.05754" lon="5.06435">
        <ele>170</ele>
        <time>2009-04-25T14:54:03Z</time>
      </trkpt>
      <trkpt lat="45.05824" lon="5.06413">
        <ele>170</ele>
        <time>2009-04-25T14:54:13Z</time>
      </trkpt>
      <trkpt lat="45.05851" lon="5.06412">
        <ele>170</ele>
        <time>2009-04-25T14:54:17Z</time>
      </trkpt>
      <trkpt lat="45.05863" lon="5.064">
        <ele>170.02996826172</ele>
        <time>2009-04-25T14:54:19Z</time>
      </trkpt>
      <trkpt lat="45.05933" lon="5.06371">
        <ele>170.73495483398</ele>
        <time>2009-04-25T14:54:30Z</time>
      </trkpt>
      <trkpt lat="45.06011" lon="5.06341">
        <ele>171</ele>
        <time>2009-04-25T14:54:41Z</time>
      </trkpt>
      <trkpt lat="45.06094" lon="5.06329">
        <ele>171</ele>
        <time>2009-04-25T14:54:53Z</time>
      </trkpt>
      <trkpt lat="45.06198" lon="5.06329">
        <ele>172</ele>
        <time>2009-04-25T14:55:08Z</time>
      </trkpt>
      <trkpt lat="45.06268" lon="5.06311">
        <ele>172</ele>
        <time>2009-04-25T14:55:19Z</time>
      </trkpt>
      <trkpt lat="45.06328" lon="5.06289">
        <ele>172</ele>
        <time>2009-04-25T14:55:28Z</time>
      </trkpt>
      <trkpt lat="45.06392" lon="5.06253">
        <ele>172.10864257812</ele>
        <time>2009-04-25T14:55:37Z</time>
      </trkpt>
      <trkpt lat="45.06443" lon="5.06218">
        <ele>173</ele>
        <time>2009-04-25T14:55:46Z</time>
      </trkpt>
      <trkpt lat="45.06491" lon="5.06197">
        <ele>173</ele>
        <time>2009-04-25T14:55:53Z</time>
      </trkpt>
      <trkpt lat="45.06564" lon="5.06156">
        <ele>172</ele>
        <time>2009-04-25T14:56:04Z</time>
      </trkpt>
      <trkpt lat="45.06636" lon="5.06127">
        <ele>173</ele>
        <time>2009-04-25T14:56:15Z</time>
      </trkpt>
      <trkpt lat="45.06696" lon="5.06092">
        <ele>173</ele>
        <time>2009-04-25T14:56:25Z</time>
      </trkpt>
      <trkpt lat="45.06725" lon="5.06067">
        <ele>172.37150573731</ele>
        <time>2009-04-25T14:56:29Z</time>
      </trkpt>
      <trkpt lat="45.06784" lon="5.05998">
        <ele>172</ele>
        <time>2009-04-25T14:56:40Z</time>
      </trkpt>
      <trkpt lat="45.06796" lon="5.05958">
        <ele>171.66592407227</ele>
        <time>2009-04-25T14:56:45Z</time>
      </trkpt>
      <trkpt lat="45.06797" lon="5.05943">
        <ele>171.29118347168</ele>
        <time>2009-04-25T14:56:46Z</time>
      </trkpt>
      <trkpt lat="45.06789" lon="5.05759">
        <ele>170.59539794922</ele>
        <time>2009-04-25T14:57:05Z</time>
      </trkpt>
      <trkpt lat="45.0677" lon="5.05574">
        <ele>170</ele>
        <time>2009-04-25T14:57:24Z</time>
      </trkpt>
      <trkpt lat="45.06739" lon="5.05372">
        <ele>170</ele>
        <time>2009-04-25T14:57:45Z</time>
      </trkpt>
      <trkpt lat="45.06724" lon="5.05179">
        <ele>170</ele>
        <time>2009-04-25T14:58:05Z</time>
      </trkpt>
      <trkpt lat="45.07017" lon="5.05095">
        <ele>174.61688232422</ele>
        <time>2009-04-25T14:58:49Z</time>
      </trkpt>
      <trkpt lat="45.07022" lon="5.05105">
        <ele>174.79541015625</ele>
        <time>2009-04-25T14:58:50Z</time>
      </trkpt>
      <trkpt lat="45.07033" lon="5.05105">
        <ele>175.38732910156</ele>
        <time>2009-04-25T14:58:51Z</time>
      </trkpt>
      <trkpt lat="45.07038" lon="5.05089">
        <ele>175.74438476562</ele>
        <time>2009-04-25T14:58:53Z</time>
      </trkpt>
      <trkpt lat="45.0723" lon="5.05034">
        <ele>187.00131225586</ele>
        <time>2009-04-25T14:59:21Z</time>
      </trkpt>
      <trkpt lat="45.07281" lon="5.05012">
        <ele>190.55160522461</ele>
        <time>2009-04-25T14:59:29Z</time>
      </trkpt>
      <trkpt lat="45.07339" lon="5.0498">
        <ele>192.69462585449</ele>
        <time>2009-04-25T14:59:38Z</time>
      </trkpt>
      <trkpt lat="45.07396" lon="5.04937">
        <ele>193.98498535156</ele>
        <time>2009-04-25T14:59:48Z</time>
      </trkpt>
      <trkpt lat="45.07424" lon="5.04917">
        <ele>194.2819519043</ele>
        <time>2009-04-25T14:59:52Z</time>
      </trkpt>
      <trkpt lat="45.0745" lon="5.04906">
        <ele>194.61552429199</ele>
        <time>2009-04-25T14:59:56Z</time>
      </trkpt>
      <trkpt lat="45.08408" lon="5.04787">
        <ele>197</ele>
        <time>2009-04-25T15:02:15Z</time>
      </trkpt>
      <trkpt lat="45.08416" lon="5.04792">
        <ele>197</ele>
        <time>2009-04-25T15:02:16Z</time>
      </trkpt>
      <trkpt lat="45.08457" lon="5.04786">
        <ele>197.29652404785</ele>
        <time>2009-04-25T15:02:22Z</time>
      </trkpt>
      <trkpt lat="45.08464" lon="5.04787">
        <ele>197.33258056641</ele>
        <time>2009-04-25T15:02:23Z</time>
      </trkpt>
      <trkpt lat="45.0847" lon="5.04795">
        <ele>197.61924743652</ele>
        <time>2009-04-25T15:02:24Z</time>
      </trkpt>
      <trkpt lat="45.08479" lon="5.04795">
        <ele>197.61924743652</ele>
        <time>2009-04-25T15:02:26Z</time>
      </trkpt>
      <trkpt lat="45.08486" lon="5.04785">
        <ele>197.2604675293</ele>
        <time>2009-04-25T15:02:27Z</time>
      </trkpt>
      <trkpt lat="45.08539" lon="5.04773">
        <ele>198</ele>
        <time>2009-04-25T15:02:35Z</time>
      </trkpt>
      <trkpt lat="45.08855" lon="5.04731">
        <ele>200</ele>
        <time>2009-04-25T15:03:21Z</time>
      </trkpt>
      <trkpt lat="45.08965" lon="5.04722">
        <ele>200.00527954102</ele>
        <time>2009-04-25T15:03:37Z</time>
      </trkpt>
      <trkpt lat="45.09163" lon="5.04729">
        <ele>209.75654602051</ele>
        <time>2009-04-25T15:04:05Z</time>
      </trkpt>
      <trkpt lat="45.09173" lon="5.04745">
        <ele>209.17976379394</ele>
        <time>2009-04-25T15:04:08Z</time>
      </trkpt>
      <trkpt lat="45.09188" lon="5.04785">
        <ele>206.53872680664</ele>
        <time>2009-04-25T15:04:12Z</time>
      </trkpt>
      <trkpt lat="45.09179" lon="5.04793">
        <ele>206.21139526367</ele>
        <time>2009-04-25T15:04:14Z</time>
      </trkpt>
      <trkpt lat="45.09178" lon="5.04805">
        <ele>205.61483764648</ele>
        <time>2009-04-25T15:04:15Z</time>
      </trkpt>
      <trkpt lat="45.09183" lon="5.04815">
        <ele>204.72720336914</ele>
        <time>2009-04-25T15:04:16Z</time>
      </trkpt>
      <trkpt lat="45.09189" lon="5.04817">
        <ele>204.37701416016</ele>
        <time>2009-04-25T15:04:17Z</time>
      </trkpt>
      <trkpt lat="45.09197" lon="5.04813">
        <ele>204.46374511719</ele>
        <time>2009-04-25T15:04:18Z</time>
      </trkpt>
      <trkpt lat="45.092" lon="5.04806">
        <ele>204.96842956543</ele>
        <time>2009-04-25T15:04:19Z</time>
      </trkpt>
      <trkpt lat="45.09291" lon="5.04781">
        <ele>209.6824798584</ele>
        <time>2009-04-25T15:04:33Z</time>
      </trkpt>
      <trkpt lat="45.09314" lon="5.04748">
        <ele>215.02975463867</ele>
        <time>2009-04-25T15:04:37Z</time>
      </trkpt>
      <trkpt lat="45.09383" lon="5.04697">
        <ele>220</ele>
        <time>2009-04-25T15:04:49Z</time>
      </trkpt>
      <trkpt lat="45.09554" lon="5.0461">
        <ele>220</ele>
        <time>2009-04-25T15:05:15Z</time>
      </trkpt>
      <trkpt lat="45.09583" lon="5.04582">
        <ele>220</ele>
        <time>2009-04-25T15:05:20Z</time>
      </trkpt>
      <trkpt lat="45.09605" lon="5.04548">
        <ele>220</ele>
        <time>2009-04-25T15:05:25Z</time>
      </trkpt>
      <trkpt lat="45.09628" lon="5.04532">
        <ele>220</ele>
        <time>2009-04-25T15:05:28Z</time>
      </trkpt>
      <trkpt lat="45.09697" lon="5.04501">
        <ele>220</ele>
        <time>2009-04-25T15:05:39Z</time>
      </trkpt>
      <trkpt lat="45.09909" lon="5.04437">
        <ele>220</ele>
        <time>2009-04-25T15:06:10Z</time>
      </trkpt>
      <trkpt lat="45.09954" lon="5.04414">
        <ele>220</ele>
        <time>2009-04-25T15:06:17Z</time>
      </trkpt>
      <trkpt lat="45.10001" lon="5.04369">
        <ele>220</ele>
        <time>2009-04-25T15:06:25Z</time>
      </trkpt>
      <trkpt lat="45.10092" lon="5.04295">
        <ele>220</ele>
        <time>2009-04-25T15:06:40Z</time>
      </trkpt>
      <trkpt lat="45.10142" lon="5.04275">
        <ele>220</ele>
        <time>2009-04-25T15:06:48Z</time>
      </trkpt>
      <trkpt lat="45.102" lon="5.04266">
        <ele>220</ele>
        <time>2009-04-25T15:06:56Z</time>
      </trkpt>
      <trkpt lat="45.10229" lon="5.04272">
        <ele>220</ele>
        <time>2009-04-25T15:07:01Z</time>
      </trkpt>
      <trkpt lat="45.10291" lon="5.04304">
        <ele>220</ele>
        <time>2009-04-25T15:07:10Z</time>
      </trkpt>
      <trkpt lat="45.10353" lon="5.04326">
        <ele>220</ele>
        <time>2009-04-25T15:07:19Z</time>
      </trkpt>
      <trkpt lat="45.10411" lon="5.04355">
        <ele>222.03706359863</ele>
        <time>2009-04-25T15:07:28Z</time>
      </trkpt>
      <trkpt lat="45.10425" lon="5.04354">
        <ele>222.66902160644</ele>
        <time>2009-04-25T15:07:30Z</time>
      </trkpt>
      <trkpt lat="45.10689" lon="5.04456">
        <ele>239.62101745606</ele>
        <time>2009-04-25T15:08:10Z</time>
      </trkpt>
      <trkpt lat="45.10718" lon="5.04475">
        <ele>240.04426574707</ele>
        <time>2009-04-25T15:08:14Z</time>
      </trkpt>
      <trkpt lat="45.10863" lon="5.04598">
        <ele>251.61624145508</ele>
        <time>2009-04-25T15:08:39Z</time>
      </trkpt>
      <trkpt lat="45.10944" lon="5.04658">
        <ele>249.63653564453</ele>
        <time>2009-04-25T15:08:52Z</time>
      </trkpt>
      <trkpt lat="45.10969" lon="5.04662">
        <ele>250.37644958496</ele>
        <time>2009-04-25T15:08:56Z</time>
      </trkpt>
      <trkpt lat="45.11084" lon="5.04651">
        <ele>258.14984130859</ele>
        <time>2009-04-25T15:09:12Z</time>
      </trkpt>
      <trkpt lat="45.11197" lon="5.0466">
        <ele>258.3254699707</ele>
        <time>2009-04-25T15:09:29Z</time>
      </trkpt>
      <trkpt lat="45.11384" lon="5.04596">
        <ele>260.54418945312</ele>
        <time>2009-04-25T15:09:57Z</time>
      </trkpt>
      <trkpt lat="45.11449" lon="5.04588">
        <ele>262.83258056641</ele>
        <time>2009-04-25T15:10:06Z</time>
      </trkpt>
      <trkpt lat="45.11504" lon="5.04591">
        <ele>265.24722290039</ele>
        <time>2009-04-25T15:10:14Z</time>
      </trkpt>
      <trkpt lat="45.1154" lon="5.04597">
        <ele>267.15600585938</ele>
        <time>2009-04-25T15:10:19Z</time>
      </trkpt>
      <trkpt lat="45.11582" lon="5.04617">
        <ele>271.21356201172</ele>
        <time>2009-04-25T15:10:26Z</time>
      </trkpt>
      <trkpt lat="45.11653" lon="5.04666">
        <ele>273.10015869141</ele>
        <time>2009-04-25T15:10:37Z</time>
      </trkpt>
      <trkpt lat="45.1179" lon="5.04777">
        <ele>279.4709777832</ele>
        <time>2009-04-25T15:11:00Z</time>
      </trkpt>
      <trkpt lat="45.11816" lon="5.04785">
        <ele>280.37689208984</ele>
        <time>2009-04-25T15:11:04Z</time>
      </trkpt>
      <trkpt lat="45.11869" lon="5.04788">
        <ele>281</ele>
        <time>2009-04-25T15:11:11Z</time>
      </trkpt>
      <trkpt lat="45.11931" lon="5.0478">
        <ele>281</ele>
        <time>2009-04-25T15:11:20Z</time>
      </trkpt>
      <trkpt lat="45.12197" lon="5.04708">
        <ele>281.39208984375</ele>
        <time>2009-04-25T15:11:59Z</time>
      </trkpt>
      <trkpt lat="45.12508" lon="5.04636">
        <ele>282.78466796875</ele>
        <time>2009-04-25T15:12:45Z</time>
      </trkpt>
      <trkpt lat="45.12631" lon="5.04623">
        <ele>295.28295898438</ele>
        <time>2009-04-25T15:13:03Z</time>
      </trkpt>
      <trkpt lat="45.13259" lon="5.04595">
        <ele>281.09127807617</ele>
        <time>2009-04-25T15:14:34Z</time>
      </trkpt>
      <trkpt lat="45.13477" lon="5.04576">
        <ele>278.94622802734</ele>
        <time>2009-04-25T15:15:05Z</time>
      </trkpt>
      <trkpt lat="45.13509" lon="5.04565">
        <ele>277.14004516602</ele>
        <time>2009-04-25T15:15:10Z</time>
      </trkpt>
      <trkpt lat="45.13554" lon="5.04537">
        <ele>276</ele>
        <time>2009-04-25T15:15:17Z</time>
      </trkpt>
      <trkpt lat="45.13914" lon="5.04266">
        <ele>270.48474121094</ele>
        <time>2009-04-25T15:16:16Z</time>
      </trkpt>
      <trkpt lat="45.14434" lon="5.03888">
        <ele>282.60552978516</ele>
        <time>2009-04-25T15:17:41Z</time>
      </trkpt>
      <trkpt lat="45.14459" lon="5.03869">
        <ele>282.28433227539</ele>
        <time>2009-04-25T15:17:45Z</time>
      </trkpt>
      <trkpt lat="45.14473" lon="5.03847">
        <ele>282.01306152344</ele>
        <time>2009-04-25T15:17:48Z</time>
      </trkpt>
      <trkpt lat="45.14488" lon="5.03838">
        <ele>282.09475708008</ele>
        <time>2009-04-25T15:17:50Z</time>
      </trkpt>
      <trkpt lat="45.14494" lon="5.03845">
        <ele>282.32772827148</ele>
        <time>2009-04-25T15:17:51Z</time>
      </trkpt>
      <trkpt lat="45.14503" lon="5.03837">
        <ele>282.24398803711</ele>
        <time>2009-04-25T15:17:53Z</time>
      </trkpt>
      <trkpt lat="45.14502" lon="5.03828">
        <ele>282.05682373047</ele>
        <time>2009-04-25T15:17:54Z</time>
      </trkpt>
      <trkpt lat="45.14494" lon="5.03824">
        <ele>282</ele>
        <time>2009-04-25T15:17:55Z</time>
      </trkpt>
      <trkpt lat="45.14492" lon="5.03789">
        <ele>281.40383911133</ele>
        <time>2009-04-25T15:17:58Z</time>
      </trkpt>
      <trkpt lat="45.14502" lon="5.03749">
        <ele>280.96615600586</ele>
        <time>2009-04-25T15:18:03Z</time>
      </trkpt>
      <trkpt lat="45.145" lon="5.03656">
        <ele>278.61785888672</ele>
        <time>2009-04-25T15:18:12Z</time>
      </trkpt>
      <trkpt lat="45.14517" lon="5.0359">
        <ele>277.70065307617</ele>
        <time>2009-04-25T15:18:19Z</time>
      </trkpt>
      <trkpt lat="45.14564" lon="5.0348">
        <ele>276</ele>
        <time>2009-04-25T15:18:32Z</time>
      </trkpt>
      <trkpt lat="45.14605" lon="5.03276">
        <ele>270.15832519531</ele>
        <time>2009-04-25T15:18:54Z</time>
      </trkpt>
      <trkpt lat="45.14337" lon="5.03147">
        <ele>270</ele>
        <time>2009-04-25T15:19:35Z</time>
      </trkpt>
      <trkpt lat="45.14321" lon="5.03135">
        <ele>269.92175292969</ele>
        <time>2009-04-25T15:19:38Z</time>
      </trkpt>
      <trkpt lat="45.1408" lon="5.02844">
        <ele>263.88171386719</ele>
        <time>2009-04-25T15:20:23Z</time>
      </trkpt>
      <trkpt lat="45.14065" lon="5.02821">
        <ele>263.1926574707</ele>
        <time>2009-04-25T15:20:27Z</time>
      </trkpt>
      <trkpt lat="45.14025" lon="5.0274">
        <ele>262</ele>
        <time>2009-04-25T15:20:37Z</time>
      </trkpt>
      <trkpt lat="45.13966" lon="5.02586">
        <ele>261</ele>
        <time>2009-04-25T15:20:55Z</time>
      </trkpt>
      <trkpt lat="45.13939" lon="5.0253">
        <ele>261</ele>
        <time>2009-04-25T15:21:01Z</time>
      </trkpt>
      <trkpt lat="45.13918" lon="5.02505">
        <ele>260.18060302734</ele>
        <time>2009-04-25T15:21:05Z</time>
      </trkpt>
      <trkpt lat="45.13817" lon="5.02412">
        <ele>260</ele>
        <time>2009-04-25T15:21:23Z</time>
      </trkpt>
      <trkpt lat="45.13496" lon="5.02105">
        <ele>257.52471923828</ele>
        <time>2009-04-25T15:22:19Z</time>
      </trkpt>
      <trkpt lat="45.13447" lon="5.02068">
        <ele>253.14784240723</ele>
        <time>2009-04-25T15:22:27Z</time>
      </trkpt>
      <trkpt lat="45.13384" lon="5.02034">
        <ele>245.68133544922</ele>
        <time>2009-04-25T15:22:37Z</time>
      </trkpt>
      <trkpt lat="45.13269" lon="5.01927">
        <ele>238.6848449707</ele>
        <time>2009-04-25T15:22:56Z</time>
      </trkpt>
      <trkpt lat="45.13248" lon="5.01917">
        <ele>236.78019714356</ele>
        <time>2009-04-25T15:23:00Z</time>
      </trkpt>
      <trkpt lat="45.13146" lon="5.01911">
        <ele>230</ele>
        <time>2009-04-25T15:23:14Z</time>
      </trkpt>
      <trkpt lat="45.13129" lon="5.01886">
        <ele>230.64140319824</ele>
        <time>2009-04-25T15:23:18Z</time>
      </trkpt>
      <trkpt lat="45.13114" lon="5.01853">
        <ele>231.40982055664</ele>
        <time>2009-04-25T15:23:22Z</time>
      </trkpt>
      <trkpt lat="45.13099" lon="5.01777">
        <ele>232.19665527344</ele>
        <time>2009-04-25T15:23:30Z</time>
      </trkpt>
      <trkpt lat="45.13098" lon="5.0164">
        <ele>229.90667724609</ele>
        <time>2009-04-25T15:23:44Z</time>
      </trkpt>
      <trkpt lat="45.13057" lon="5.01512">
        <ele>230.92152404785</ele>
        <time>2009-04-25T15:23:58Z</time>
      </trkpt>
      <trkpt lat="45.12887" lon="5.01176">
        <ele>219.02520751953</ele>
        <time>2009-04-25T15:24:41Z</time>
      </trkpt>
      <trkpt lat="45.12851" lon="5.01133">
        <ele>219</ele>
        <time>2009-04-25T15:24:47Z</time>
      </trkpt>
      <trkpt lat="45.12757" lon="5.01066">
        <ele>221.521484375</ele>
        <time>2009-04-25T15:25:03Z</time>
      </trkpt>
      <trkpt lat="45.12689" lon="5.00992">
        <ele>221.97334289551</ele>
        <time>2009-04-25T15:25:15Z</time>
      </trkpt>
      <trkpt lat="45.12653" lon="5.0094">
        <ele>220.32112121582</ele>
        <time>2009-04-25T15:25:22Z</time>
      </trkpt>
      <trkpt lat="45.12558" lon="5.00776">
        <ele>218.91259765625</ele>
        <time>2009-04-25T15:25:44Z</time>
      </trkpt>
      <trkpt lat="45.12492" lon="5.00687">
        <ele>218.80876159668</ele>
        <time>2009-04-25T15:25:57Z</time>
      </trkpt>
      <trkpt lat="45.12337" lon="5.00533">
        <ele>219.16268920898</ele>
        <time>2009-04-25T15:26:25Z</time>
      </trkpt>
      <trkpt lat="45.12246" lon="5.00381">
        <ele>217.86186218262</ele>
        <time>2009-04-25T15:26:45Z</time>
      </trkpt>
      <trkpt lat="45.12218" lon="5.00346">
        <ele>218.28408813477</ele>
        <time>2009-04-25T15:26:50Z</time>
      </trkpt>
      <trkpt lat="45.12164" lon="5.00302">
        <ele>220.33938598633</ele>
        <time>2009-04-25T15:26:59Z</time>
      </trkpt>
      <trkpt lat="45.12134" lon="5.00261">
        <ele>221.88005065918</ele>
        <time>2009-04-25T15:27:05Z</time>
      </trkpt>
      <trkpt lat="45.12107" lon="5.00191">
        <ele>221.60124206543</ele>
        <time>2009-04-25T15:27:13Z</time>
      </trkpt>
      <trkpt lat="45.12079" lon="5.00063">
        <ele>218.65330505371</ele>
        <time>2009-04-25T15:27:27Z</time>
      </trkpt>
      <trkpt lat="45.12054" lon="5.00011">
        <ele>216.84684753418</ele>
        <time>2009-04-25T15:27:34Z</time>
      </trkpt>
      <trkpt lat="45.11978" lon="4.99881">
        <ele>213.32957458496</ele>
        <time>2009-04-25T15:27:51Z</time>
      </trkpt>
      <trkpt lat="45.11964" lon="4.99849">
        <ele>211.77221679688</ele>
        <time>2009-04-25T15:27:55Z</time>
      </trkpt>
      <trkpt lat="45.1197" lon="4.99768">
        <ele>208.80700683594</ele>
        <time>2009-04-25T15:28:03Z</time>
      </trkpt>
      <trkpt lat="45.11963" lon="4.99741">
        <ele>208.25254821777</ele>
        <time>2009-04-25T15:28:06Z</time>
      </trkpt>
      <trkpt lat="45.11953" lon="4.99738">
        <ele>208.23867797852</ele>
        <time>2009-04-25T15:28:07Z</time>
      </trkpt>
      <trkpt lat="45.12075" lon="4.99532">
        <ele>206.97688293457</ele>
        <time>2009-04-25T15:28:35Z</time>
      </trkpt>
      <trkpt lat="45.12127" lon="4.99425">
        <ele>208.46482849121</ele>
        <time>2009-04-25T15:28:48Z</time>
      </trkpt>
      <trkpt lat="45.1215" lon="4.9936">
        <ele>208.71305847168</ele>
        <time>2009-04-25T15:28:55Z</time>
      </trkpt>
      <trkpt lat="45.12196" lon="4.99199">
        <ele>209.83680725098</ele>
        <time>2009-04-25T15:29:13Z</time>
      </trkpt>
      <trkpt lat="45.12227" lon="4.99065">
        <ele>213.92024230957</ele>
        <time>2009-04-25T15:29:28Z</time>
      </trkpt>
      <trkpt lat="45.12233" lon="4.99065">
        <ele>214.70095825195</ele>
        <time>2009-04-25T15:29:28Z</time>
      </trkpt>
      <trkpt lat="45.12242" lon="4.99055">
        <ele>216.31861877441</ele>
        <time>2009-04-25T15:29:30Z</time>
      </trkpt>
      <trkpt lat="45.12244" lon="4.99043">
        <ele>217.11665344238</ele>
        <time>2009-04-25T15:29:31Z</time>
      </trkpt>
      <trkpt lat="45.12241" lon="4.99028">
        <ele>217.35762023926</ele>
        <time>2009-04-25T15:29:33Z</time>
      </trkpt>
      <trkpt lat="45.12232" lon="4.99019">
        <ele>216.40202331543</ele>
        <time>2009-04-25T15:29:34Z</time>
      </trkpt>
      <trkpt lat="45.1222" lon="4.99021">
        <ele>214.58413696289</ele>
        <time>2009-04-25T15:29:36Z</time>
      </trkpt>
      <trkpt lat="45.12215" lon="4.99027">
        <ele>213.65786743164</ele>
        <time>2009-04-25T15:29:37Z</time>
      </trkpt>
      <trkpt lat="45.12161" lon="4.98968">
        <ele>206.76472473144</ele>
        <time>2009-04-25T15:29:47Z</time>
      </trkpt>
      <trkpt lat="45.12103" lon="4.98886">
        <ele>204.13391113281</ele>
        <time>2009-04-25T15:29:59Z</time>
      </trkpt>
      <trkpt lat="45.12065" lon="4.98815">
        <ele>203.9052734375</ele>
        <time>2009-04-25T15:30:08Z</time>
      </trkpt>
      <trkpt lat="45.12048" lon="4.98766">
        <ele>203.69752502441</ele>
        <time>2009-04-25T15:30:14Z</time>
      </trkpt>
      <trkpt lat="45.12028" lon="4.98671">
        <ele>203.64041137695</ele>
        <time>2009-04-25T15:30:24Z</time>
      </trkpt>
      <trkpt lat="45.12017" lon="4.98555">
        <ele>204.40971374512</ele>
        <time>2009-04-25T15:30:36Z</time>
      </trkpt>
      <trkpt lat="45.1202" lon="4.98488">
        <ele>205.24133300781</ele>
        <time>2009-04-25T15:30:42Z</time>
      </trkpt>
      <trkpt lat="45.12032" lon="4.98446">
        <ele>205.38323974609</ele>
        <time>2009-04-25T15:30:47Z</time>
      </trkpt>
    </trkseg>
  </trk>
</gpx>